<?xml version="1.0" encoding="UTF-8" standalone="no" ?>
<gpx xmlns="http://www.topografix.com/GPX/1/1" xmlns:xsi="http://www.w3.org/2001/XMLSchema-instance" xsi:schemaLocation="http://www.topografix.com/GPX/1/1 http://www.topografix.com/GPX/1/1/gpx.xsd" version="1.1" creator="VisuGPX - https://www.visugpx.com">
  <metadata>
    <name>Vendredi 17 juillet 2026 Dantxaria-Zuga.-Gr.Sare</name>
  </metadata>
  <trk>
    <name><![CDATA[Vendredi 17 juillet 26 Dantxaria - zugarramurdi -grottes Sare]]></name>
    <extensions>
      <line xmlns="http://www.topografix.com/GPX/gpx_style/0/2">
        <width>4</width>
      </line>
    </extensions>
    <trkseg>
      <trkpt lat="43.38668" lon="-1.66328">
        <ele>4</ele>
        <time>2026-07-12T16:56:13.000Z</time>
      </trkpt>
      <trkpt lat="43.38651" lon="-1.66328">
        <ele>4</ele>
        <time>2026-07-12T16:56:16.000Z</time>
      </trkpt>
      <trkpt lat="43.38636" lon="-1.66325">
        <ele>3.9</ele>
        <time>2026-07-12T16:56:19.000Z</time>
      </trkpt>
      <trkpt lat="43.38617" lon="-1.66317">
        <ele>3.4</ele>
        <time>2026-07-12T16:56:22.000Z</time>
      </trkpt>
      <trkpt lat="43.386" lon="-1.66303">
        <ele>1</ele>
        <time>2026-07-12T16:56:26.000Z</time>
      </trkpt>
      <trkpt lat="43.3857" lon="-1.66267">
        <ele>2</ele>
        <time>2026-07-12T16:56:33.000Z</time>
      </trkpt>
      <trkpt lat="43.38503" lon="-1.66208">
        <ele>4</ele>
        <time>2026-07-12T16:56:47.000Z</time>
      </trkpt>
      <trkpt lat="43.38496" lon="-1.66199">
        <ele>5</ele>
        <time>2026-07-12T16:56:49.000Z</time>
      </trkpt>
      <trkpt lat="43.38487" lon="-1.66173">
        <ele>5</ele>
        <time>2026-07-12T16:56:52.000Z</time>
      </trkpt>
      <trkpt lat="43.38484" lon="-1.66174">
        <ele>5</ele>
        <time>2026-07-12T16:56:53.000Z</time>
      </trkpt>
      <trkpt lat="43.3848" lon="-1.66172">
        <ele>5</ele>
        <time>2026-07-12T16:56:54.000Z</time>
      </trkpt>
      <trkpt lat="43.38478" lon="-1.66167">
        <ele>6</ele>
        <time>2026-07-12T16:56:54.000Z</time>
      </trkpt>
      <trkpt lat="43.38477" lon="-1.66161">
        <ele>5</ele>
        <time>2026-07-12T16:56:55.000Z</time>
      </trkpt>
      <trkpt lat="43.38479" lon="-1.66155">
        <ele>5</ele>
        <time>2026-07-12T16:56:56.000Z</time>
      </trkpt>
      <trkpt lat="43.38462" lon="-1.66121">
        <ele>5</ele>
        <time>2026-07-12T16:57:01.000Z</time>
      </trkpt>
      <trkpt lat="43.38445" lon="-1.66095">
        <ele>5</ele>
        <time>2026-07-12T16:57:06.000Z</time>
      </trkpt>
      <trkpt lat="43.38347" lon="-1.65961">
        <ele>6</ele>
        <time>2026-07-12T16:57:31.000Z</time>
      </trkpt>
      <trkpt lat="43.3834" lon="-1.65943">
        <ele>6</ele>
        <time>2026-07-12T16:57:33.000Z</time>
      </trkpt>
      <trkpt lat="43.38336" lon="-1.65944">
        <ele>6</ele>
        <time>2026-07-12T16:57:34.000Z</time>
      </trkpt>
      <trkpt lat="43.3833" lon="-1.65941">
        <ele>6</ele>
        <time>2026-07-12T16:57:35.000Z</time>
      </trkpt>
      <trkpt lat="43.38328" lon="-1.65932">
        <ele>6</ele>
        <time>2026-07-12T16:57:36.000Z</time>
      </trkpt>
      <trkpt lat="43.3833" lon="-1.65928">
        <ele>6</ele>
        <time>2026-07-12T16:57:37.000Z</time>
      </trkpt>
      <trkpt lat="43.38324" lon="-1.65923">
        <ele>6</ele>
        <time>2026-07-12T16:57:38.000Z</time>
      </trkpt>
      <trkpt lat="43.38309" lon="-1.65902">
        <ele>5</ele>
        <time>2026-07-12T16:57:42.000Z</time>
      </trkpt>
      <trkpt lat="43.38298" lon="-1.65877">
        <ele>4</ele>
        <time>2026-07-12T16:57:46.000Z</time>
      </trkpt>
      <trkpt lat="43.38234" lon="-1.65703">
        <ele>4</ele>
        <time>2026-07-12T16:58:11.000Z</time>
      </trkpt>
      <trkpt lat="43.38233" lon="-1.65687">
        <ele>4</ele>
        <time>2026-07-12T16:58:13.000Z</time>
      </trkpt>
      <trkpt lat="43.38236" lon="-1.65679">
        <ele>4</ele>
        <time>2026-07-12T16:58:14.000Z</time>
      </trkpt>
      <trkpt lat="43.38252" lon="-1.65655">
        <ele>4</ele>
        <time>2026-07-12T16:58:18.000Z</time>
      </trkpt>
      <trkpt lat="43.38351" lon="-1.65522">
        <ele>4</ele>
        <time>2026-07-12T16:58:43.000Z</time>
      </trkpt>
      <trkpt lat="43.38357" lon="-1.65509">
        <ele>4</ele>
        <time>2026-07-12T16:58:45.000Z</time>
      </trkpt>
      <trkpt lat="43.38352" lon="-1.65508">
        <ele>4</ele>
        <time>2026-07-12T16:58:46.000Z</time>
      </trkpt>
      <trkpt lat="43.38328" lon="-1.65473">
        <ele>4</ele>
        <time>2026-07-12T16:58:52.000Z</time>
      </trkpt>
      <trkpt lat="43.38325" lon="-1.65465">
        <ele>4</ele>
        <time>2026-07-12T16:58:53.000Z</time>
      </trkpt>
      <trkpt lat="43.38326" lon="-1.65462">
        <ele>4</ele>
        <time>2026-07-12T16:58:54.000Z</time>
      </trkpt>
      <trkpt lat="43.38327" lon="-1.65457">
        <ele>4</ele>
        <time>2026-07-12T16:58:54.000Z</time>
      </trkpt>
      <trkpt lat="43.38331" lon="-1.65453">
        <ele>5</ele>
        <time>2026-07-12T16:58:55.000Z</time>
      </trkpt>
      <trkpt lat="43.3837" lon="-1.65376">
        <ele>5</ele>
        <time>2026-07-12T16:59:07.000Z</time>
      </trkpt>
      <trkpt lat="43.3839" lon="-1.65332">
        <ele>6</ele>
        <time>2026-07-12T16:59:14.000Z</time>
      </trkpt>
      <trkpt lat="43.38394" lon="-1.65317">
        <ele>8</ele>
        <time>2026-07-12T16:59:16.000Z</time>
      </trkpt>
      <trkpt lat="43.38392" lon="-1.65295">
        <ele>10</ele>
        <time>2026-07-12T16:59:19.000Z</time>
      </trkpt>
      <trkpt lat="43.38384" lon="-1.65266">
        <ele>13</ele>
        <time>2026-07-12T16:59:23.000Z</time>
      </trkpt>
      <trkpt lat="43.38365" lon="-1.65248">
        <ele>13</ele>
        <time>2026-07-12T16:59:27.000Z</time>
      </trkpt>
      <trkpt lat="43.3836" lon="-1.65239">
        <ele>13</ele>
        <time>2026-07-12T16:59:29.000Z</time>
      </trkpt>
      <trkpt lat="43.38356" lon="-1.65227">
        <ele>13</ele>
        <time>2026-07-12T16:59:30.000Z</time>
      </trkpt>
      <trkpt lat="43.38343" lon="-1.652">
        <ele>12</ele>
        <time>2026-07-12T16:59:35.000Z</time>
      </trkpt>
      <trkpt lat="43.38276" lon="-1.65016">
        <ele>9</ele>
        <time>2026-07-12T17:00:01.000Z</time>
      </trkpt>
      <trkpt lat="43.3826" lon="-1.64971">
        <ele>8</ele>
        <time>2026-07-12T17:00:08.000Z</time>
      </trkpt>
      <trkpt lat="43.38254" lon="-1.64945">
        <ele>8</ele>
        <time>2026-07-12T17:00:11.000Z</time>
      </trkpt>
      <trkpt lat="43.38252" lon="-1.64928">
        <ele>8</ele>
        <time>2026-07-12T17:00:13.000Z</time>
      </trkpt>
      <trkpt lat="43.38255" lon="-1.6488">
        <ele>9</ele>
        <time>2026-07-12T17:00:20.000Z</time>
      </trkpt>
      <trkpt lat="43.38279" lon="-1.64626">
        <ele>7</ele>
        <time>2026-07-12T17:00:53.000Z</time>
      </trkpt>
      <trkpt lat="43.3828" lon="-1.64595">
        <ele>8</ele>
        <time>2026-07-12T17:00:57.000Z</time>
      </trkpt>
      <trkpt lat="43.38277" lon="-1.64488">
        <ele>10</ele>
        <time>2026-07-12T17:01:11.000Z</time>
      </trkpt>
      <trkpt lat="43.38272" lon="-1.64424">
        <ele>8</ele>
        <time>2026-07-12T17:01:19.000Z</time>
      </trkpt>
      <trkpt lat="43.38264" lon="-1.64383">
        <ele>7</ele>
        <time>2026-07-12T17:01:24.000Z</time>
      </trkpt>
      <trkpt lat="43.3825" lon="-1.64341">
        <ele>5</ele>
        <time>2026-07-12T17:01:30.000Z</time>
      </trkpt>
      <trkpt lat="43.38232" lon="-1.64309">
        <ele>5</ele>
        <time>2026-07-12T17:01:36.000Z</time>
      </trkpt>
      <trkpt lat="43.38212" lon="-1.64283">
        <ele>5</ele>
        <time>2026-07-12T17:01:41.000Z</time>
      </trkpt>
      <trkpt lat="43.38155" lon="-1.6423">
        <ele>6</ele>
        <time>2026-07-12T17:01:53.000Z</time>
      </trkpt>
      <trkpt lat="43.3812" lon="-1.64193">
        <ele>6</ele>
        <time>2026-07-12T17:02:01.000Z</time>
      </trkpt>
      <trkpt lat="43.38056" lon="-1.64058">
        <ele>9</ele>
        <time>2026-07-12T17:02:21.000Z</time>
      </trkpt>
      <trkpt lat="43.37906" lon="-1.63917">
        <ele>6</ele>
        <time>2026-07-12T17:02:54.000Z</time>
      </trkpt>
      <trkpt lat="43.37776" lon="-1.63786">
        <ele>8</ele>
        <time>2026-07-12T17:03:22.000Z</time>
      </trkpt>
      <trkpt lat="43.37759" lon="-1.63774">
        <ele>8</ele>
        <time>2026-07-12T17:03:26.000Z</time>
      </trkpt>
      <trkpt lat="43.37738" lon="-1.63772">
        <ele>8</ele>
        <time>2026-07-12T17:03:30.000Z</time>
      </trkpt>
      <trkpt lat="43.37642" lon="-1.63776">
        <ele>6</ele>
        <time>2026-07-12T17:03:47.000Z</time>
      </trkpt>
      <trkpt lat="43.37604" lon="-1.63785">
        <ele>6</ele>
        <time>2026-07-12T17:03:54.000Z</time>
      </trkpt>
      <trkpt lat="43.37541" lon="-1.63786">
        <ele>5</ele>
        <time>2026-07-12T17:04:05.000Z</time>
      </trkpt>
      <trkpt lat="43.37526" lon="-1.63781">
        <ele>5</ele>
        <time>2026-07-12T17:04:08.000Z</time>
      </trkpt>
      <trkpt lat="43.37517" lon="-1.6379">
        <ele>4</ele>
        <time>2026-07-12T17:04:10.000Z</time>
      </trkpt>
      <trkpt lat="43.3751" lon="-1.63791">
        <ele>4</ele>
        <time>2026-07-12T17:04:11.000Z</time>
      </trkpt>
      <trkpt lat="43.37445" lon="-1.63794">
        <ele>4</ele>
        <time>2026-07-12T17:04:22.000Z</time>
      </trkpt>
      <trkpt lat="43.37409" lon="-1.63788">
        <ele>4</ele>
        <time>2026-07-12T17:04:29.000Z</time>
      </trkpt>
      <trkpt lat="43.37111" lon="-1.63806">
        <ele>5</ele>
        <time>2026-07-12T17:05:22.000Z</time>
      </trkpt>
      <trkpt lat="43.37085" lon="-1.63801">
        <ele>6</ele>
        <time>2026-07-12T17:05:27.000Z</time>
      </trkpt>
      <trkpt lat="43.37067" lon="-1.63794">
        <ele>6</ele>
        <time>2026-07-12T17:05:30.000Z</time>
      </trkpt>
      <trkpt lat="43.36753" lon="-1.63597">
        <ele>7</ele>
        <time>2026-07-12T17:06:31.000Z</time>
      </trkpt>
      <trkpt lat="43.36709" lon="-1.63582">
        <ele>8</ele>
        <time>2026-07-12T17:06:39.000Z</time>
      </trkpt>
      <trkpt lat="43.36675" lon="-1.63576">
        <ele>8</ele>
        <time>2026-07-12T17:06:45.000Z</time>
      </trkpt>
      <trkpt lat="43.36638" lon="-1.63578">
        <ele>7</ele>
        <time>2026-07-12T17:06:52.000Z</time>
      </trkpt>
      <trkpt lat="43.36595" lon="-1.63589">
        <ele>5</ele>
        <time>2026-07-12T17:07:00.000Z</time>
      </trkpt>
      <trkpt lat="43.36349" lon="-1.63669">
        <ele>7</ele>
        <time>2026-07-12T17:07:45.000Z</time>
      </trkpt>
      <trkpt lat="43.36308" lon="-1.63673">
        <ele>7</ele>
        <time>2026-07-12T17:07:52.000Z</time>
      </trkpt>
      <trkpt lat="43.36277" lon="-1.63671">
        <ele>6</ele>
        <time>2026-07-12T17:07:58.000Z</time>
      </trkpt>
      <trkpt lat="43.36255" lon="-1.63666">
        <ele>6</ele>
        <time>2026-07-12T17:08:02.000Z</time>
      </trkpt>
      <trkpt lat="43.36097" lon="-1.63603">
        <ele>5</ele>
        <time>2026-07-12T17:08:31.000Z</time>
      </trkpt>
      <trkpt lat="43.36075" lon="-1.63589">
        <ele>5</ele>
        <time>2026-07-12T17:08:35.000Z</time>
      </trkpt>
      <trkpt lat="43.36061" lon="-1.63577">
        <ele>5</ele>
        <time>2026-07-12T17:08:38.000Z</time>
      </trkpt>
      <trkpt lat="43.36039" lon="-1.63549">
        <ele>6</ele>
        <time>2026-07-12T17:08:43.000Z</time>
      </trkpt>
      <trkpt lat="43.36029" lon="-1.63531">
        <ele>6</ele>
        <time>2026-07-12T17:08:46.000Z</time>
      </trkpt>
      <trkpt lat="43.36014" lon="-1.63501">
        <ele>6</ele>
        <time>2026-07-12T17:08:51.000Z</time>
      </trkpt>
      <trkpt lat="43.35995" lon="-1.63453">
        <ele>8</ele>
        <time>2026-07-12T17:08:58.000Z</time>
      </trkpt>
      <trkpt lat="43.35984" lon="-1.63434">
        <ele>8</ele>
        <time>2026-07-12T17:09:01.000Z</time>
      </trkpt>
      <trkpt lat="43.35935" lon="-1.63358">
        <ele>9</ele>
        <time>2026-07-12T17:09:14.000Z</time>
      </trkpt>
      <trkpt lat="43.35921" lon="-1.63341">
        <ele>8</ele>
        <time>2026-07-12T17:09:18.000Z</time>
      </trkpt>
      <trkpt lat="43.35887" lon="-1.63307">
        <ele>9</ele>
        <time>2026-07-12T17:09:25.000Z</time>
      </trkpt>
      <trkpt lat="43.35859" lon="-1.6328">
        <ele>9</ele>
        <time>2026-07-12T17:09:31.000Z</time>
      </trkpt>
      <trkpt lat="43.35789" lon="-1.63219">
        <ele>9</ele>
        <time>2026-07-12T17:09:46.000Z</time>
      </trkpt>
      <trkpt lat="43.3575" lon="-1.63192">
        <ele>7</ele>
        <time>2026-07-12T17:09:54.000Z</time>
      </trkpt>
      <trkpt lat="43.35673" lon="-1.63163">
        <ele>6</ele>
        <time>2026-07-12T17:10:08.000Z</time>
      </trkpt>
      <trkpt lat="43.35667" lon="-1.63163">
        <ele>6</ele>
        <time>2026-07-12T17:10:09.000Z</time>
      </trkpt>
      <trkpt lat="43.35663" lon="-1.63166">
        <ele>6</ele>
        <time>2026-07-12T17:10:10.000Z</time>
      </trkpt>
      <trkpt lat="43.35657" lon="-1.63166">
        <ele>6</ele>
        <time>2026-07-12T17:10:11.000Z</time>
      </trkpt>
      <trkpt lat="43.35638" lon="-1.63154">
        <ele>6</ele>
        <time>2026-07-12T17:10:15.000Z</time>
      </trkpt>
      <trkpt lat="43.35614" lon="-1.63148">
        <ele>5</ele>
        <time>2026-07-12T17:10:19.000Z</time>
      </trkpt>
      <trkpt lat="43.3544" lon="-1.63097">
        <ele>6</ele>
        <time>2026-07-12T17:10:51.000Z</time>
      </trkpt>
      <trkpt lat="43.35403" lon="-1.63082">
        <ele>7</ele>
        <time>2026-07-12T17:10:58.000Z</time>
      </trkpt>
      <trkpt lat="43.35386" lon="-1.63073">
        <ele>7</ele>
        <time>2026-07-12T17:11:01.000Z</time>
      </trkpt>
      <trkpt lat="43.3535" lon="-1.63044">
        <ele>7</ele>
        <time>2026-07-12T17:11:08.000Z</time>
      </trkpt>
      <trkpt lat="43.35306" lon="-1.62998">
        <ele>6</ele>
        <time>2026-07-12T17:11:18.000Z</time>
      </trkpt>
      <trkpt lat="43.35289" lon="-1.62974">
        <ele>6</ele>
        <time>2026-07-12T17:11:22.000Z</time>
      </trkpt>
      <trkpt lat="43.35268" lon="-1.62932">
        <ele>6</ele>
        <time>2026-07-12T17:11:29.000Z</time>
      </trkpt>
      <trkpt lat="43.35255" lon="-1.629">
        <ele>6</ele>
        <time>2026-07-12T17:11:34.000Z</time>
      </trkpt>
      <trkpt lat="43.35207" lon="-1.62759">
        <ele>8</ele>
        <time>2026-07-12T17:11:54.000Z</time>
      </trkpt>
      <trkpt lat="43.35118" lon="-1.62528">
        <ele>12</ele>
        <time>2026-07-12T17:12:28.000Z</time>
      </trkpt>
      <trkpt lat="43.35108" lon="-1.62493">
        <ele>11</ele>
        <time>2026-07-12T17:12:33.000Z</time>
      </trkpt>
      <trkpt lat="43.35103" lon="-1.62461">
        <ele>10</ele>
        <time>2026-07-12T17:12:37.000Z</time>
      </trkpt>
      <trkpt lat="43.35103" lon="-1.62402">
        <ele>11</ele>
        <time>2026-07-12T17:12:44.000Z</time>
      </trkpt>
      <trkpt lat="43.35109" lon="-1.62334">
        <ele>10</ele>
        <time>2026-07-12T17:12:53.000Z</time>
      </trkpt>
      <trkpt lat="43.35118" lon="-1.62308">
        <ele>11</ele>
        <time>2026-07-12T17:12:57.000Z</time>
      </trkpt>
      <trkpt lat="43.35181" lon="-1.62185">
        <ele>11</ele>
        <time>2026-07-12T17:13:16.000Z</time>
      </trkpt>
      <trkpt lat="43.35201" lon="-1.62157">
        <ele>12</ele>
        <time>2026-07-12T17:13:22.000Z</time>
      </trkpt>
      <trkpt lat="43.35214" lon="-1.62143">
        <ele>12</ele>
        <time>2026-07-12T17:13:24.000Z</time>
      </trkpt>
      <trkpt lat="43.3524" lon="-1.62126">
        <ele>14</ele>
        <time>2026-07-12T17:13:30.000Z</time>
      </trkpt>
      <trkpt lat="43.35407" lon="-1.6206">
        <ele>21</ele>
        <time>2026-07-12T17:14:01.000Z</time>
      </trkpt>
      <trkpt lat="43.35432" lon="-1.62045">
        <ele>21</ele>
        <time>2026-07-12T17:14:05.000Z</time>
      </trkpt>
      <trkpt lat="43.35486" lon="-1.62001">
        <ele>18</ele>
        <time>2026-07-12T17:14:17.000Z</time>
      </trkpt>
      <trkpt lat="43.35515" lon="-1.61963">
        <ele>18</ele>
        <time>2026-07-12T17:14:24.000Z</time>
      </trkpt>
      <trkpt lat="43.35787" lon="-1.61535">
        <ele>14</ele>
        <time>2026-07-12T17:15:37.000Z</time>
      </trkpt>
      <trkpt lat="43.35815" lon="-1.61503">
        <ele>12</ele>
        <time>2026-07-12T17:15:44.000Z</time>
      </trkpt>
      <trkpt lat="43.35913" lon="-1.61419">
        <ele>16</ele>
        <time>2026-07-12T17:16:04.000Z</time>
      </trkpt>
      <trkpt lat="43.35934" lon="-1.61396">
        <ele>16</ele>
        <time>2026-07-12T17:16:09.000Z</time>
      </trkpt>
      <trkpt lat="43.36033" lon="-1.61268">
        <ele>11</ele>
        <time>2026-07-12T17:16:33.000Z</time>
      </trkpt>
      <trkpt lat="43.36051" lon="-1.61238">
        <ele>11</ele>
        <time>2026-07-12T17:16:38.000Z</time>
      </trkpt>
      <trkpt lat="43.36075" lon="-1.61188">
        <ele>12</ele>
        <time>2026-07-12T17:16:46.000Z</time>
      </trkpt>
      <trkpt lat="43.36091" lon="-1.61139">
        <ele>13</ele>
        <time>2026-07-12T17:16:53.000Z</time>
      </trkpt>
      <trkpt lat="43.36101" lon="-1.61078">
        <ele>15</ele>
        <time>2026-07-12T17:17:01.000Z</time>
      </trkpt>
      <trkpt lat="43.36105" lon="-1.61018">
        <ele>17</ele>
        <time>2026-07-12T17:17:09.000Z</time>
      </trkpt>
      <trkpt lat="43.36113" lon="-1.60838">
        <ele>16</ele>
        <time>2026-07-12T17:17:32.000Z</time>
      </trkpt>
      <trkpt lat="43.36119" lon="-1.6075">
        <ele>18</ele>
        <time>2026-07-12T17:17:44.000Z</time>
      </trkpt>
      <trkpt lat="43.36118" lon="-1.60724">
        <ele>18</ele>
        <time>2026-07-12T17:17:47.000Z</time>
      </trkpt>
      <trkpt lat="43.36104" lon="-1.60585">
        <ele>18</ele>
        <time>2026-07-12T17:18:05.000Z</time>
      </trkpt>
      <trkpt lat="43.36102" lon="-1.60551">
        <ele>17</ele>
        <time>2026-07-12T17:18:09.000Z</time>
      </trkpt>
      <trkpt lat="43.36102" lon="-1.60518">
        <ele>17</ele>
        <time>2026-07-12T17:18:14.000Z</time>
      </trkpt>
      <trkpt lat="43.36103" lon="-1.60494">
        <ele>17</ele>
        <time>2026-07-12T17:18:17.000Z</time>
      </trkpt>
      <trkpt lat="43.36109" lon="-1.60462">
        <ele>16</ele>
        <time>2026-07-12T17:18:21.000Z</time>
      </trkpt>
      <trkpt lat="43.36125" lon="-1.60411">
        <ele>15</ele>
        <time>2026-07-12T17:18:28.000Z</time>
      </trkpt>
      <trkpt lat="43.36138" lon="-1.60384">
        <ele>15</ele>
        <time>2026-07-12T17:18:33.000Z</time>
      </trkpt>
      <trkpt lat="43.36153" lon="-1.60362">
        <ele>14</ele>
        <time>2026-07-12T17:18:36.000Z</time>
      </trkpt>
      <trkpt lat="43.36173" lon="-1.60338">
        <ele>13</ele>
        <time>2026-07-12T17:18:41.000Z</time>
      </trkpt>
      <trkpt lat="43.36211" lon="-1.60302">
        <ele>16</ele>
        <time>2026-07-12T17:18:49.000Z</time>
      </trkpt>
      <trkpt lat="43.36264" lon="-1.60257">
        <ele>19</ele>
        <time>2026-07-12T17:19:00.000Z</time>
      </trkpt>
      <trkpt lat="43.36299" lon="-1.60225">
        <ele>21</ele>
        <time>2026-07-12T17:19:08.000Z</time>
      </trkpt>
      <trkpt lat="43.36316" lon="-1.60201">
        <ele>20</ele>
        <time>2026-07-12T17:19:12.000Z</time>
      </trkpt>
      <trkpt lat="43.36336" lon="-1.60166">
        <ele>16</ele>
        <time>2026-07-12T17:19:18.000Z</time>
      </trkpt>
      <trkpt lat="43.36371" lon="-1.60073">
        <ele>15</ele>
        <time>2026-07-12T17:19:32.000Z</time>
      </trkpt>
      <trkpt lat="43.36387" lon="-1.60042">
        <ele>15</ele>
        <time>2026-07-12T17:19:36.000Z</time>
      </trkpt>
      <trkpt lat="43.36418" lon="-1.59996">
        <ele>13</ele>
        <time>2026-07-12T17:19:45.000Z</time>
      </trkpt>
      <trkpt lat="43.36447" lon="-1.59965">
        <ele>14</ele>
        <time>2026-07-12T17:19:51.000Z</time>
      </trkpt>
      <trkpt lat="43.36476" lon="-1.5994">
        <ele>14</ele>
        <time>2026-07-12T17:19:57.000Z</time>
      </trkpt>
      <trkpt lat="43.36533" lon="-1.59897">
        <ele>16</ele>
        <time>2026-07-12T17:20:09.000Z</time>
      </trkpt>
      <trkpt lat="43.36549" lon="-1.59873">
        <ele>17</ele>
        <time>2026-07-12T17:20:13.000Z</time>
      </trkpt>
      <trkpt lat="43.36562" lon="-1.59843">
        <ele>18</ele>
        <time>2026-07-12T17:20:18.000Z</time>
      </trkpt>
      <trkpt lat="43.36567" lon="-1.59809">
        <ele>18</ele>
        <time>2026-07-12T17:20:22.000Z</time>
      </trkpt>
      <trkpt lat="43.36588" lon="-1.59546">
        <ele>11</ele>
        <time>2026-07-12T17:20:56.000Z</time>
      </trkpt>
      <trkpt lat="43.36592" lon="-1.59482">
        <ele>9</ele>
        <time>2026-07-12T17:21:05.000Z</time>
      </trkpt>
      <trkpt lat="43.36589" lon="-1.5943">
        <ele>9</ele>
        <time>2026-07-12T17:21:11.000Z</time>
      </trkpt>
      <trkpt lat="43.36581" lon="-1.59376">
        <ele>9</ele>
        <time>2026-07-12T17:21:18.000Z</time>
      </trkpt>
      <trkpt lat="43.36538" lon="-1.59228">
        <ele>10</ele>
        <time>2026-07-12T17:21:39.000Z</time>
      </trkpt>
      <trkpt lat="43.36482" lon="-1.59044">
        <ele>9</ele>
        <time>2026-07-12T17:22:05.000Z</time>
      </trkpt>
      <trkpt lat="43.3646" lon="-1.58976">
        <ele>11</ele>
        <time>2026-07-12T17:22:14.000Z</time>
      </trkpt>
      <trkpt lat="43.36444" lon="-1.58941">
        <ele>12</ele>
        <time>2026-07-12T17:22:20.000Z</time>
      </trkpt>
      <trkpt lat="43.36427" lon="-1.58913">
        <ele>13</ele>
        <time>2026-07-12T17:22:25.000Z</time>
      </trkpt>
      <trkpt lat="43.36402" lon="-1.58885">
        <ele>17</ele>
        <time>2026-07-12T17:22:30.000Z</time>
      </trkpt>
      <trkpt lat="43.36308" lon="-1.58801">
        <ele>19</ele>
        <time>2026-07-12T17:22:50.000Z</time>
      </trkpt>
      <trkpt lat="43.3628" lon="-1.58766">
        <ele>18</ele>
        <time>2026-07-12T17:22:57.000Z</time>
      </trkpt>
      <trkpt lat="43.36257" lon="-1.58723">
        <ele>14</ele>
        <time>2026-07-12T17:23:04.000Z</time>
      </trkpt>
      <trkpt lat="43.36164" lon="-1.58429">
        <ele>12</ele>
        <time>2026-07-12T17:23:45.000Z</time>
      </trkpt>
      <trkpt lat="43.36139" lon="-1.58363">
        <ele>12</ele>
        <time>2026-07-12T17:23:55.000Z</time>
      </trkpt>
      <trkpt lat="43.36129" lon="-1.58341">
        <ele>12</ele>
        <time>2026-07-12T17:23:58.000Z</time>
      </trkpt>
      <trkpt lat="43.36109" lon="-1.58303">
        <ele>12</ele>
        <time>2026-07-12T17:24:04.000Z</time>
      </trkpt>
      <trkpt lat="43.36003" lon="-1.58148">
        <ele>11</ele>
        <time>2026-07-12T17:24:32.000Z</time>
      </trkpt>
      <trkpt lat="43.35894" lon="-1.57993">
        <ele>11</ele>
        <time>2026-07-12T17:25:00.000Z</time>
      </trkpt>
      <trkpt lat="43.35882" lon="-1.57972">
        <ele>11</ele>
        <time>2026-07-12T17:25:03.000Z</time>
      </trkpt>
      <trkpt lat="43.35852" lon="-1.57913">
        <ele>12</ele>
        <time>2026-07-12T17:25:13.000Z</time>
      </trkpt>
      <trkpt lat="43.35838" lon="-1.57869">
        <ele>11</ele>
        <time>2026-07-12T17:25:19.000Z</time>
      </trkpt>
      <trkpt lat="43.35807" lon="-1.5772">
        <ele>12</ele>
        <time>2026-07-12T17:25:39.000Z</time>
      </trkpt>
      <trkpt lat="43.35782" lon="-1.57586">
        <ele>13</ele>
        <time>2026-07-12T17:25:57.000Z</time>
      </trkpt>
      <trkpt lat="43.35779" lon="-1.57552">
        <ele>13</ele>
        <time>2026-07-12T17:26:01.000Z</time>
      </trkpt>
      <trkpt lat="43.35779" lon="-1.57526">
        <ele>13</ele>
        <time>2026-07-12T17:26:05.000Z</time>
      </trkpt>
      <trkpt lat="43.35774" lon="-1.5748">
        <ele>13</ele>
        <time>2026-07-12T17:26:11.000Z</time>
      </trkpt>
      <trkpt lat="43.3577" lon="-1.57476">
        <ele>13</ele>
        <time>2026-07-12T17:26:11.000Z</time>
      </trkpt>
      <trkpt lat="43.35768" lon="-1.57469">
        <ele>13</ele>
        <time>2026-07-12T17:26:12.000Z</time>
      </trkpt>
      <trkpt lat="43.35771" lon="-1.57459">
        <ele>13</ele>
        <time>2026-07-12T17:26:14.000Z</time>
      </trkpt>
      <trkpt lat="43.35767" lon="-1.57433">
        <ele>13</ele>
        <time>2026-07-12T17:26:17.000Z</time>
      </trkpt>
      <trkpt lat="43.35763" lon="-1.57418">
        <ele>13</ele>
        <time>2026-07-12T17:26:19.000Z</time>
      </trkpt>
      <trkpt lat="43.35745" lon="-1.57225">
        <ele>14</ele>
        <time>2026-07-12T17:26:44.000Z</time>
      </trkpt>
      <trkpt lat="43.3574" lon="-1.57189">
        <ele>15</ele>
        <time>2026-07-12T17:26:49.000Z</time>
      </trkpt>
      <trkpt lat="43.35733" lon="-1.5716">
        <ele>15</ele>
        <time>2026-07-12T17:26:53.000Z</time>
      </trkpt>
      <trkpt lat="43.35723" lon="-1.57132">
        <ele>15</ele>
        <time>2026-07-12T17:26:57.000Z</time>
      </trkpt>
      <trkpt lat="43.35625" lon="-1.56922">
        <ele>17</ele>
        <time>2026-07-12T17:27:29.000Z</time>
      </trkpt>
      <trkpt lat="43.35597" lon="-1.56872">
        <ele>17</ele>
        <time>2026-07-12T17:27:38.000Z</time>
      </trkpt>
      <trkpt lat="43.35588" lon="-1.56851">
        <ele>17</ele>
        <time>2026-07-12T17:27:41.000Z</time>
      </trkpt>
      <trkpt lat="43.35586" lon="-1.56839">
        <ele>17</ele>
        <time>2026-07-12T17:27:42.000Z</time>
      </trkpt>
      <trkpt lat="43.35585" lon="-1.56813">
        <ele>17</ele>
        <time>2026-07-12T17:27:46.000Z</time>
      </trkpt>
      <trkpt lat="43.35589" lon="-1.56787">
        <ele>17</ele>
        <time>2026-07-12T17:27:49.000Z</time>
      </trkpt>
      <trkpt lat="43.35608" lon="-1.56729">
        <ele>18</ele>
        <time>2026-07-12T17:27:57.000Z</time>
      </trkpt>
      <trkpt lat="43.35617" lon="-1.56692">
        <ele>19</ele>
        <time>2026-07-12T17:28:02.000Z</time>
      </trkpt>
      <trkpt lat="43.35625" lon="-1.56642">
        <ele>19</ele>
        <time>2026-07-12T17:28:09.000Z</time>
      </trkpt>
      <trkpt lat="43.35624" lon="-1.56615">
        <ele>19</ele>
        <time>2026-07-12T17:28:13.000Z</time>
      </trkpt>
      <trkpt lat="43.35619" lon="-1.56612">
        <ele>19</ele>
        <time>2026-07-12T17:28:14.000Z</time>
      </trkpt>
      <trkpt lat="43.35615" lon="-1.56601">
        <ele>19</ele>
        <time>2026-07-12T17:28:15.000Z</time>
      </trkpt>
      <trkpt lat="43.35617" lon="-1.56593">
        <ele>19</ele>
        <time>2026-07-12T17:28:16.000Z</time>
      </trkpt>
      <trkpt lat="43.35621" lon="-1.56588">
        <ele>19</ele>
        <time>2026-07-12T17:28:17.000Z</time>
      </trkpt>
      <trkpt lat="43.35624" lon="-1.56587">
        <ele>19</ele>
        <time>2026-07-12T17:28:18.000Z</time>
      </trkpt>
      <trkpt lat="43.35622" lon="-1.56558">
        <ele>19</ele>
        <time>2026-07-12T17:28:22.000Z</time>
      </trkpt>
      <trkpt lat="43.35622" lon="-1.56509">
        <ele>19</ele>
        <time>2026-07-12T17:28:28.000Z</time>
      </trkpt>
      <trkpt lat="43.35616" lon="-1.56498">
        <ele>18</ele>
        <time>2026-07-12T17:28:30.000Z</time>
      </trkpt>
      <trkpt lat="43.3561" lon="-1.56265">
        <ele>18</ele>
        <time>2026-07-12T17:29:00.000Z</time>
      </trkpt>
      <trkpt lat="43.3561" lon="-1.56201">
        <ele>19</ele>
        <time>2026-07-12T17:29:08.000Z</time>
      </trkpt>
      <trkpt lat="43.35614" lon="-1.56149">
        <ele>19</ele>
        <time>2026-07-12T17:29:15.000Z</time>
      </trkpt>
      <trkpt lat="43.35618" lon="-1.56125">
        <ele>18</ele>
        <time>2026-07-12T17:29:18.000Z</time>
      </trkpt>
      <trkpt lat="43.35635" lon="-1.56094">
        <ele>18</ele>
        <time>2026-07-12T17:29:23.000Z</time>
      </trkpt>
      <trkpt lat="43.35642" lon="-1.56085">
        <ele>17</ele>
        <time>2026-07-12T17:29:25.000Z</time>
      </trkpt>
      <trkpt lat="43.35648" lon="-1.5608">
        <ele>17</ele>
        <time>2026-07-12T17:29:26.000Z</time>
      </trkpt>
      <trkpt lat="43.35642" lon="-1.56065">
        <ele>17</ele>
        <time>2026-07-12T17:29:28.000Z</time>
      </trkpt>
      <trkpt lat="43.35629" lon="-1.56039">
        <ele>16</ele>
        <time>2026-07-12T17:29:32.000Z</time>
      </trkpt>
      <trkpt lat="43.35605" lon="-1.56002">
        <ele>15</ele>
        <time>2026-07-12T17:29:39.000Z</time>
      </trkpt>
      <trkpt lat="43.35599" lon="-1.55994">
        <ele>15</ele>
        <time>2026-07-12T17:29:40.000Z</time>
      </trkpt>
      <trkpt lat="43.35597" lon="-1.55988">
        <ele>15</ele>
        <time>2026-07-12T17:29:41.000Z</time>
      </trkpt>
      <trkpt lat="43.3559" lon="-1.55958">
        <ele>15</ele>
        <time>2026-07-12T17:29:45.000Z</time>
      </trkpt>
      <trkpt lat="43.35584" lon="-1.55953">
        <ele>14</ele>
        <time>2026-07-12T17:29:46.000Z</time>
      </trkpt>
      <trkpt lat="43.35547" lon="-1.55943">
        <ele>15</ele>
        <time>2026-07-12T17:29:53.000Z</time>
      </trkpt>
      <trkpt lat="43.35481" lon="-1.55937">
        <ele>15</ele>
        <time>2026-07-12T17:30:05.000Z</time>
      </trkpt>
      <trkpt lat="43.35463" lon="-1.55919">
        <ele>16</ele>
        <time>2026-07-12T17:30:09.000Z</time>
      </trkpt>
      <trkpt lat="43.35475" lon="-1.55904">
        <ele>16</ele>
        <time>2026-07-12T17:30:12.000Z</time>
      </trkpt>
      <trkpt lat="43.35463" lon="-1.55863">
        <ele>16</ele>
        <time>2026-07-12T17:30:17.000Z</time>
      </trkpt>
      <trkpt lat="43.35448" lon="-1.55837">
        <ele>17</ele>
        <time>2026-07-12T17:30:22.000Z</time>
      </trkpt>
      <trkpt lat="43.3541" lon="-1.55801">
        <ele>17</ele>
        <time>2026-07-12T17:30:30.000Z</time>
      </trkpt>
      <trkpt lat="43.35404" lon="-1.55792">
        <ele>17</ele>
        <time>2026-07-12T17:30:32.000Z</time>
      </trkpt>
      <trkpt lat="43.35396" lon="-1.55778">
        <ele>17</ele>
        <time>2026-07-12T17:30:34.000Z</time>
      </trkpt>
      <trkpt lat="43.35363" lon="-1.55679">
        <ele>16</ele>
        <time>2026-07-12T17:30:48.000Z</time>
      </trkpt>
      <trkpt lat="43.35349" lon="-1.55613">
        <ele>18</ele>
        <time>2026-07-12T17:30:57.000Z</time>
      </trkpt>
      <trkpt lat="43.35324" lon="-1.55558">
        <ele>18</ele>
        <time>2026-07-12T17:31:05.000Z</time>
      </trkpt>
      <trkpt lat="43.35291" lon="-1.55501">
        <ele>18</ele>
        <time>2026-07-12T17:31:15.000Z</time>
      </trkpt>
      <trkpt lat="43.35284" lon="-1.55483">
        <ele>18</ele>
        <time>2026-07-12T17:31:17.000Z</time>
      </trkpt>
      <trkpt lat="43.35272" lon="-1.55424">
        <ele>18</ele>
        <time>2026-07-12T17:31:25.000Z</time>
      </trkpt>
      <trkpt lat="43.35265" lon="-1.55375">
        <ele>18</ele>
        <time>2026-07-12T17:31:32.000Z</time>
      </trkpt>
      <trkpt lat="43.35257" lon="-1.55334">
        <ele>18</ele>
        <time>2026-07-12T17:31:37.000Z</time>
      </trkpt>
      <trkpt lat="43.35247" lon="-1.55318">
        <ele>18</ele>
        <time>2026-07-12T17:31:40.000Z</time>
      </trkpt>
      <trkpt lat="43.35239" lon="-1.55309">
        <ele>18</ele>
        <time>2026-07-12T17:31:42.000Z</time>
      </trkpt>
      <trkpt lat="43.35214" lon="-1.55254">
        <ele>17</ele>
        <time>2026-07-12T17:31:50.000Z</time>
      </trkpt>
      <trkpt lat="43.35199" lon="-1.55245">
        <ele>16</ele>
        <time>2026-07-12T17:31:53.000Z</time>
      </trkpt>
      <trkpt lat="43.35104" lon="-1.55262">
        <ele>16</ele>
        <time>2026-07-12T17:32:10.000Z</time>
      </trkpt>
      <trkpt lat="43.34994" lon="-1.55258">
        <ele>17</ele>
        <time>2026-07-12T17:32:30.000Z</time>
      </trkpt>
      <trkpt lat="43.3487" lon="-1.55229">
        <ele>19</ele>
        <time>2026-07-12T17:32:52.000Z</time>
      </trkpt>
      <trkpt lat="43.34857" lon="-1.5523">
        <ele>19</ele>
        <time>2026-07-12T17:32:54.000Z</time>
      </trkpt>
      <trkpt lat="43.34847" lon="-1.55243">
        <ele>18</ele>
        <time>2026-07-12T17:32:57.000Z</time>
      </trkpt>
      <trkpt lat="43.34831" lon="-1.55248">
        <ele>18</ele>
        <time>2026-07-12T17:33:00.000Z</time>
      </trkpt>
      <trkpt lat="43.34821" lon="-1.55247">
        <ele>18</ele>
        <time>2026-07-12T17:33:01.000Z</time>
      </trkpt>
      <trkpt lat="43.34801" lon="-1.55235">
        <ele>19</ele>
        <time>2026-07-12T17:33:05.000Z</time>
      </trkpt>
      <trkpt lat="43.34597" lon="-1.55214">
        <ele>19</ele>
        <time>2026-07-12T17:33:42.000Z</time>
      </trkpt>
      <trkpt lat="43.34571" lon="-1.55205">
        <ele>19</ele>
        <time>2026-07-12T17:33:47.000Z</time>
      </trkpt>
      <trkpt lat="43.34548" lon="-1.55189">
        <ele>20</ele>
        <time>2026-07-12T17:33:51.000Z</time>
      </trkpt>
      <trkpt lat="43.3449" lon="-1.55114">
        <ele>22</ele>
        <time>2026-07-12T17:34:05.000Z</time>
      </trkpt>
      <trkpt lat="43.3434" lon="-1.5491">
        <ele>30</ele>
        <time>2026-07-12T17:34:43.000Z</time>
      </trkpt>
      <trkpt lat="43.34316" lon="-1.54886">
        <ele>30</ele>
        <time>2026-07-12T17:34:48.000Z</time>
      </trkpt>
      <trkpt lat="43.34293" lon="-1.54871">
        <ele>30</ele>
        <time>2026-07-12T17:34:53.000Z</time>
      </trkpt>
      <trkpt lat="43.34268" lon="-1.54861">
        <ele>31</ele>
        <time>2026-07-12T17:34:57.000Z</time>
      </trkpt>
      <trkpt lat="43.34239" lon="-1.54859">
        <ele>32</ele>
        <time>2026-07-12T17:35:02.000Z</time>
      </trkpt>
      <trkpt lat="43.34212" lon="-1.54863">
        <ele>33</ele>
        <time>2026-07-12T17:35:07.000Z</time>
      </trkpt>
      <trkpt lat="43.34189" lon="-1.54871">
        <ele>34</ele>
        <time>2026-07-12T17:35:11.000Z</time>
      </trkpt>
      <trkpt lat="43.33917" lon="-1.55038">
        <ele>45</ele>
        <time>2026-07-12T17:36:04.000Z</time>
      </trkpt>
      <trkpt lat="43.33903" lon="-1.55043">
        <ele>44</ele>
        <time>2026-07-12T17:36:07.000Z</time>
      </trkpt>
      <trkpt lat="43.33883" lon="-1.55045">
        <ele>42</ele>
        <time>2026-07-12T17:36:11.000Z</time>
      </trkpt>
      <trkpt lat="43.33864" lon="-1.55037">
        <ele>40</ele>
        <time>2026-07-12T17:36:14.000Z</time>
      </trkpt>
      <trkpt lat="43.33759" lon="-1.54975">
        <ele>34</ele>
        <time>2026-07-12T17:36:35.000Z</time>
      </trkpt>
      <trkpt lat="43.33749" lon="-1.54969">
        <ele>33</ele>
        <time>2026-07-12T17:36:36.000Z</time>
      </trkpt>
      <trkpt lat="43.33689" lon="-1.54934">
        <ele>34</ele>
        <time>2026-07-12T17:36:48.000Z</time>
      </trkpt>
      <trkpt lat="43.33606" lon="-1.54902">
        <ele>38</ele>
        <time>2026-07-12T17:37:03.000Z</time>
      </trkpt>
      <trkpt lat="43.33531" lon="-1.54866">
        <ele>36</ele>
        <time>2026-07-12T17:37:18.000Z</time>
      </trkpt>
      <trkpt lat="43.33451" lon="-1.54835">
        <ele>35</ele>
        <time>2026-07-12T17:37:32.000Z</time>
      </trkpt>
      <trkpt lat="43.33342" lon="-1.5481">
        <ele>40</ele>
        <time>2026-07-12T17:37:52.000Z</time>
      </trkpt>
      <trkpt lat="43.33316" lon="-1.54798">
        <ele>42</ele>
        <time>2026-07-12T17:37:57.000Z</time>
      </trkpt>
      <trkpt lat="43.33226" lon="-1.54715">
        <ele>40</ele>
        <time>2026-07-12T17:38:16.000Z</time>
      </trkpt>
      <trkpt lat="43.3321" lon="-1.54694">
        <ele>39</ele>
        <time>2026-07-12T17:38:20.000Z</time>
      </trkpt>
      <trkpt lat="43.332" lon="-1.54673">
        <ele>38</ele>
        <time>2026-07-12T17:38:23.000Z</time>
      </trkpt>
      <trkpt lat="43.3317" lon="-1.54594">
        <ele>35</ele>
        <time>2026-07-12T17:38:35.000Z</time>
      </trkpt>
      <trkpt lat="43.33146" lon="-1.54555">
        <ele>34</ele>
        <time>2026-07-12T17:38:41.000Z</time>
      </trkpt>
      <trkpt lat="43.3308" lon="-1.54478">
        <ele>32</ele>
        <time>2026-07-12T17:38:57.000Z</time>
      </trkpt>
      <trkpt lat="43.33056" lon="-1.54454">
        <ele>32</ele>
        <time>2026-07-12T17:39:02.000Z</time>
      </trkpt>
      <trkpt lat="43.33034" lon="-1.54441">
        <ele>31</ele>
        <time>2026-07-12T17:39:06.000Z</time>
      </trkpt>
      <trkpt lat="43.33028" lon="-1.5443">
        <ele>31</ele>
        <time>2026-07-12T17:39:08.000Z</time>
      </trkpt>
      <trkpt lat="43.33006" lon="-1.54418">
        <ele>30</ele>
        <time>2026-07-12T17:39:12.000Z</time>
      </trkpt>
      <trkpt lat="43.32997" lon="-1.54399">
        <ele>30</ele>
        <time>2026-07-12T17:39:15.000Z</time>
      </trkpt>
      <trkpt lat="43.32996" lon="-1.54394">
        <ele>30</ele>
        <time>2026-07-12T17:39:16.000Z</time>
      </trkpt>
      <trkpt lat="43.32987" lon="-1.54398">
        <ele>30</ele>
        <time>2026-07-12T17:39:18.000Z</time>
      </trkpt>
      <trkpt lat="43.32969" lon="-1.5442">
        <ele>30</ele>
        <time>2026-07-12T17:39:22.000Z</time>
      </trkpt>
      <trkpt lat="43.32935" lon="-1.54467">
        <ele>32</ele>
        <time>2026-07-12T17:39:31.000Z</time>
      </trkpt>
      <trkpt lat="43.32876" lon="-1.54504">
        <ele>34</ele>
        <time>2026-07-12T17:39:42.000Z</time>
      </trkpt>
      <trkpt lat="43.32846" lon="-1.54527">
        <ele>37</ele>
        <time>2026-07-12T17:39:48.000Z</time>
      </trkpt>
      <trkpt lat="43.32564" lon="-1.54806">
        <ele>36</ele>
        <time>2026-07-12T17:40:50.000Z</time>
      </trkpt>
      <trkpt lat="43.32463" lon="-1.54893">
        <ele>34</ele>
        <time>2026-07-12T17:41:11.000Z</time>
      </trkpt>
      <trkpt lat="43.32445" lon="-1.54904">
        <ele>34</ele>
        <time>2026-07-12T17:41:15.000Z</time>
      </trkpt>
      <trkpt lat="43.32245" lon="-1.54992">
        <ele>30</ele>
        <time>2026-07-12T17:41:52.000Z</time>
      </trkpt>
      <trkpt lat="43.32183" lon="-1.55023">
        <ele>30</ele>
        <time>2026-07-12T17:42:04.000Z</time>
      </trkpt>
      <trkpt lat="43.32166" lon="-1.55034">
        <ele>31</ele>
        <time>2026-07-12T17:42:07.000Z</time>
      </trkpt>
      <trkpt lat="43.32152" lon="-1.55048">
        <ele>31</ele>
        <time>2026-07-12T17:42:10.000Z</time>
      </trkpt>
      <trkpt lat="43.32145" lon="-1.55031">
        <ele>31</ele>
        <time>2026-07-12T17:42:13.000Z</time>
      </trkpt>
      <trkpt lat="43.32141" lon="-1.55007">
        <ele>30</ele>
        <time>2026-07-12T17:42:16.000Z</time>
      </trkpt>
      <trkpt lat="43.32135" lon="-1.54965">
        <ele>30</ele>
        <time>2026-07-12T17:42:22.000Z</time>
      </trkpt>
      <trkpt lat="43.3213" lon="-1.54933">
        <ele>30</ele>
        <time>2026-07-12T17:42:26.000Z</time>
      </trkpt>
      <trkpt lat="43.32123" lon="-1.54913">
        <ele>30</ele>
        <time>2026-07-12T17:42:29.000Z</time>
      </trkpt>
      <trkpt lat="43.32116" lon="-1.54902">
        <ele>30</ele>
        <time>2026-07-12T17:42:31.000Z</time>
      </trkpt>
      <trkpt lat="43.31936" lon="-1.54676">
        <ele>40</ele>
        <time>2026-07-12T17:43:14.000Z</time>
      </trkpt>
      <trkpt lat="43.31912" lon="-1.5464">
        <ele>39</ele>
        <time>2026-07-12T17:43:20.000Z</time>
      </trkpt>
      <trkpt lat="43.31896" lon="-1.54605">
        <ele>40</ele>
        <time>2026-07-12T17:43:26.000Z</time>
      </trkpt>
      <trkpt lat="43.31881" lon="-1.54558">
        <ele>40</ele>
        <time>2026-07-12T17:43:32.000Z</time>
      </trkpt>
      <trkpt lat="43.31875" lon="-1.54516">
        <ele>40</ele>
        <time>2026-07-12T17:43:38.000Z</time>
      </trkpt>
      <trkpt lat="43.31875" lon="-1.54475">
        <ele>41</ele>
        <time>2026-07-12T17:43:43.000Z</time>
      </trkpt>
      <trkpt lat="43.31878" lon="-1.54436">
        <ele>41</ele>
        <time>2026-07-12T17:43:48.000Z</time>
      </trkpt>
      <trkpt lat="43.31883" lon="-1.54413">
        <ele>42</ele>
        <time>2026-07-12T17:43:51.000Z</time>
      </trkpt>
      <trkpt lat="43.32" lon="-1.5399">
        <ele>38</ele>
        <time>2026-07-12T17:44:50.000Z</time>
      </trkpt>
      <trkpt lat="43.32008" lon="-1.53954">
        <ele>39</ele>
        <time>2026-07-12T17:44:55.000Z</time>
      </trkpt>
      <trkpt lat="43.3201" lon="-1.5392">
        <ele>39</ele>
        <time>2026-07-12T17:44:59.000Z</time>
      </trkpt>
      <trkpt lat="43.31997" lon="-1.53637">
        <ele>40</ele>
        <time>2026-07-12T17:45:36.000Z</time>
      </trkpt>
      <trkpt lat="43.31995" lon="-1.53625">
        <ele>40</ele>
        <time>2026-07-12T17:45:37.000Z</time>
      </trkpt>
      <trkpt lat="43.31987" lon="-1.53592">
        <ele>39</ele>
        <time>2026-07-12T17:45:42.000Z</time>
      </trkpt>
      <trkpt lat="43.31979" lon="-1.53573">
        <ele>40</ele>
        <time>2026-07-12T17:45:45.000Z</time>
      </trkpt>
      <trkpt lat="43.31914" lon="-1.53472">
        <ele>41</ele>
        <time>2026-07-12T17:46:02.000Z</time>
      </trkpt>
      <trkpt lat="43.31773" lon="-1.53258">
        <ele>47</ele>
        <time>2026-07-12T17:46:40.000Z</time>
      </trkpt>
      <trkpt lat="43.31706" lon="-1.53153">
        <ele>48</ele>
        <time>2026-07-12T17:46:58.000Z</time>
      </trkpt>
      <trkpt lat="43.31805" lon="-1.52551">
        <ele>54</ele>
        <time>2026-07-12T17:48:18.000Z</time>
      </trkpt>
      <trkpt lat="43.31809" lon="-1.5252">
        <ele>53</ele>
        <time>2026-07-12T17:48:22.000Z</time>
      </trkpt>
      <trkpt lat="43.31809" lon="-1.52491">
        <ele>53</ele>
        <time>2026-07-12T17:48:25.000Z</time>
      </trkpt>
      <trkpt lat="43.31805" lon="-1.52471">
        <ele>54</ele>
        <time>2026-07-12T17:48:28.000Z</time>
      </trkpt>
      <trkpt lat="43.31799" lon="-1.5245">
        <ele>55</ele>
        <time>2026-07-12T17:48:31.000Z</time>
      </trkpt>
      <trkpt lat="43.31784" lon="-1.52419">
        <ele>56</ele>
        <time>2026-07-12T17:48:36.000Z</time>
      </trkpt>
      <trkpt lat="43.31518" lon="-1.52042">
        <ele>66</ele>
        <time>2026-07-12T17:49:44.000Z</time>
      </trkpt>
      <trkpt lat="43.31501" lon="-1.52025">
        <ele>67</ele>
        <time>2026-07-12T17:49:48.000Z</time>
      </trkpt>
      <trkpt lat="43.3144" lon="-1.51994">
        <ele>68</ele>
        <time>2026-07-12T17:49:59.000Z</time>
      </trkpt>
      <trkpt lat="43.31433" lon="-1.51989">
        <ele>68</ele>
        <time>2026-07-12T17:50:01.000Z</time>
      </trkpt>
      <trkpt lat="43.31426" lon="-1.51977">
        <ele>67</ele>
        <time>2026-07-12T17:50:03.000Z</time>
      </trkpt>
      <trkpt lat="43.3142" lon="-1.51963">
        <ele>67</ele>
        <time>2026-07-12T17:50:05.000Z</time>
      </trkpt>
      <trkpt lat="43.31413" lon="-1.51942">
        <ele>66</ele>
        <time>2026-07-12T17:50:08.000Z</time>
      </trkpt>
      <trkpt lat="43.31389" lon="-1.51818">
        <ele>68</ele>
        <time>2026-07-12T17:50:24.000Z</time>
      </trkpt>
      <trkpt lat="43.31378" lon="-1.51778">
        <ele>67</ele>
        <time>2026-07-12T17:50:30.000Z</time>
      </trkpt>
      <trkpt lat="43.31367" lon="-1.51753">
        <ele>67</ele>
        <time>2026-07-12T17:50:34.000Z</time>
      </trkpt>
      <trkpt lat="43.3124" lon="-1.51561">
        <ele>65</ele>
        <time>2026-07-12T17:51:07.000Z</time>
      </trkpt>
      <trkpt lat="43.3123" lon="-1.51545">
        <ele>66</ele>
        <time>2026-07-12T17:51:10.000Z</time>
      </trkpt>
      <trkpt lat="43.31222" lon="-1.51529">
        <ele>66</ele>
        <time>2026-07-12T17:51:12.000Z</time>
      </trkpt>
      <trkpt lat="43.31205" lon="-1.51461">
        <ele>68</ele>
        <time>2026-07-12T17:51:22.000Z</time>
      </trkpt>
      <trkpt lat="43.31192" lon="-1.51389">
        <ele>67</ele>
        <time>2026-07-12T17:51:31.000Z</time>
      </trkpt>
      <trkpt lat="43.31186" lon="-1.51324">
        <ele>67</ele>
        <time>2026-07-12T17:51:40.000Z</time>
      </trkpt>
      <trkpt lat="43.31182" lon="-1.51232">
        <ele>71</ele>
        <time>2026-07-12T17:51:52.000Z</time>
      </trkpt>
      <trkpt lat="43.31196" lon="-1.51141">
        <ele>70</ele>
        <time>2026-07-12T17:52:04.000Z</time>
      </trkpt>
      <trkpt lat="43.3121" lon="-1.5109">
        <ele>71</ele>
        <time>2026-07-12T17:52:11.000Z</time>
      </trkpt>
      <trkpt lat="43.31221" lon="-1.51056">
        <ele>71</ele>
        <time>2026-07-12T17:52:16.000Z</time>
      </trkpt>
      <trkpt lat="43.31241" lon="-1.51005">
        <ele>71</ele>
        <time>2026-07-12T17:52:23.000Z</time>
      </trkpt>
      <trkpt lat="43.31257" lon="-1.50975">
        <ele>71</ele>
        <time>2026-07-12T17:52:28.000Z</time>
      </trkpt>
      <trkpt lat="43.3129" lon="-1.50939">
        <ele>72</ele>
        <time>2026-07-12T17:52:35.000Z</time>
      </trkpt>
      <trkpt lat="43.31298" lon="-1.50923">
        <ele>72</ele>
        <time>2026-07-12T17:52:38.000Z</time>
      </trkpt>
      <trkpt lat="43.31303" lon="-1.50911">
        <ele>71</ele>
        <time>2026-07-12T17:52:40.000Z</time>
      </trkpt>
      <trkpt lat="43.31355" lon="-1.50708">
        <ele>75</ele>
        <time>2026-07-12T17:53:08.000Z</time>
      </trkpt>
      <trkpt lat="43.3136" lon="-1.50675">
        <ele>77</ele>
        <time>2026-07-12T17:53:12.000Z</time>
      </trkpt>
      <trkpt lat="43.3136" lon="-1.50653">
        <ele>78</ele>
        <time>2026-07-12T17:53:15.000Z</time>
      </trkpt>
      <trkpt lat="43.31358" lon="-1.50641">
        <ele>78</ele>
        <time>2026-07-12T17:53:16.000Z</time>
      </trkpt>
      <trkpt lat="43.31308" lon="-1.50463">
        <ele>78</ele>
        <time>2026-07-12T17:53:41.000Z</time>
      </trkpt>
      <trkpt lat="43.31304" lon="-1.5043">
        <ele>77</ele>
        <time>2026-07-12T17:53:45.000Z</time>
      </trkpt>
      <trkpt lat="43.31308" lon="-1.50349">
        <ele>80</ele>
        <time>2026-07-12T17:53:56.000Z</time>
      </trkpt>
      <trkpt lat="43.31306" lon="-1.50325">
        <ele>82</ele>
        <time>2026-07-12T17:53:59.000Z</time>
      </trkpt>
      <trkpt lat="43.31301" lon="-1.50295">
        <ele>83</ele>
        <time>2026-07-12T17:54:03.000Z</time>
      </trkpt>
      <trkpt lat="43.31292" lon="-1.50272">
        <ele>86</ele>
        <time>2026-07-12T17:54:06.000Z</time>
      </trkpt>
      <trkpt lat="43.31264" lon="-1.50231">
        <ele>91</ele>
        <time>2026-07-12T17:54:14.000Z</time>
      </trkpt>
      <trkpt lat="43.31245" lon="-1.50207">
        <ele>93</ele>
        <time>2026-07-12T17:54:18.000Z</time>
      </trkpt>
      <trkpt lat="43.31207" lon="-1.50166">
        <ele>97</ele>
        <time>2026-07-12T17:54:27.000Z</time>
      </trkpt>
      <trkpt lat="43.31184" lon="-1.50123">
        <ele>97</ele>
        <time>2026-07-12T17:54:34.000Z</time>
      </trkpt>
      <trkpt lat="43.31148" lon="-1.50075">
        <ele>97</ele>
        <time>2026-07-12T17:54:43.000Z</time>
      </trkpt>
      <trkpt lat="43.31135" lon="-1.50043">
        <ele>97</ele>
        <time>2026-07-12T17:54:47.000Z</time>
      </trkpt>
      <trkpt lat="43.31115" lon="-1.50053">
        <ele>98</ele>
        <time>2026-07-12T17:54:51.000Z</time>
      </trkpt>
      <trkpt lat="43.31087" lon="-1.50057">
        <ele>101</ele>
        <time>2026-07-12T17:54:56.000Z</time>
      </trkpt>
      <trkpt lat="43.31073" lon="-1.50055">
        <ele>102</ele>
        <time>2026-07-12T17:54:59.000Z</time>
      </trkpt>
      <trkpt lat="43.31059" lon="-1.50046">
        <ele>103</ele>
        <time>2026-07-12T17:55:02.000Z</time>
      </trkpt>
      <trkpt lat="43.31048" lon="-1.50028">
        <ele>103</ele>
        <time>2026-07-12T17:55:05.000Z</time>
      </trkpt>
      <trkpt lat="43.31015" lon="-1.49941">
        <ele>108</ele>
        <time>2026-07-12T17:55:17.000Z</time>
      </trkpt>
      <trkpt lat="43.31002" lon="-1.49916">
        <ele>110</ele>
        <time>2026-07-12T17:55:21.000Z</time>
      </trkpt>
      <trkpt lat="43.30998" lon="-1.49905">
        <ele>110</ele>
        <time>2026-07-12T17:55:23.000Z</time>
      </trkpt>
      <trkpt lat="43.30997" lon="-1.49903">
        <ele>109</ele>
        <time>2026-07-12T17:55:23.000Z</time>
      </trkpt>
      <trkpt lat="43.30981" lon="-1.499">
        <ele>110</ele>
        <time>2026-07-12T17:55:26.000Z</time>
      </trkpt>
      <trkpt lat="43.30933" lon="-1.49904">
        <ele>112</ele>
        <time>2026-07-12T17:55:35.000Z</time>
      </trkpt>
      <trkpt lat="43.30859" lon="-1.49905">
        <ele>114</ele>
        <time>2026-07-12T17:55:48.000Z</time>
      </trkpt>
      <trkpt lat="43.30812" lon="-1.49905">
        <ele>115</ele>
        <time>2026-07-12T17:55:56.000Z</time>
      </trkpt>
      <trkpt lat="43.30751" lon="-1.49901">
        <ele>116</ele>
        <time>2026-07-12T17:56:07.000Z</time>
      </trkpt>
      <trkpt lat="43.30723" lon="-1.49897">
        <ele>119</ele>
        <time>2026-07-12T17:56:12.000Z</time>
      </trkpt>
      <trkpt lat="43.30679" lon="-1.49877">
        <ele>123</ele>
        <time>2026-07-12T17:56:20.000Z</time>
      </trkpt>
      <trkpt lat="43.30657" lon="-1.49875">
        <ele>125</ele>
        <time>2026-07-12T17:56:24.000Z</time>
      </trkpt>
      <trkpt lat="43.30542" lon="-1.49903">
        <ele>123</ele>
        <time>2026-07-12T17:56:45.000Z</time>
      </trkpt>
      <trkpt lat="43.30524" lon="-1.49905">
        <ele>122</ele>
        <time>2026-07-12T17:56:48.000Z</time>
      </trkpt>
      <trkpt lat="43.30519" lon="-1.49904">
        <ele>121</ele>
        <time>2026-07-12T17:56:49.000Z</time>
      </trkpt>
      <trkpt lat="43.30509" lon="-1.49891">
        <ele>120</ele>
        <time>2026-07-12T17:56:52.000Z</time>
      </trkpt>
      <trkpt lat="43.30501" lon="-1.49874">
        <ele>120</ele>
        <time>2026-07-12T17:56:54.000Z</time>
      </trkpt>
      <trkpt lat="43.30489" lon="-1.49837">
        <ele>119</ele>
        <time>2026-07-12T17:56:59.000Z</time>
      </trkpt>
      <trkpt lat="43.30475" lon="-1.498">
        <ele>119</ele>
        <time>2026-07-12T17:57:05.000Z</time>
      </trkpt>
      <trkpt lat="43.30452" lon="-1.49721">
        <ele>121</ele>
        <time>2026-07-12T17:57:16.000Z</time>
      </trkpt>
      <trkpt lat="43.3044" lon="-1.49684">
        <ele>122</ele>
        <time>2026-07-12T17:57:21.000Z</time>
      </trkpt>
      <trkpt lat="43.30424" lon="-1.49652">
        <ele>124</ele>
        <time>2026-07-12T17:57:26.000Z</time>
      </trkpt>
      <trkpt lat="43.30405" lon="-1.49627">
        <ele>124</ele>
        <time>2026-07-12T17:57:31.000Z</time>
      </trkpt>
      <trkpt lat="43.30381" lon="-1.49605">
        <ele>125</ele>
        <time>2026-07-12T17:57:36.000Z</time>
      </trkpt>
      <trkpt lat="43.30355" lon="-1.49589">
        <ele>124</ele>
        <time>2026-07-12T17:57:41.000Z</time>
      </trkpt>
      <trkpt lat="43.30334" lon="-1.49568">
        <ele>124</ele>
        <time>2026-07-12T17:57:46.000Z</time>
      </trkpt>
      <trkpt lat="43.30325" lon="-1.49545">
        <ele>124</ele>
        <time>2026-07-12T17:57:49.000Z</time>
      </trkpt>
      <trkpt lat="43.3028" lon="-1.49377">
        <ele>129</ele>
        <time>2026-07-12T17:58:12.000Z</time>
      </trkpt>
      <trkpt lat="43.30274" lon="-1.49364">
        <ele>131</ele>
        <time>2026-07-12T17:58:14.000Z</time>
      </trkpt>
      <trkpt lat="43.30267" lon="-1.49355">
        <ele>131</ele>
        <time>2026-07-12T17:58:16.000Z</time>
      </trkpt>
      <trkpt lat="43.30258" lon="-1.49349">
        <ele>131</ele>
        <time>2026-07-12T17:58:18.000Z</time>
      </trkpt>
      <trkpt lat="43.3025" lon="-1.49347">
        <ele>130</ele>
        <time>2026-07-12T17:58:19.000Z</time>
      </trkpt>
      <trkpt lat="43.30235" lon="-1.49349">
        <ele>131</ele>
        <time>2026-07-12T17:58:22.000Z</time>
      </trkpt>
      <trkpt lat="43.30222" lon="-1.49354">
        <ele>131</ele>
        <time>2026-07-12T17:58:24.000Z</time>
      </trkpt>
      <trkpt lat="43.30104" lon="-1.49427">
        <ele>127</ele>
        <time>2026-07-12T17:58:47.000Z</time>
      </trkpt>
      <trkpt lat="43.30073" lon="-1.49438">
        <ele>126</ele>
        <time>2026-07-12T17:58:53.000Z</time>
      </trkpt>
      <trkpt lat="43.30054" lon="-1.49441">
        <ele>127</ele>
        <time>2026-07-12T17:58:56.000Z</time>
      </trkpt>
      <trkpt lat="43.30021" lon="-1.49441">
        <ele>129</ele>
        <time>2026-07-12T17:59:02.000Z</time>
      </trkpt>
      <trkpt lat="43.29985" lon="-1.49434">
        <ele>131</ele>
        <time>2026-07-12T17:59:09.000Z</time>
      </trkpt>
      <trkpt lat="43.2996" lon="-1.49425">
        <ele>133</ele>
        <time>2026-07-12T17:59:13.000Z</time>
      </trkpt>
      <trkpt lat="43.29939" lon="-1.49413">
        <ele>134</ele>
        <time>2026-07-12T17:59:17.000Z</time>
      </trkpt>
      <trkpt lat="43.29917" lon="-1.49397">
        <ele>135</ele>
        <time>2026-07-12T17:59:22.000Z</time>
      </trkpt>
      <trkpt lat="43.29891" lon="-1.49371">
        <ele>136</ele>
        <time>2026-07-12T17:59:27.000Z</time>
      </trkpt>
      <trkpt lat="43.29845" lon="-1.4932">
        <ele>132</ele>
        <time>2026-07-12T17:59:38.000Z</time>
      </trkpt>
      <trkpt lat="43.29821" lon="-1.49304">
        <ele>129</ele>
        <time>2026-07-12T17:59:43.000Z</time>
      </trkpt>
      <trkpt lat="43.29798" lon="-1.49296">
        <ele>127</ele>
        <time>2026-07-12T17:59:47.000Z</time>
      </trkpt>
      <trkpt lat="43.29765" lon="-1.49293">
        <ele>125</ele>
        <time>2026-07-12T17:59:53.000Z</time>
      </trkpt>
      <trkpt lat="43.29736" lon="-1.49301">
        <ele>123</ele>
        <time>2026-07-12T17:59:58.000Z</time>
      </trkpt>
      <trkpt lat="43.29712" lon="-1.49316">
        <ele>121</ele>
        <time>2026-07-12T18:00:03.000Z</time>
      </trkpt>
      <trkpt lat="43.29691" lon="-1.49333">
        <ele>118</ele>
        <time>2026-07-12T18:00:07.000Z</time>
      </trkpt>
      <trkpt lat="43.29653" lon="-1.49374">
        <ele>116</ele>
        <time>2026-07-12T18:00:16.000Z</time>
      </trkpt>
      <trkpt lat="43.29631" lon="-1.49405">
        <ele>114</ele>
        <time>2026-07-12T18:00:21.000Z</time>
      </trkpt>
      <trkpt lat="43.29613" lon="-1.49433">
        <ele>112</ele>
        <time>2026-07-12T18:00:26.000Z</time>
      </trkpt>
      <trkpt lat="43.29606" lon="-1.49449">
        <ele>112</ele>
        <time>2026-07-12T18:00:29.000Z</time>
      </trkpt>
      <trkpt lat="43.29584" lon="-1.49514">
        <ele>113</ele>
        <time>2026-07-12T18:00:38.000Z</time>
      </trkpt>
      <trkpt lat="43.29576" lon="-1.4953">
        <ele>113</ele>
        <time>2026-07-12T18:00:40.000Z</time>
      </trkpt>
      <trkpt lat="43.29566" lon="-1.49546">
        <ele>113</ele>
        <time>2026-07-12T18:00:43.000Z</time>
      </trkpt>
      <trkpt lat="43.29554" lon="-1.4956">
        <ele>113</ele>
        <time>2026-07-12T18:00:46.000Z</time>
      </trkpt>
      <trkpt lat="43.29533" lon="-1.49573">
        <ele>112</ele>
        <time>2026-07-12T18:00:50.000Z</time>
      </trkpt>
      <trkpt lat="43.29485" lon="-1.49597">
        <ele>107</ele>
        <time>2026-07-12T18:00:59.000Z</time>
      </trkpt>
      <trkpt lat="43.29456" lon="-1.4962">
        <ele>103</ele>
        <time>2026-07-12T18:01:05.000Z</time>
      </trkpt>
      <trkpt lat="43.29428" lon="-1.49659">
        <ele>100</ele>
        <time>2026-07-12T18:01:12.000Z</time>
      </trkpt>
      <trkpt lat="43.2942" lon="-1.49673">
        <ele>99</ele>
        <time>2026-07-12T18:01:14.000Z</time>
      </trkpt>
      <trkpt lat="43.29407" lon="-1.49712">
        <ele>101</ele>
        <time>2026-07-12T18:01:20.000Z</time>
      </trkpt>
      <trkpt lat="43.29404" lon="-1.49753">
        <ele>103</ele>
        <time>2026-07-12T18:01:25.000Z</time>
      </trkpt>
      <trkpt lat="43.29407" lon="-1.49805">
        <ele>101</ele>
        <time>2026-07-12T18:01:32.000Z</time>
      </trkpt>
      <trkpt lat="43.2942" lon="-1.4994">
        <ele>91</ele>
        <time>2026-07-12T18:01:50.000Z</time>
      </trkpt>
      <trkpt lat="43.29422" lon="-1.49987">
        <ele>89</ele>
        <time>2026-07-12T18:01:56.000Z</time>
      </trkpt>
      <trkpt lat="43.29423" lon="-1.49996">
        <ele>88</ele>
        <time>2026-07-12T18:01:57.000Z</time>
      </trkpt>
      <trkpt lat="43.2942" lon="-1.50027">
        <ele>88</ele>
        <time>2026-07-12T18:02:01.000Z</time>
      </trkpt>
      <trkpt lat="43.29417" lon="-1.50043">
        <ele>88</ele>
        <time>2026-07-12T18:02:03.000Z</time>
      </trkpt>
      <trkpt lat="43.29412" lon="-1.50058">
        <ele>88</ele>
        <time>2026-07-12T18:02:05.000Z</time>
      </trkpt>
      <trkpt lat="43.2938" lon="-1.5013">
        <ele>86</ele>
        <time>2026-07-12T18:02:16.000Z</time>
      </trkpt>
      <trkpt lat="43.29367" lon="-1.50183">
        <ele>84</ele>
        <time>2026-07-12T18:02:23.000Z</time>
      </trkpt>
      <trkpt lat="43.29343" lon="-1.50313">
        <ele>77</ele>
        <time>2026-07-12T18:02:41.000Z</time>
      </trkpt>
      <trkpt lat="43.29343" lon="-1.50331">
        <ele>77</ele>
        <time>2026-07-12T18:02:43.000Z</time>
      </trkpt>
      <trkpt lat="43.2935" lon="-1.50406">
        <ele>76</ele>
        <time>2026-07-12T18:02:53.000Z</time>
      </trkpt>
      <trkpt lat="43.29351" lon="-1.50432">
        <ele>75</ele>
        <time>2026-07-12T18:02:56.000Z</time>
      </trkpt>
      <trkpt lat="43.29349" lon="-1.50458">
        <ele>74</ele>
        <time>2026-07-12T18:03:00.000Z</time>
      </trkpt>
      <trkpt lat="43.29342" lon="-1.50487">
        <ele>72</ele>
        <time>2026-07-12T18:03:04.000Z</time>
      </trkpt>
      <trkpt lat="43.29334" lon="-1.50511">
        <ele>71</ele>
        <time>2026-07-12T18:03:07.000Z</time>
      </trkpt>
      <trkpt lat="43.29308" lon="-1.50529">
        <ele>70</ele>
        <time>2026-07-12T18:03:12.000Z</time>
      </trkpt>
      <trkpt lat="43.29303" lon="-1.50527">
        <ele>70</ele>
        <time>2026-07-12T18:03:13.000Z</time>
      </trkpt>
      <trkpt lat="43.29299" lon="-1.50531">
        <ele>70</ele>
        <time>2026-07-12T18:03:14.000Z</time>
      </trkpt>
      <trkpt lat="43.29295" lon="-1.50534">
        <ele>70</ele>
        <time>2026-07-12T18:03:15.000Z</time>
      </trkpt>
      <trkpt lat="43.29284" lon="-1.50539">
        <ele>70</ele>
        <time>2026-07-12T18:03:17.000Z</time>
      </trkpt>
      <trkpt lat="43.29277" lon="-1.50543">
        <ele>70</ele>
        <time>2026-07-12T18:03:18.000Z</time>
      </trkpt>
      <trkpt lat="43.29247" lon="-1.50548">
        <ele>71</ele>
        <time>2026-07-12T18:03:24.000Z</time>
      </trkpt>
      <trkpt lat="43.29238" lon="-1.50562">
        <ele>71</ele>
        <time>2026-07-12T18:03:26.000Z</time>
      </trkpt>
      <trkpt lat="43.29238" lon="-1.50567">
        <ele>71</ele>
        <time>2026-07-12T18:03:27.000Z</time>
      </trkpt>
      <trkpt lat="43.29235" lon="-1.50575">
        <ele>71</ele>
        <time>2026-07-12T18:03:28.000Z</time>
      </trkpt>
      <trkpt lat="43.29229" lon="-1.50579">
        <ele>71</ele>
        <time>2026-07-12T18:03:29.000Z</time>
      </trkpt>
      <trkpt lat="43.29222" lon="-1.50578">
        <ele>71</ele>
        <time>2026-07-12T18:03:30.000Z</time>
      </trkpt>
      <trkpt lat="43.29217" lon="-1.50571">
        <ele>71</ele>
        <time>2026-07-12T18:03:32.000Z</time>
      </trkpt>
      <trkpt lat="43.29216" lon="-1.50567">
        <ele>71</ele>
        <time>2026-07-12T18:03:32.000Z</time>
      </trkpt>
      <trkpt lat="43.29193" lon="-1.50554">
        <ele>70</ele>
        <time>2026-07-12T18:03:37.000Z</time>
      </trkpt>
      <trkpt lat="43.29145" lon="-1.50559">
        <ele>71</ele>
        <time>2026-07-12T18:03:45.000Z</time>
      </trkpt>
      <trkpt lat="43.29125" lon="-1.5057">
        <ele>71</ele>
        <time>2026-07-12T18:03:49.000Z</time>
      </trkpt>
      <trkpt lat="43.29119" lon="-1.50577">
        <ele>71</ele>
        <time>2026-07-12T18:03:50.000Z</time>
      </trkpt>
      <trkpt lat="43.29115" lon="-1.50578">
        <ele>71</ele>
        <time>2026-07-12T18:03:51.000Z</time>
      </trkpt>
      <trkpt lat="43.29102" lon="-1.50588">
        <ele>72</ele>
        <time>2026-07-12T18:03:54.000Z</time>
      </trkpt>
      <trkpt lat="43.29079" lon="-1.50638">
        <ele>78</ele>
        <time>2026-07-12T18:04:01.000Z</time>
      </trkpt>
      <trkpt lat="43.29057" lon="-1.50675">
        <ele>82</ele>
        <time>2026-07-12T18:04:08.000Z</time>
      </trkpt>
      <trkpt lat="43.29043" lon="-1.5069">
        <ele>86</ele>
        <time>2026-07-12T18:04:11.000Z</time>
      </trkpt>
      <trkpt lat="43.29025" lon="-1.50706">
        <ele>90</ele>
        <time>2026-07-12T18:04:15.000Z</time>
      </trkpt>
      <trkpt lat="43.2899" lon="-1.50723">
        <ele>91</ele>
        <time>2026-07-12T18:04:21.000Z</time>
      </trkpt>
      <trkpt lat="43.28939" lon="-1.50734">
        <ele>88</ele>
        <time>2026-07-12T18:04:30.000Z</time>
      </trkpt>
      <trkpt lat="43.28907" lon="-1.50744">
        <ele>86</ele>
        <time>2026-07-12T18:04:36.000Z</time>
      </trkpt>
      <trkpt lat="43.28854" lon="-1.5077">
        <ele>84</ele>
        <time>2026-07-12T18:04:46.000Z</time>
      </trkpt>
      <trkpt lat="43.28837" lon="-1.50781">
        <ele>83</ele>
        <time>2026-07-12T18:04:50.000Z</time>
      </trkpt>
      <trkpt lat="43.28824" lon="-1.50794">
        <ele>85</ele>
        <time>2026-07-12T18:04:52.000Z</time>
      </trkpt>
      <trkpt lat="43.28814" lon="-1.50808">
        <ele>86</ele>
        <time>2026-07-12T18:04:55.000Z</time>
      </trkpt>
      <trkpt lat="43.28805" lon="-1.50826">
        <ele>89</ele>
        <time>2026-07-12T18:04:58.000Z</time>
      </trkpt>
      <trkpt lat="43.28798" lon="-1.50851">
        <ele>90</ele>
        <time>2026-07-12T18:05:01.000Z</time>
      </trkpt>
      <trkpt lat="43.28795" lon="-1.50873">
        <ele>91</ele>
        <time>2026-07-12T18:05:04.000Z</time>
      </trkpt>
      <trkpt lat="43.28797" lon="-1.509">
        <ele>93</ele>
        <time>2026-07-12T18:05:08.000Z</time>
      </trkpt>
      <trkpt lat="43.28815" lon="-1.50985">
        <ele>100</ele>
        <time>2026-07-12T18:05:19.000Z</time>
      </trkpt>
      <trkpt lat="43.28817" lon="-1.51011">
        <ele>101</ele>
        <time>2026-07-12T18:05:23.000Z</time>
      </trkpt>
      <trkpt lat="43.28812" lon="-1.5105">
        <ele>105</ele>
        <time>2026-07-12T18:05:28.000Z</time>
      </trkpt>
      <trkpt lat="43.28806" lon="-1.51081">
        <ele>107</ele>
        <time>2026-07-12T18:05:32.000Z</time>
      </trkpt>
      <trkpt lat="43.28793" lon="-1.51117">
        <ele>108</ele>
        <time>2026-07-12T18:05:37.000Z</time>
      </trkpt>
      <trkpt lat="43.28782" lon="-1.51135">
        <ele>108</ele>
        <time>2026-07-12T18:05:40.000Z</time>
      </trkpt>
      <trkpt lat="43.28718" lon="-1.51215">
        <ele>113</ele>
        <time>2026-07-12T18:05:55.000Z</time>
      </trkpt>
      <trkpt lat="43.28694" lon="-1.51241">
        <ele>115</ele>
        <time>2026-07-12T18:06:01.000Z</time>
      </trkpt>
      <trkpt lat="43.28673" lon="-1.51256">
        <ele>115</ele>
        <time>2026-07-12T18:06:05.000Z</time>
      </trkpt>
      <trkpt lat="43.28658" lon="-1.51263">
        <ele>115</ele>
        <time>2026-07-12T18:06:08.000Z</time>
      </trkpt>
      <trkpt lat="43.28635" lon="-1.51268">
        <ele>117</ele>
        <time>2026-07-12T18:06:12.000Z</time>
      </trkpt>
      <trkpt lat="43.28582" lon="-1.5127">
        <ele>121</ele>
        <time>2026-07-12T18:06:21.000Z</time>
      </trkpt>
      <trkpt lat="43.2856" lon="-1.51276">
        <ele>122</ele>
        <time>2026-07-12T18:06:25.000Z</time>
      </trkpt>
      <trkpt lat="43.28518" lon="-1.51294">
        <ele>127</ele>
        <time>2026-07-12T18:06:33.000Z</time>
      </trkpt>
      <trkpt lat="43.28491" lon="-1.51299">
        <ele>130</ele>
        <time>2026-07-12T18:06:38.000Z</time>
      </trkpt>
      <trkpt lat="43.28477" lon="-1.51299">
        <ele>131</ele>
        <time>2026-07-12T18:06:41.000Z</time>
      </trkpt>
      <trkpt lat="43.28446" lon="-1.51298">
        <ele>133</ele>
        <time>2026-07-12T18:06:46.000Z</time>
      </trkpt>
      <trkpt lat="43.2841" lon="-1.51302">
        <ele>137</ele>
        <time>2026-07-12T18:06:53.000Z</time>
      </trkpt>
      <trkpt lat="43.28393" lon="-1.51307">
        <ele>138</ele>
        <time>2026-07-12T18:06:56.000Z</time>
      </trkpt>
      <trkpt lat="43.28332" lon="-1.51336">
        <ele>144</ele>
        <time>2026-07-12T18:07:07.000Z</time>
      </trkpt>
      <trkpt lat="43.2828" lon="-1.51345">
        <ele>145</ele>
        <time>2026-07-12T18:07:16.000Z</time>
      </trkpt>
      <trkpt lat="43.28266" lon="-1.51352">
        <ele>146</ele>
        <time>2026-07-12T18:07:19.000Z</time>
      </trkpt>
      <trkpt lat="43.28247" lon="-1.51364">
        <ele>148</ele>
        <time>2026-07-12T18:07:23.000Z</time>
      </trkpt>
      <trkpt lat="43.28219" lon="-1.51389">
        <ele>151</ele>
        <time>2026-07-12T18:07:29.000Z</time>
      </trkpt>
      <trkpt lat="43.282" lon="-1.51402">
        <ele>152</ele>
        <time>2026-07-12T18:07:33.000Z</time>
      </trkpt>
      <trkpt lat="43.28181" lon="-1.51407">
        <ele>151</ele>
        <time>2026-07-12T18:07:36.000Z</time>
      </trkpt>
      <trkpt lat="43.28148" lon="-1.51412">
        <ele>150</ele>
        <time>2026-07-12T18:07:42.000Z</time>
      </trkpt>
      <trkpt lat="43.28128" lon="-1.51421">
        <ele>150</ele>
        <time>2026-07-12T18:07:46.000Z</time>
      </trkpt>
      <trkpt lat="43.28108" lon="-1.51436">
        <ele>151</ele>
        <time>2026-07-12T18:07:50.000Z</time>
      </trkpt>
      <trkpt lat="43.28017" lon="-1.51563">
        <ele>159</ele>
        <time>2026-07-12T18:08:13.000Z</time>
      </trkpt>
      <trkpt lat="43.28004" lon="-1.51574">
        <ele>159</ele>
        <time>2026-07-12T18:08:16.000Z</time>
      </trkpt>
      <trkpt lat="43.27951" lon="-1.51607">
        <ele>158</ele>
        <time>2026-07-12T18:08:26.000Z</time>
      </trkpt>
      <trkpt lat="43.27939" lon="-1.51621">
        <ele>157</ele>
        <time>2026-07-12T18:08:29.000Z</time>
      </trkpt>
      <trkpt lat="43.2793" lon="-1.51634">
        <ele>157</ele>
        <time>2026-07-12T18:08:31.000Z</time>
      </trkpt>
      <trkpt lat="43.2792" lon="-1.51654">
        <ele>157</ele>
        <time>2026-07-12T18:08:34.000Z</time>
      </trkpt>
      <trkpt lat="43.27914" lon="-1.51676">
        <ele>157</ele>
        <time>2026-07-12T18:08:37.000Z</time>
      </trkpt>
      <trkpt lat="43.27909" lon="-1.51732">
        <ele>157</ele>
        <time>2026-07-12T18:08:45.000Z</time>
      </trkpt>
      <trkpt lat="43.27905" lon="-1.51751">
        <ele>156</ele>
        <time>2026-07-12T18:08:47.000Z</time>
      </trkpt>
      <trkpt lat="43.27898" lon="-1.51771">
        <ele>155</ele>
        <time>2026-07-12T18:08:50.000Z</time>
      </trkpt>
      <trkpt lat="43.2789" lon="-1.51788">
        <ele>155</ele>
        <time>2026-07-12T18:08:53.000Z</time>
      </trkpt>
      <trkpt lat="43.27844" lon="-1.51852">
        <ele>154</ele>
        <time>2026-07-12T18:09:04.000Z</time>
      </trkpt>
      <trkpt lat="43.27771" lon="-1.5197">
        <ele>155</ele>
        <time>2026-07-12T18:09:24.000Z</time>
      </trkpt>
      <trkpt lat="43.27724" lon="-1.52038">
        <ele>155</ele>
        <time>2026-07-12T18:09:36.000Z</time>
      </trkpt>
      <trkpt lat="43.27676" lon="-1.52098">
        <ele>157</ele>
        <time>2026-07-12T18:09:48.000Z</time>
      </trkpt>
      <trkpt lat="43.27654" lon="-1.52122">
        <ele>158</ele>
        <time>2026-07-12T18:09:53.000Z</time>
      </trkpt>
      <trkpt lat="43.27618" lon="-1.52162">
        <ele>163</ele>
        <time>2026-07-12T18:10:01.000Z</time>
      </trkpt>
      <trkpt lat="43.27594" lon="-1.52202">
        <ele>165</ele>
        <time>2026-07-12T18:10:08.000Z</time>
      </trkpt>
      <trkpt lat="43.27583" lon="-1.52238">
        <ele>165</ele>
        <time>2026-07-12T18:10:13.000Z</time>
      </trkpt>
      <trkpt lat="43.27567" lon="-1.52311">
        <ele>165</ele>
        <time>2026-07-12T18:10:23.000Z</time>
      </trkpt>
      <trkpt lat="43.27544" lon="-1.52438">
        <ele>163</ele>
        <time>2026-07-12T18:10:40.000Z</time>
      </trkpt>
      <trkpt lat="43.2754" lon="-1.52485">
        <ele>162</ele>
        <time>2026-07-12T18:10:46.000Z</time>
      </trkpt>
      <trkpt lat="43.2754" lon="-1.52515">
        <ele>162</ele>
        <time>2026-07-12T18:10:50.000Z</time>
      </trkpt>
      <trkpt lat="43.27546" lon="-1.52625">
        <ele>162</ele>
        <time>2026-07-12T18:11:04.000Z</time>
      </trkpt>
      <trkpt lat="43.27545" lon="-1.5267">
        <ele>161</ele>
        <time>2026-07-12T18:11:10.000Z</time>
      </trkpt>
      <trkpt lat="43.27539" lon="-1.52708">
        <ele>161</ele>
        <time>2026-07-12T18:11:15.000Z</time>
      </trkpt>
      <trkpt lat="43.27509" lon="-1.52825">
        <ele>161</ele>
        <time>2026-07-12T18:11:31.000Z</time>
      </trkpt>
      <trkpt lat="43.27504" lon="-1.52838">
        <ele>162</ele>
        <time>2026-07-12T18:11:33.000Z</time>
      </trkpt>
      <trkpt lat="43.27488" lon="-1.52872">
        <ele>163</ele>
        <time>2026-07-12T18:11:38.000Z</time>
      </trkpt>
      <trkpt lat="43.27468" lon="-1.52898">
        <ele>165</ele>
        <time>2026-07-12T18:11:43.000Z</time>
      </trkpt>
      <trkpt lat="43.27449" lon="-1.52915">
        <ele>166</ele>
        <time>2026-07-12T18:11:47.000Z</time>
      </trkpt>
      <trkpt lat="43.27426" lon="-1.52929">
        <ele>167</ele>
        <time>2026-07-12T18:11:52.000Z</time>
      </trkpt>
      <trkpt lat="43.27387" lon="-1.52943">
        <ele>169</ele>
        <time>2026-07-12T18:11:59.000Z</time>
      </trkpt>
      <trkpt lat="43.27363" lon="-1.52957">
        <ele>171</ele>
        <time>2026-07-12T18:12:03.000Z</time>
      </trkpt>
      <trkpt lat="43.27354" lon="-1.52965">
        <ele>172</ele>
        <time>2026-07-12T18:12:05.000Z</time>
      </trkpt>
      <trkpt lat="43.27343" lon="-1.5298">
        <ele>174</ele>
        <time>2026-07-12T18:12:08.000Z</time>
      </trkpt>
      <trkpt lat="43.27303" lon="-1.5305">
        <ele>178</ele>
        <time>2026-07-12T18:12:20.000Z</time>
      </trkpt>
      <trkpt lat="43.27227" lon="-1.53158">
        <ele>178</ele>
        <time>2026-07-12T18:12:39.000Z</time>
      </trkpt>
      <trkpt lat="43.27198" lon="-1.53214">
        <ele>179</ele>
        <time>2026-07-12T18:12:48.000Z</time>
      </trkpt>
      <trkpt lat="43.27176" lon="-1.5327">
        <ele>179</ele>
        <time>2026-07-12T18:12:56.000Z</time>
      </trkpt>
      <trkpt lat="43.27148" lon="-1.53367">
        <ele>180</ele>
        <time>2026-07-12T18:13:10.000Z</time>
      </trkpt>
      <trkpt lat="43.27143" lon="-1.53382">
        <ele>180</ele>
        <time>2026-07-12T18:13:12.000Z</time>
      </trkpt>
      <trkpt lat="43.27129" lon="-1.53408">
        <ele>182</ele>
        <time>2026-07-12T18:13:16.000Z</time>
      </trkpt>
      <trkpt lat="43.27096" lon="-1.53455">
        <ele>186</ele>
        <time>2026-07-12T18:13:25.000Z</time>
      </trkpt>
      <trkpt lat="43.2707" lon="-1.53502">
        <ele>187</ele>
        <time>2026-07-12T18:13:32.000Z</time>
      </trkpt>
      <trkpt lat="43.27035" lon="-1.53595">
        <ele>191</ele>
        <time>2026-07-12T18:13:46.000Z</time>
      </trkpt>
      <trkpt lat="43.27014" lon="-1.53646">
        <ele>191</ele>
        <time>2026-07-12T18:13:53.000Z</time>
      </trkpt>
      <trkpt lat="43.27005" lon="-1.53684">
        <ele>190</ele>
        <time>2026-07-12T18:13:59.000Z</time>
      </trkpt>
      <trkpt lat="43.27001" lon="-1.53701">
        <ele>190</ele>
        <time>2026-07-12T18:14:01.000Z</time>
      </trkpt>
      <trkpt lat="43.26984" lon="-1.5375">
        <ele>194</ele>
        <time>2026-07-12T18:14:08.000Z</time>
      </trkpt>
      <trkpt lat="43.26979" lon="-1.53783">
        <ele>198</ele>
        <time>2026-07-12T18:14:12.000Z</time>
      </trkpt>
      <trkpt lat="43.26979" lon="-1.53812">
        <ele>201</ele>
        <time>2026-07-12T18:14:16.000Z</time>
      </trkpt>
      <trkpt lat="43.26975" lon="-1.5385">
        <ele>204</ele>
        <time>2026-07-12T18:14:21.000Z</time>
      </trkpt>
      <trkpt lat="43.2696" lon="-1.53925">
        <ele>208</ele>
        <time>2026-07-12T18:14:31.000Z</time>
      </trkpt>
      <trkpt lat="43.2695" lon="-1.5396">
        <ele>208</ele>
        <time>2026-07-12T18:14:36.000Z</time>
      </trkpt>
      <trkpt lat="43.26943" lon="-1.54001">
        <ele>209</ele>
        <time>2026-07-12T18:14:41.000Z</time>
      </trkpt>
      <trkpt lat="43.26941" lon="-1.54053">
        <ele>210</ele>
        <time>2026-07-12T18:14:48.000Z</time>
      </trkpt>
      <trkpt lat="43.26934" lon="-1.541">
        <ele>211</ele>
        <time>2026-07-12T18:14:54.000Z</time>
      </trkpt>
      <trkpt lat="43.26935" lon="-1.5412">
        <ele>210</ele>
        <time>2026-07-12T18:14:57.000Z</time>
      </trkpt>
      <trkpt lat="43.26909" lon="-1.54139">
        <ele>212</ele>
        <time>2026-07-12T18:15:02.000Z</time>
      </trkpt>
      <trkpt lat="43.26866" lon="-1.54104">
        <ele>216</ele>
        <time>2026-07-12T18:15:11.000Z</time>
      </trkpt>
      <trkpt lat="43.26853" lon="-1.54097">
        <ele>218</ele>
        <time>2026-07-12T18:15:14.000Z</time>
      </trkpt>
      <trkpt lat="43.26825" lon="-1.54092">
        <ele>221</ele>
        <time>2026-07-12T18:15:19.000Z</time>
      </trkpt>
      <trkpt lat="43.26802" lon="-1.54083">
        <ele>222</ele>
        <time>2026-07-12T18:15:23.000Z</time>
      </trkpt>
      <trkpt lat="43.26768" lon="-1.54079">
        <ele>222</ele>
        <time>2026-07-12T18:15:29.000Z</time>
      </trkpt>
      <trkpt lat="43.26708" lon="-1.54063">
        <ele>227</ele>
        <time>2026-07-12T18:15:40.000Z</time>
      </trkpt>
      <trkpt lat="43.26698" lon="-1.54062">
        <ele>227</ele>
        <time>2026-07-12T18:15:42.000Z</time>
      </trkpt>
      <trkpt lat="43.26692" lon="-1.54066">
        <ele>227</ele>
        <time>2026-07-12T18:15:43.000Z</time>
      </trkpt>
      <trkpt lat="43.26688" lon="-1.5407">
        <ele>226</ele>
        <time>2026-07-12T18:15:44.000Z</time>
      </trkpt>
      <trkpt lat="43.26676" lon="-1.541">
        <ele>222</ele>
        <time>2026-07-12T18:15:48.000Z</time>
      </trkpt>
      <trkpt lat="43.26667" lon="-1.54114">
        <ele>221</ele>
        <time>2026-07-12T18:15:50.000Z</time>
      </trkpt>
      <trkpt lat="43.26644" lon="-1.54131">
        <ele>222</ele>
        <time>2026-07-12T18:15:55.000Z</time>
      </trkpt>
      <trkpt lat="43.26641" lon="-1.54143">
        <ele>222</ele>
        <time>2026-07-12T18:15:57.000Z</time>
      </trkpt>
      <trkpt lat="43.26643" lon="-1.54156">
        <ele>220</ele>
        <time>2026-07-12T18:15:58.000Z</time>
      </trkpt>
      <trkpt lat="43.26648" lon="-1.54163">
        <ele>219</ele>
        <time>2026-07-12T18:16:00.000Z</time>
      </trkpt>
      <trkpt lat="43.26679" lon="-1.54189">
        <ele>216</ele>
        <time>2026-07-12T18:16:06.000Z</time>
      </trkpt>
      <trkpt lat="43.2669" lon="-1.54202">
        <ele>215</ele>
        <time>2026-07-12T18:16:09.000Z</time>
      </trkpt>
      <trkpt lat="43.26697" lon="-1.54215">
        <ele>214</ele>
        <time>2026-07-12T18:16:11.000Z</time>
      </trkpt>
      <trkpt lat="43.26714" lon="-1.54279">
        <ele>213</ele>
        <time>2026-07-12T18:16:20.000Z</time>
      </trkpt>
      <trkpt lat="43.26729" lon="-1.54332">
        <ele>211</ele>
        <time>2026-07-12T18:16:27.000Z</time>
      </trkpt>
      <trkpt lat="43.26739" lon="-1.54376">
        <ele>206</ele>
        <time>2026-07-12T18:16:33.000Z</time>
      </trkpt>
      <trkpt lat="43.26739" lon="-1.54393">
        <ele>206</ele>
        <time>2026-07-12T18:16:35.000Z</time>
      </trkpt>
      <trkpt lat="43.26736" lon="-1.54422">
        <ele>207</ele>
        <time>2026-07-12T18:16:39.000Z</time>
      </trkpt>
      <trkpt lat="43.26701" lon="-1.54561">
        <ele>207</ele>
        <time>2026-07-12T18:16:58.000Z</time>
      </trkpt>
      <trkpt lat="43.26686" lon="-1.54646">
        <ele>203</ele>
        <time>2026-07-12T18:17:09.000Z</time>
      </trkpt>
      <trkpt lat="43.26669" lon="-1.5468">
        <ele>203</ele>
        <time>2026-07-12T18:17:15.000Z</time>
      </trkpt>
      <trkpt lat="43.26667" lon="-1.54696">
        <ele>202</ele>
        <time>2026-07-12T18:17:17.000Z</time>
      </trkpt>
      <trkpt lat="43.26667" lon="-1.54756">
        <ele>198</ele>
        <time>2026-07-12T18:17:25.000Z</time>
      </trkpt>
      <trkpt lat="43.26665" lon="-1.54787">
        <ele>198</ele>
        <time>2026-07-12T18:17:29.000Z</time>
      </trkpt>
      <trkpt lat="43.26648" lon="-1.54872">
        <ele>204</ele>
        <time>2026-07-12T18:17:40.000Z</time>
      </trkpt>
      <trkpt lat="43.26641" lon="-1.54935">
        <ele>205</ele>
        <time>2026-07-12T18:17:48.000Z</time>
      </trkpt>
      <trkpt lat="43.26633" lon="-1.54976">
        <ele>207</ele>
        <time>2026-07-12T18:17:54.000Z</time>
      </trkpt>
      <trkpt lat="43.26622" lon="-1.55026">
        <ele>209</ele>
        <time>2026-07-12T18:18:01.000Z</time>
      </trkpt>
      <trkpt lat="43.26598" lon="-1.55081">
        <ele>212</ele>
        <time>2026-07-12T18:18:09.000Z</time>
      </trkpt>
      <trkpt lat="43.26585" lon="-1.55098">
        <ele>215</ele>
        <time>2026-07-12T18:18:12.000Z</time>
      </trkpt>
      <trkpt lat="43.26589" lon="-1.55107">
        <ele>215</ele>
        <time>2026-07-12T18:18:13.000Z</time>
      </trkpt>
      <trkpt lat="43.26597" lon="-1.55111">
        <ele>215</ele>
        <time>2026-07-12T18:18:15.000Z</time>
      </trkpt>
      <trkpt lat="43.26623" lon="-1.55108">
        <ele>212</ele>
        <time>2026-07-12T18:18:20.000Z</time>
      </trkpt>
      <trkpt lat="43.2664" lon="-1.55101">
        <ele>209</ele>
        <time>2026-07-12T18:18:23.000Z</time>
      </trkpt>
      <trkpt lat="43.26671" lon="-1.55077">
        <ele>201</ele>
        <time>2026-07-12T18:18:29.000Z</time>
      </trkpt>
      <trkpt lat="43.2668" lon="-1.55073">
        <ele>201</ele>
        <time>2026-07-12T18:18:31.000Z</time>
      </trkpt>
      <trkpt lat="43.26692" lon="-1.55072">
        <ele>200</ele>
        <time>2026-07-12T18:18:33.000Z</time>
      </trkpt>
      <trkpt lat="43.26743" lon="-1.55093">
        <ele>203</ele>
        <time>2026-07-12T18:18:42.000Z</time>
      </trkpt>
      <trkpt lat="43.26758" lon="-1.55105">
        <ele>204</ele>
        <time>2026-07-12T18:18:46.000Z</time>
      </trkpt>
      <trkpt lat="43.26772" lon="-1.55128">
        <ele>208</ele>
        <time>2026-07-12T18:18:49.000Z</time>
      </trkpt>
      <trkpt lat="43.26791" lon="-1.5515">
        <ele>211</ele>
        <time>2026-07-12T18:18:54.000Z</time>
      </trkpt>
      <trkpt lat="43.26822" lon="-1.55159">
        <ele>208</ele>
        <time>2026-07-12T18:18:59.000Z</time>
      </trkpt>
      <trkpt lat="43.26836" lon="-1.55171">
        <ele>208</ele>
        <time>2026-07-12T18:19:02.000Z</time>
      </trkpt>
      <trkpt lat="43.26842" lon="-1.55186">
        <ele>208</ele>
        <time>2026-07-12T18:19:05.000Z</time>
      </trkpt>
      <trkpt lat="43.26844" lon="-1.552">
        <ele>209</ele>
        <time>2026-07-12T18:19:06.000Z</time>
      </trkpt>
      <trkpt lat="43.26841" lon="-1.55232">
        <ele>214</ele>
        <time>2026-07-12T18:19:11.000Z</time>
      </trkpt>
      <trkpt lat="43.26844" lon="-1.55299">
        <ele>218</ele>
        <time>2026-07-12T18:19:19.000Z</time>
      </trkpt>
      <trkpt lat="43.26865" lon="-1.55317">
        <ele>214</ele>
        <time>2026-07-12T18:19:24.000Z</time>
      </trkpt>
      <trkpt lat="43.2687" lon="-1.55332">
        <ele>214</ele>
        <time>2026-07-12T18:19:26.000Z</time>
      </trkpt>
      <trkpt lat="43.26873" lon="-1.55354">
        <ele>212</ele>
        <time>2026-07-12T18:19:29.000Z</time>
      </trkpt>
      <trkpt lat="43.26867" lon="-1.55374">
        <ele>213</ele>
        <time>2026-07-12T18:19:32.000Z</time>
      </trkpt>
      <trkpt lat="43.26854" lon="-1.55403">
        <ele>215</ele>
        <time>2026-07-12T18:19:36.000Z</time>
      </trkpt>
      <trkpt lat="43.26843" lon="-1.55418">
        <ele>217</ele>
        <time>2026-07-12T18:19:39.000Z</time>
      </trkpt>
      <trkpt lat="43.26835" lon="-1.55437">
        <ele>218</ele>
        <time>2026-07-12T18:19:42.000Z</time>
      </trkpt>
      <trkpt lat="43.26835" lon="-1.55459">
        <ele>218</ele>
        <time>2026-07-12T18:19:44.000Z</time>
      </trkpt>
      <trkpt lat="43.26842" lon="-1.55523">
        <ele>214</ele>
        <time>2026-07-12T18:19:53.000Z</time>
      </trkpt>
      <trkpt lat="43.2684" lon="-1.55531">
        <ele>214</ele>
        <time>2026-07-12T18:19:54.000Z</time>
      </trkpt>
      <trkpt lat="43.26837" lon="-1.55536">
        <ele>214</ele>
        <time>2026-07-12T18:19:55.000Z</time>
      </trkpt>
      <trkpt lat="43.26828" lon="-1.55544">
        <ele>216</ele>
        <time>2026-07-12T18:19:57.000Z</time>
      </trkpt>
      <trkpt lat="43.26835" lon="-1.55622">
        <ele>210</ele>
        <time>2026-07-12T18:20:07.000Z</time>
      </trkpt>
      <trkpt lat="43.26856" lon="-1.55664">
        <ele>206</ele>
        <time>2026-07-12T18:20:13.000Z</time>
      </trkpt>
      <trkpt lat="43.26873" lon="-1.55703">
        <ele>205</ele>
        <time>2026-07-12T18:20:19.000Z</time>
      </trkpt>
      <trkpt lat="43.26881" lon="-1.55735">
        <ele>205</ele>
        <time>2026-07-12T18:20:24.000Z</time>
      </trkpt>
      <trkpt lat="43.26886" lon="-1.55774">
        <ele>205</ele>
        <time>2026-07-12T18:20:29.000Z</time>
      </trkpt>
      <trkpt lat="43.26881" lon="-1.55848">
        <ele>205</ele>
        <time>2026-07-12T18:20:39.000Z</time>
      </trkpt>
      <trkpt lat="43.26875" lon="-1.55907">
        <ele>204</ele>
        <time>2026-07-12T18:20:46.000Z</time>
      </trkpt>
      <trkpt lat="43.26883" lon="-1.56043">
        <ele>191</ele>
        <time>2026-07-12T18:21:04.000Z</time>
      </trkpt>
      <trkpt lat="43.26889" lon="-1.56178">
        <ele>179</ele>
        <time>2026-07-12T18:21:21.000Z</time>
      </trkpt>
      <trkpt lat="43.26879" lon="-1.56203">
        <ele>179</ele>
        <time>2026-07-12T18:21:25.000Z</time>
      </trkpt>
      <trkpt lat="43.26857" lon="-1.56225">
        <ele>181</ele>
        <time>2026-07-12T18:21:30.000Z</time>
      </trkpt>
      <trkpt lat="43.26838" lon="-1.56275">
        <ele>181</ele>
        <time>2026-07-12T18:21:37.000Z</time>
      </trkpt>
      <trkpt lat="43.26838" lon="-1.56305">
        <ele>180</ele>
        <time>2026-07-12T18:21:41.000Z</time>
      </trkpt>
      <trkpt lat="43.26846" lon="-1.56339">
        <ele>179</ele>
        <time>2026-07-12T18:21:46.000Z</time>
      </trkpt>
      <trkpt lat="43.26858" lon="-1.56364">
        <ele>178</ele>
        <time>2026-07-12T18:21:50.000Z</time>
      </trkpt>
      <trkpt lat="43.26863" lon="-1.5637">
        <ele>178</ele>
        <time>2026-07-12T18:21:51.000Z</time>
      </trkpt>
      <trkpt lat="43.26872" lon="-1.56376">
        <ele>177</ele>
        <time>2026-07-12T18:21:53.000Z</time>
      </trkpt>
      <trkpt lat="43.26917" lon="-1.56391">
        <ele>174</ele>
        <time>2026-07-12T18:22:01.000Z</time>
      </trkpt>
      <trkpt lat="43.26929" lon="-1.56402">
        <ele>174</ele>
        <time>2026-07-12T18:22:03.000Z</time>
      </trkpt>
      <trkpt lat="43.26933" lon="-1.56414">
        <ele>174</ele>
        <time>2026-07-12T18:22:05.000Z</time>
      </trkpt>
      <trkpt lat="43.26937" lon="-1.56437">
        <ele>176</ele>
        <time>2026-07-12T18:22:08.000Z</time>
      </trkpt>
      <trkpt lat="43.26943" lon="-1.5653">
        <ele>180</ele>
        <time>2026-07-12T18:22:20.000Z</time>
      </trkpt>
      <trkpt lat="43.26944" lon="-1.56609">
        <ele>183</ele>
        <time>2026-07-12T18:22:31.000Z</time>
      </trkpt>
      <trkpt lat="43.26941" lon="-1.56651">
        <ele>184</ele>
        <time>2026-07-12T18:22:36.000Z</time>
      </trkpt>
      <trkpt lat="43.26938" lon="-1.56676">
        <ele>185</ele>
        <time>2026-07-12T18:22:39.000Z</time>
      </trkpt>
      <trkpt lat="43.26934" lon="-1.567">
        <ele>186</ele>
        <time>2026-07-12T18:22:42.000Z</time>
      </trkpt>
      <trkpt lat="43.26918" lon="-1.56753">
        <ele>188</ele>
        <time>2026-07-12T18:22:50.000Z</time>
      </trkpt>
      <trkpt lat="43.26918" lon="-1.56771">
        <ele>189</ele>
        <time>2026-07-12T18:22:52.000Z</time>
      </trkpt>
      <trkpt lat="43.26921" lon="-1.56793">
        <ele>190</ele>
        <time>2026-07-12T18:22:55.000Z</time>
      </trkpt>
      <trkpt lat="43.26927" lon="-1.57027">
        <ele>202</ele>
        <time>2026-07-12T18:23:25.000Z</time>
      </trkpt>
      <trkpt lat="43.26927" lon="-1.57054">
        <ele>202</ele>
        <time>2026-07-12T18:23:29.000Z</time>
      </trkpt>
      <trkpt lat="43.26923" lon="-1.57086">
        <ele>202</ele>
        <time>2026-07-12T18:23:33.000Z</time>
      </trkpt>
      <trkpt lat="43.26921" lon="-1.57085">
        <ele>202</ele>
        <time>2026-07-12T18:23:34.000Z</time>
      </trkpt>
      <trkpt lat="43.26923" lon="-1.57086">
        <ele>202</ele>
        <time>2026-07-12T18:23:34.000Z</time>
      </trkpt>
      <trkpt lat="43.2692" lon="-1.57096">
        <ele>201</ele>
        <time>2026-07-12T18:23:35.000Z</time>
      </trkpt>
      <trkpt lat="43.26913" lon="-1.57109">
        <ele>200</ele>
        <time>2026-07-12T18:23:37.000Z</time>
      </trkpt>
      <trkpt lat="43.26888" lon="-1.57131">
        <ele>201</ele>
        <time>2026-07-12T18:23:43.000Z</time>
      </trkpt>
      <trkpt lat="43.26885" lon="-1.57143">
        <ele>201</ele>
        <time>2026-07-12T18:23:44.000Z</time>
      </trkpt>
      <trkpt lat="43.26888" lon="-1.57155">
        <ele>200</ele>
        <time>2026-07-12T18:23:46.000Z</time>
      </trkpt>
      <trkpt lat="43.26894" lon="-1.57168">
        <ele>199</ele>
        <time>2026-07-12T18:23:48.000Z</time>
      </trkpt>
      <trkpt lat="43.26902" lon="-1.57177">
        <ele>197</ele>
        <time>2026-07-12T18:23:50.000Z</time>
      </trkpt>
      <trkpt lat="43.26932" lon="-1.572">
        <ele>193</ele>
        <time>2026-07-12T18:23:56.000Z</time>
      </trkpt>
      <trkpt lat="43.26959" lon="-1.57213">
        <ele>191</ele>
        <time>2026-07-12T18:24:01.000Z</time>
      </trkpt>
      <trkpt lat="43.2701" lon="-1.57213">
        <ele>187</ele>
        <time>2026-07-12T18:24:10.000Z</time>
      </trkpt>
      <trkpt lat="43.27037" lon="-1.57217">
        <ele>183</ele>
        <time>2026-07-12T18:24:15.000Z</time>
      </trkpt>
      <trkpt lat="43.27055" lon="-1.57227">
        <ele>180</ele>
        <time>2026-07-12T18:24:18.000Z</time>
      </trkpt>
      <trkpt lat="43.27097" lon="-1.57261">
        <ele>173</ele>
        <time>2026-07-12T18:24:27.000Z</time>
      </trkpt>
      <trkpt lat="43.27134" lon="-1.57274">
        <ele>168</ele>
        <time>2026-07-12T18:24:34.000Z</time>
      </trkpt>
      <trkpt lat="43.27175" lon="-1.57275">
        <ele>162</ele>
        <time>2026-07-12T18:24:41.000Z</time>
      </trkpt>
      <trkpt lat="43.27207" lon="-1.57268">
        <ele>160</ele>
        <time>2026-07-12T18:24:47.000Z</time>
      </trkpt>
      <trkpt lat="43.2724" lon="-1.57257">
        <ele>157</ele>
        <time>2026-07-12T18:24:53.000Z</time>
      </trkpt>
      <trkpt lat="43.27258" lon="-1.57255">
        <ele>155</ele>
        <time>2026-07-12T18:24:56.000Z</time>
      </trkpt>
      <trkpt lat="43.2732" lon="-1.57268">
        <ele>152</ele>
        <time>2026-07-12T18:25:07.000Z</time>
      </trkpt>
      <trkpt lat="43.27361" lon="-1.57273">
        <ele>149</ele>
        <time>2026-07-12T18:25:15.000Z</time>
      </trkpt>
      <trkpt lat="43.27366" lon="-1.57265">
        <ele>148</ele>
        <time>2026-07-12T18:25:16.000Z</time>
      </trkpt>
      <trkpt lat="43.27381" lon="-1.57259">
        <ele>147</ele>
        <time>2026-07-12T18:25:19.000Z</time>
      </trkpt>
      <trkpt lat="43.27424" lon="-1.57253">
        <ele>144</ele>
        <time>2026-07-12T18:25:27.000Z</time>
      </trkpt>
      <trkpt lat="43.27434" lon="-1.57248">
        <ele>144</ele>
        <time>2026-07-12T18:25:28.000Z</time>
      </trkpt>
      <trkpt lat="43.27445" lon="-1.57227">
        <ele>143</ele>
        <time>2026-07-12T18:25:32.000Z</time>
      </trkpt>
      <trkpt lat="43.27463" lon="-1.572">
        <ele>143</ele>
        <time>2026-07-12T18:25:36.000Z</time>
      </trkpt>
      <trkpt lat="43.27478" lon="-1.57191">
        <ele>143</ele>
        <time>2026-07-12T18:25:39.000Z</time>
      </trkpt>
      <trkpt lat="43.27515" lon="-1.5718">
        <ele>143</ele>
        <time>2026-07-12T18:25:46.000Z</time>
      </trkpt>
      <trkpt lat="43.27526" lon="-1.57174">
        <ele>144</ele>
        <time>2026-07-12T18:25:48.000Z</time>
      </trkpt>
      <trkpt lat="43.27536" lon="-1.57164">
        <ele>145</ele>
        <time>2026-07-12T18:25:50.000Z</time>
      </trkpt>
      <trkpt lat="43.27562" lon="-1.57108">
        <ele>145</ele>
        <time>2026-07-12T18:25:59.000Z</time>
      </trkpt>
      <trkpt lat="43.27573" lon="-1.57098">
        <ele>144</ele>
        <time>2026-07-12T18:26:01.000Z</time>
      </trkpt>
      <trkpt lat="43.27597" lon="-1.57089">
        <ele>144</ele>
        <time>2026-07-12T18:26:06.000Z</time>
      </trkpt>
      <trkpt lat="43.27611" lon="-1.57087">
        <ele>144</ele>
        <time>2026-07-12T18:26:08.000Z</time>
      </trkpt>
      <trkpt lat="43.2765" lon="-1.5709">
        <ele>145</ele>
        <time>2026-07-12T18:26:15.000Z</time>
      </trkpt>
      <trkpt lat="43.27671" lon="-1.57099">
        <ele>146</ele>
        <time>2026-07-12T18:26:19.000Z</time>
      </trkpt>
      <trkpt lat="43.2769" lon="-1.57109">
        <ele>149</ele>
        <time>2026-07-12T18:26:23.000Z</time>
      </trkpt>
      <trkpt lat="43.27702" lon="-1.57118">
        <ele>150</ele>
        <time>2026-07-12T18:26:25.000Z</time>
      </trkpt>
      <trkpt lat="43.27759" lon="-1.57202">
        <ele>154</ele>
        <time>2026-07-12T18:26:40.000Z</time>
      </trkpt>
      <trkpt lat="43.2777" lon="-1.57215">
        <ele>153</ele>
        <time>2026-07-12T18:26:43.000Z</time>
      </trkpt>
      <trkpt lat="43.27839" lon="-1.57243">
        <ele>153</ele>
        <time>2026-07-12T18:26:56.000Z</time>
      </trkpt>
      <trkpt lat="43.27911" lon="-1.57279">
        <ele>153</ele>
        <time>2026-07-12T18:27:09.000Z</time>
      </trkpt>
      <trkpt lat="43.27926" lon="-1.5728">
        <ele>152</ele>
        <time>2026-07-12T18:27:12.000Z</time>
      </trkpt>
      <trkpt lat="43.27961" lon="-1.57278">
        <ele>151</ele>
        <time>2026-07-12T18:27:18.000Z</time>
      </trkpt>
      <trkpt lat="43.2798" lon="-1.57271">
        <ele>151</ele>
        <time>2026-07-12T18:27:22.000Z</time>
      </trkpt>
      <trkpt lat="43.28073" lon="-1.57236">
        <ele>148</ele>
        <time>2026-07-12T18:27:39.000Z</time>
      </trkpt>
      <trkpt lat="43.28095" lon="-1.57225">
        <ele>146</ele>
        <time>2026-07-12T18:27:43.000Z</time>
      </trkpt>
      <trkpt lat="43.28112" lon="-1.57211">
        <ele>145</ele>
        <time>2026-07-12T18:27:46.000Z</time>
      </trkpt>
      <trkpt lat="43.28155" lon="-1.57172">
        <ele>142</ele>
        <time>2026-07-12T18:27:56.000Z</time>
      </trkpt>
      <trkpt lat="43.28229" lon="-1.57119">
        <ele>131</ele>
        <time>2026-07-12T18:28:10.000Z</time>
      </trkpt>
      <trkpt lat="43.28312" lon="-1.57053">
        <ele>126</ele>
        <time>2026-07-12T18:28:27.000Z</time>
      </trkpt>
      <trkpt lat="43.2833" lon="-1.57041">
        <ele>125</ele>
        <time>2026-07-12T18:28:31.000Z</time>
      </trkpt>
      <trkpt lat="43.28345" lon="-1.57035">
        <ele>125</ele>
        <time>2026-07-12T18:28:34.000Z</time>
      </trkpt>
      <trkpt lat="43.28359" lon="-1.57032">
        <ele>124</ele>
        <time>2026-07-12T18:28:36.000Z</time>
      </trkpt>
      <trkpt lat="43.28375" lon="-1.57033">
        <ele>123</ele>
        <time>2026-07-12T18:28:39.000Z</time>
      </trkpt>
      <trkpt lat="43.28474" lon="-1.57047">
        <ele>116</ele>
        <time>2026-07-12T18:28:57.000Z</time>
      </trkpt>
      <trkpt lat="43.28531" lon="-1.57047">
        <ele>112</ele>
        <time>2026-07-12T18:29:07.000Z</time>
      </trkpt>
      <trkpt lat="43.28584" lon="-1.57038">
        <ele>111</ele>
        <time>2026-07-12T18:29:17.000Z</time>
      </trkpt>
      <trkpt lat="43.28673" lon="-1.57013">
        <ele>105</ele>
        <time>2026-07-12T18:29:33.000Z</time>
      </trkpt>
      <trkpt lat="43.28683" lon="-1.57008">
        <ele>104</ele>
        <time>2026-07-12T18:29:35.000Z</time>
      </trkpt>
      <trkpt lat="43.287" lon="-1.56995">
        <ele>104</ele>
        <time>2026-07-12T18:29:38.000Z</time>
      </trkpt>
      <trkpt lat="43.28711" lon="-1.56989">
        <ele>103</ele>
        <time>2026-07-12T18:29:40.000Z</time>
      </trkpt>
      <trkpt lat="43.28774" lon="-1.56974">
        <ele>102</ele>
        <time>2026-07-12T18:29:52.000Z</time>
      </trkpt>
      <trkpt lat="43.28815" lon="-1.56952">
        <ele>103</ele>
        <time>2026-07-12T18:29:59.000Z</time>
      </trkpt>
      <trkpt lat="43.28828" lon="-1.56948">
        <ele>103</ele>
        <time>2026-07-12T18:30:02.000Z</time>
      </trkpt>
      <trkpt lat="43.28844" lon="-1.56947">
        <ele>102</ele>
        <time>2026-07-12T18:30:05.000Z</time>
      </trkpt>
      <trkpt lat="43.28854" lon="-1.56949">
        <ele>102</ele>
        <time>2026-07-12T18:30:06.000Z</time>
      </trkpt>
      <trkpt lat="43.28885" lon="-1.56965">
        <ele>103</ele>
        <time>2026-07-12T18:30:12.000Z</time>
      </trkpt>
      <trkpt lat="43.28938" lon="-1.56996">
        <ele>104</ele>
        <time>2026-07-12T18:30:23.000Z</time>
      </trkpt>
      <trkpt lat="43.28956" lon="-1.5701">
        <ele>103</ele>
        <time>2026-07-12T18:30:26.000Z</time>
      </trkpt>
      <trkpt lat="43.28982" lon="-1.57039">
        <ele>103</ele>
        <time>2026-07-12T18:30:32.000Z</time>
      </trkpt>
      <trkpt lat="43.29003" lon="-1.57049">
        <ele>102</ele>
        <time>2026-07-12T18:30:36.000Z</time>
      </trkpt>
      <trkpt lat="43.29014" lon="-1.57049">
        <ele>102</ele>
        <time>2026-07-12T18:30:38.000Z</time>
      </trkpt>
      <trkpt lat="43.29021" lon="-1.57046">
        <ele>102</ele>
        <time>2026-07-12T18:30:39.000Z</time>
      </trkpt>
      <trkpt lat="43.29044" lon="-1.57026">
        <ele>101</ele>
        <time>2026-07-12T18:30:44.000Z</time>
      </trkpt>
      <trkpt lat="43.29052" lon="-1.57021">
        <ele>101</ele>
        <time>2026-07-12T18:30:46.000Z</time>
      </trkpt>
      <trkpt lat="43.29075" lon="-1.57025">
        <ele>100</ele>
        <time>2026-07-12T18:30:50.000Z</time>
      </trkpt>
      <trkpt lat="43.29097" lon="-1.57022">
        <ele>101</ele>
        <time>2026-07-12T18:30:54.000Z</time>
      </trkpt>
      <trkpt lat="43.29106" lon="-1.57019">
        <ele>101</ele>
        <time>2026-07-12T18:30:56.000Z</time>
      </trkpt>
      <trkpt lat="43.2913" lon="-1.56999">
        <ele>102</ele>
        <time>2026-07-12T18:31:00.000Z</time>
      </trkpt>
      <trkpt lat="43.29183" lon="-1.56962">
        <ele>100</ele>
        <time>2026-07-12T18:31:11.000Z</time>
      </trkpt>
      <trkpt lat="43.29224" lon="-1.5694">
        <ele>99</ele>
        <time>2026-07-12T18:31:19.000Z</time>
      </trkpt>
      <trkpt lat="43.29245" lon="-1.56935">
        <ele>99</ele>
        <time>2026-07-12T18:31:23.000Z</time>
      </trkpt>
      <trkpt lat="43.29255" lon="-1.56935">
        <ele>99</ele>
        <time>2026-07-12T18:31:24.000Z</time>
      </trkpt>
      <trkpt lat="43.29305" lon="-1.56945">
        <ele>96</ele>
        <time>2026-07-12T18:31:33.000Z</time>
      </trkpt>
      <trkpt lat="43.29319" lon="-1.56946">
        <ele>96</ele>
        <time>2026-07-12T18:31:36.000Z</time>
      </trkpt>
      <trkpt lat="43.29331" lon="-1.56945">
        <ele>95</ele>
        <time>2026-07-12T18:31:38.000Z</time>
      </trkpt>
      <trkpt lat="43.29449" lon="-1.56884">
        <ele>86</ele>
        <time>2026-07-12T18:32:01.000Z</time>
      </trkpt>
      <trkpt lat="43.29472" lon="-1.56878">
        <ele>85</ele>
        <time>2026-07-12T18:32:05.000Z</time>
      </trkpt>
      <trkpt lat="43.29509" lon="-1.56873">
        <ele>83</ele>
        <time>2026-07-12T18:32:11.000Z</time>
      </trkpt>
      <trkpt lat="43.29531" lon="-1.56864">
        <ele>79</ele>
        <time>2026-07-12T18:32:15.000Z</time>
      </trkpt>
      <trkpt lat="43.29555" lon="-1.56856">
        <ele>75</ele>
        <time>2026-07-12T18:32:20.000Z</time>
      </trkpt>
      <trkpt lat="43.29569" lon="-1.56856">
        <ele>74</ele>
        <time>2026-07-12T18:32:22.000Z</time>
      </trkpt>
      <trkpt lat="43.29583" lon="-1.56859">
        <ele>73</ele>
        <time>2026-07-12T18:32:25.000Z</time>
      </trkpt>
      <trkpt lat="43.29678" lon="-1.56915">
        <ele>66</ele>
        <time>2026-07-12T18:32:43.000Z</time>
      </trkpt>
      <trkpt lat="43.29708" lon="-1.56927">
        <ele>63</ele>
        <time>2026-07-12T18:32:49.000Z</time>
      </trkpt>
      <trkpt lat="43.29737" lon="-1.56949">
        <ele>60</ele>
        <time>2026-07-12T18:32:55.000Z</time>
      </trkpt>
      <trkpt lat="43.29761" lon="-1.56977">
        <ele>58</ele>
        <time>2026-07-12T18:33:00.000Z</time>
      </trkpt>
      <trkpt lat="43.29783" lon="-1.57019">
        <ele>57</ele>
        <time>2026-07-12T18:33:07.000Z</time>
      </trkpt>
      <trkpt lat="43.29794" lon="-1.57029">
        <ele>56</ele>
        <time>2026-07-12T18:33:09.000Z</time>
      </trkpt>
      <trkpt lat="43.29807" lon="-1.57037">
        <ele>55</ele>
        <time>2026-07-12T18:33:12.000Z</time>
      </trkpt>
      <trkpt lat="43.29819" lon="-1.57042">
        <ele>54</ele>
        <time>2026-07-12T18:33:14.000Z</time>
      </trkpt>
      <trkpt lat="43.29829" lon="-1.57044">
        <ele>53</ele>
        <time>2026-07-12T18:33:16.000Z</time>
      </trkpt>
      <trkpt lat="43.29841" lon="-1.57042">
        <ele>52</ele>
        <time>2026-07-12T18:33:18.000Z</time>
      </trkpt>
      <trkpt lat="43.29903" lon="-1.57021">
        <ele>50</ele>
        <time>2026-07-12T18:33:29.000Z</time>
      </trkpt>
      <trkpt lat="43.29905" lon="-1.57026">
        <ele>50</ele>
        <time>2026-07-12T18:33:30.000Z</time>
      </trkpt>
      <trkpt lat="43.29909" lon="-1.57038">
        <ele>50</ele>
        <time>2026-07-12T18:33:32.000Z</time>
      </trkpt>
      <trkpt lat="43.29957" lon="-1.57133">
        <ele>50</ele>
        <time>2026-07-12T18:33:47.000Z</time>
      </trkpt>
      <trkpt lat="43.29977" lon="-1.57164">
        <ele>50</ele>
        <time>2026-07-12T18:33:52.000Z</time>
      </trkpt>
      <trkpt lat="43.29996" lon="-1.57171">
        <ele>50</ele>
        <time>2026-07-12T18:33:56.000Z</time>
      </trkpt>
      <trkpt lat="43.30018" lon="-1.57189">
        <ele>52</ele>
        <time>2026-07-12T18:34:00.000Z</time>
      </trkpt>
      <trkpt lat="43.30046" lon="-1.57219">
        <ele>52</ele>
        <time>2026-07-12T18:34:07.000Z</time>
      </trkpt>
      <trkpt lat="43.30077" lon="-1.57259">
        <ele>51</ele>
        <time>2026-07-12T18:34:14.000Z</time>
      </trkpt>
      <trkpt lat="43.30114" lon="-1.57292">
        <ele>53</ele>
        <time>2026-07-12T18:34:22.000Z</time>
      </trkpt>
      <trkpt lat="43.30127" lon="-1.57309">
        <ele>53</ele>
        <time>2026-07-12T18:34:25.000Z</time>
      </trkpt>
      <trkpt lat="43.30167" lon="-1.57388">
        <ele>53</ele>
        <time>2026-07-12T18:34:38.000Z</time>
      </trkpt>
      <trkpt lat="43.30176" lon="-1.57403">
        <ele>54</ele>
        <time>2026-07-12T18:34:40.000Z</time>
      </trkpt>
      <trkpt lat="43.3021" lon="-1.57449">
        <ele>56</ele>
        <time>2026-07-12T18:34:49.000Z</time>
      </trkpt>
      <trkpt lat="43.30215" lon="-1.57454">
        <ele>56</ele>
        <time>2026-07-12T18:34:50.000Z</time>
      </trkpt>
      <trkpt lat="43.30223" lon="-1.57458">
        <ele>55</ele>
        <time>2026-07-12T18:34:51.000Z</time>
      </trkpt>
      <trkpt lat="43.30252" lon="-1.57461">
        <ele>50</ele>
        <time>2026-07-12T18:34:56.000Z</time>
      </trkpt>
      <trkpt lat="43.30251" lon="-1.57494">
        <ele>50</ele>
        <time>2026-07-12T18:35:01.000Z</time>
      </trkpt>
      <trkpt lat="43.30262" lon="-1.57559">
        <ele>52</ele>
        <time>2026-07-12T18:35:09.000Z</time>
      </trkpt>
      <trkpt lat="43.30285" lon="-1.57627">
        <ele>55</ele>
        <time>2026-07-12T18:35:19.000Z</time>
      </trkpt>
      <trkpt lat="43.303" lon="-1.57654">
        <ele>56</ele>
        <time>2026-07-12T18:35:23.000Z</time>
      </trkpt>
      <trkpt lat="43.30324" lon="-1.57677">
        <ele>59</ele>
        <time>2026-07-12T18:35:29.000Z</time>
      </trkpt>
      <trkpt lat="43.30335" lon="-1.57696">
        <ele>62</ele>
        <time>2026-07-12T18:35:32.000Z</time>
      </trkpt>
      <trkpt lat="43.30347" lon="-1.57791">
        <ele>68</ele>
        <time>2026-07-12T18:35:44.000Z</time>
      </trkpt>
      <trkpt lat="43.30353" lon="-1.57815">
        <ele>69</ele>
        <time>2026-07-12T18:35:48.000Z</time>
      </trkpt>
      <trkpt lat="43.30368" lon="-1.57839">
        <ele>70</ele>
        <time>2026-07-12T18:35:52.000Z</time>
      </trkpt>
      <trkpt lat="43.3041" lon="-1.57885">
        <ele>73</ele>
        <time>2026-07-12T18:36:01.000Z</time>
      </trkpt>
      <trkpt lat="43.30431" lon="-1.57904">
        <ele>75</ele>
        <time>2026-07-12T18:36:06.000Z</time>
      </trkpt>
      <trkpt lat="43.30473" lon="-1.57948">
        <ele>78</ele>
        <time>2026-07-12T18:36:15.000Z</time>
      </trkpt>
      <trkpt lat="43.30488" lon="-1.5797">
        <ele>79</ele>
        <time>2026-07-12T18:36:19.000Z</time>
      </trkpt>
      <trkpt lat="43.30523" lon="-1.58036">
        <ele>83</ele>
        <time>2026-07-12T18:36:30.000Z</time>
      </trkpt>
      <trkpt lat="43.30545" lon="-1.58064">
        <ele>84</ele>
        <time>2026-07-12T18:36:35.000Z</time>
      </trkpt>
      <trkpt lat="43.30575" lon="-1.58092">
        <ele>85</ele>
        <time>2026-07-12T18:36:41.000Z</time>
      </trkpt>
      <trkpt lat="43.30556" lon="-1.58162">
        <ele>85</ele>
        <time>2026-07-12T18:36:51.000Z</time>
      </trkpt>
      <trkpt lat="43.30545" lon="-1.5819">
        <ele>86</ele>
        <time>2026-07-12T18:36:55.000Z</time>
      </trkpt>
      <trkpt lat="43.3052" lon="-1.58245">
        <ele>87</ele>
        <time>2026-07-12T18:37:04.000Z</time>
      </trkpt>
      <trkpt lat="43.30487" lon="-1.58302">
        <ele>89</ele>
        <time>2026-07-12T18:37:13.000Z</time>
      </trkpt>
      <trkpt lat="43.30472" lon="-1.58331">
        <ele>89</ele>
        <time>2026-07-12T18:37:18.000Z</time>
      </trkpt>
      <trkpt lat="43.30435" lon="-1.58416">
        <ele>92</ele>
        <time>2026-07-12T18:37:30.000Z</time>
      </trkpt>
      <trkpt lat="43.30416" lon="-1.58483">
        <ele>94</ele>
        <time>2026-07-12T18:37:40.000Z</time>
      </trkpt>
      <trkpt lat="43.30397" lon="-1.58569">
        <ele>93</ele>
        <time>2026-07-12T18:37:51.000Z</time>
      </trkpt>
      <trkpt lat="43.3039" lon="-1.58588">
        <ele>93</ele>
        <time>2026-07-12T18:37:54.000Z</time>
      </trkpt>
      <trkpt lat="43.30384" lon="-1.58597">
        <ele>92</ele>
        <time>2026-07-12T18:37:56.000Z</time>
      </trkpt>
      <trkpt lat="43.30364" lon="-1.58625">
        <ele>92</ele>
        <time>2026-07-12T18:38:01.000Z</time>
      </trkpt>
      <trkpt lat="43.30308" lon="-1.58693">
        <ele>91</ele>
        <time>2026-07-12T18:38:14.000Z</time>
      </trkpt>
      <trkpt lat="43.30259" lon="-1.58746">
        <ele>92</ele>
        <time>2026-07-12T18:38:25.000Z</time>
      </trkpt>
      <trkpt lat="43.30214" lon="-1.58801">
        <ele>94</ele>
        <time>2026-07-12T18:38:36.000Z</time>
      </trkpt>
      <trkpt lat="43.30207" lon="-1.58817">
        <ele>95</ele>
        <time>2026-07-12T18:38:38.000Z</time>
      </trkpt>
      <trkpt lat="43.30202" lon="-1.58832">
        <ele>96</ele>
        <time>2026-07-12T18:38:40.000Z</time>
      </trkpt>
      <trkpt lat="43.30198" lon="-1.58869">
        <ele>98</ele>
        <time>2026-07-12T18:38:45.000Z</time>
      </trkpt>
      <trkpt lat="43.30187" lon="-1.5893">
        <ele>101</ele>
        <time>2026-07-12T18:38:53.000Z</time>
      </trkpt>
      <trkpt lat="43.30168" lon="-1.58991">
        <ele>103</ele>
        <time>2026-07-12T18:39:02.000Z</time>
      </trkpt>
      <trkpt lat="43.30156" lon="-1.59016">
        <ele>103</ele>
        <time>2026-07-12T18:39:06.000Z</time>
      </trkpt>
      <trkpt lat="43.30145" lon="-1.59029">
        <ele>103</ele>
        <time>2026-07-12T18:39:08.000Z</time>
      </trkpt>
      <trkpt lat="43.3013" lon="-1.59041">
        <ele>103</ele>
        <time>2026-07-12T18:39:12.000Z</time>
      </trkpt>
      <trkpt lat="43.30111" lon="-1.59052">
        <ele>103</ele>
        <time>2026-07-12T18:39:15.000Z</time>
      </trkpt>
      <trkpt lat="43.30149" lon="-1.59094">
        <ele>103</ele>
        <time>2026-07-12T18:39:24.000Z</time>
      </trkpt>
      <trkpt lat="43.30182" lon="-1.59147">
        <ele>102</ele>
        <time>2026-07-12T18:39:33.000Z</time>
      </trkpt>
      <trkpt lat="43.30199" lon="-1.59173">
        <ele>101</ele>
        <time>2026-07-12T18:39:37.000Z</time>
      </trkpt>
      <trkpt lat="43.30234" lon="-1.59236">
        <ele>101</ele>
        <time>2026-07-12T18:39:48.000Z</time>
      </trkpt>
      <trkpt lat="43.30245" lon="-1.59252">
        <ele>101</ele>
        <time>2026-07-12T18:39:51.000Z</time>
      </trkpt>
      <trkpt lat="43.30254" lon="-1.5926">
        <ele>101</ele>
        <time>2026-07-12T18:39:52.000Z</time>
      </trkpt>
      <trkpt lat="43.30269" lon="-1.59269">
        <ele>102</ele>
        <time>2026-07-12T18:39:55.000Z</time>
      </trkpt>
      <trkpt lat="43.30294" lon="-1.59278">
        <ele>102</ele>
        <time>2026-07-12T18:40:00.000Z</time>
      </trkpt>
      <trkpt lat="43.30377" lon="-1.59287">
        <ele>100</ele>
        <time>2026-07-12T18:40:15.000Z</time>
      </trkpt>
      <trkpt lat="43.3039" lon="-1.59285">
        <ele>100</ele>
        <time>2026-07-12T18:40:17.000Z</time>
      </trkpt>
      <trkpt lat="43.3046" lon="-1.59243">
        <ele>97</ele>
        <time>2026-07-12T18:40:31.000Z</time>
      </trkpt>
      <trkpt lat="43.30476" lon="-1.5923">
        <ele>95</ele>
        <time>2026-07-12T18:40:34.000Z</time>
      </trkpt>
      <trkpt lat="43.30494" lon="-1.59208">
        <ele>93</ele>
        <time>2026-07-12T18:40:38.000Z</time>
      </trkpt>
      <trkpt lat="43.3053" lon="-1.5916">
        <ele>90</ele>
        <time>2026-07-12T18:40:47.000Z</time>
      </trkpt>
      <trkpt lat="43.30675" lon="-1.5894">
        <ele>81</ele>
        <time>2026-07-12T18:41:26.000Z</time>
      </trkpt>
      <trkpt lat="43.30697" lon="-1.589">
        <ele>80</ele>
        <time>2026-07-12T18:41:32.000Z</time>
      </trkpt>
      <trkpt lat="43.3071" lon="-1.58871">
        <ele>78</ele>
        <time>2026-07-12T18:41:37.000Z</time>
      </trkpt>
      <trkpt lat="43.30849" lon="-1.58642">
        <ele>68</ele>
        <time>2026-07-12T18:42:15.000Z</time>
      </trkpt>
      <trkpt lat="43.30871" lon="-1.58611">
        <ele>67</ele>
        <time>2026-07-12T18:42:21.000Z</time>
      </trkpt>
      <trkpt lat="43.30885" lon="-1.58596">
        <ele>66</ele>
        <time>2026-07-12T18:42:24.000Z</time>
      </trkpt>
      <trkpt lat="43.30918" lon="-1.58569">
        <ele>65</ele>
        <time>2026-07-12T18:42:31.000Z</time>
      </trkpt>
      <trkpt lat="43.30998" lon="-1.58508">
        <ele>64</ele>
        <time>2026-07-12T18:42:47.000Z</time>
      </trkpt>
      <trkpt lat="43.31111" lon="-1.5843">
        <ele>59</ele>
        <time>2026-07-12T18:43:10.000Z</time>
      </trkpt>
      <trkpt lat="43.31124" lon="-1.58425">
        <ele>60</ele>
        <time>2026-07-12T18:43:12.000Z</time>
      </trkpt>
      <trkpt lat="43.31151" lon="-1.58417">
        <ele>60</ele>
        <time>2026-07-12T18:43:17.000Z</time>
      </trkpt>
      <trkpt lat="43.31177" lon="-1.58415">
        <ele>60</ele>
        <time>2026-07-12T18:43:22.000Z</time>
      </trkpt>
      <trkpt lat="43.31277" lon="-1.58432">
        <ele>61</ele>
        <time>2026-07-12T18:43:39.000Z</time>
      </trkpt>
      <trkpt lat="43.31297" lon="-1.58431">
        <ele>61</ele>
        <time>2026-07-12T18:43:43.000Z</time>
      </trkpt>
      <trkpt lat="43.31319" lon="-1.58425">
        <ele>61</ele>
        <time>2026-07-12T18:43:47.000Z</time>
      </trkpt>
      <trkpt lat="43.31351" lon="-1.58408">
        <ele>61</ele>
        <time>2026-07-12T18:43:53.000Z</time>
      </trkpt>
      <trkpt lat="43.31412" lon="-1.58372">
        <ele>61</ele>
        <time>2026-07-12T18:44:05.000Z</time>
      </trkpt>
      <trkpt lat="43.3142" lon="-1.58364">
        <ele>61</ele>
        <time>2026-07-12T18:44:07.000Z</time>
      </trkpt>
      <trkpt lat="43.31425" lon="-1.58356">
        <ele>61</ele>
        <time>2026-07-12T18:44:08.000Z</time>
      </trkpt>
      <trkpt lat="43.31443" lon="-1.58321">
        <ele>61</ele>
        <time>2026-07-12T18:44:14.000Z</time>
      </trkpt>
      <trkpt lat="43.31448" lon="-1.58301">
        <ele>61</ele>
        <time>2026-07-12T18:44:16.000Z</time>
      </trkpt>
      <trkpt lat="43.31446" lon="-1.5829">
        <ele>61</ele>
        <time>2026-07-12T18:44:18.000Z</time>
      </trkpt>
      <trkpt lat="43.31447" lon="-1.58284">
        <ele>61</ele>
        <time>2026-07-12T18:44:19.000Z</time>
      </trkpt>
      <trkpt lat="43.31452" lon="-1.58275">
        <ele>61</ele>
        <time>2026-07-12T18:44:20.000Z</time>
      </trkpt>
      <trkpt lat="43.31456" lon="-1.58273">
        <ele>61</ele>
        <time>2026-07-12T18:44:21.000Z</time>
      </trkpt>
      <trkpt lat="43.31464" lon="-1.58271">
        <ele>61</ele>
        <time>2026-07-12T18:44:22.000Z</time>
      </trkpt>
      <trkpt lat="43.31472" lon="-1.58277">
        <ele>61</ele>
        <time>2026-07-12T18:44:24.000Z</time>
      </trkpt>
      <trkpt lat="43.31476" lon="-1.58287">
        <ele>61</ele>
        <time>2026-07-12T18:44:25.000Z</time>
      </trkpt>
      <trkpt lat="43.31476" lon="-1.583">
        <ele>62</ele>
        <time>2026-07-12T18:44:27.000Z</time>
      </trkpt>
      <trkpt lat="43.31482" lon="-1.58323">
        <ele>63</ele>
        <time>2026-07-12T18:44:30.000Z</time>
      </trkpt>
      <trkpt lat="43.31542" lon="-1.5839">
        <ele>67</ele>
        <time>2026-07-12T18:44:44.000Z</time>
      </trkpt>
      <trkpt lat="43.31559" lon="-1.58416">
        <ele>69</ele>
        <time>2026-07-12T18:44:48.000Z</time>
      </trkpt>
      <trkpt lat="43.3157" lon="-1.58443">
        <ele>70</ele>
        <time>2026-07-12T18:44:52.000Z</time>
      </trkpt>
      <trkpt lat="43.31582" lon="-1.58483">
        <ele>72</ele>
        <time>2026-07-12T18:44:58.000Z</time>
      </trkpt>
      <trkpt lat="43.31622" lon="-1.58668">
        <ele>85</ele>
        <time>2026-07-12T18:45:23.000Z</time>
      </trkpt>
      <trkpt lat="43.31633" lon="-1.58693">
        <ele>88</ele>
        <time>2026-07-12T18:45:27.000Z</time>
      </trkpt>
      <trkpt lat="43.31648" lon="-1.58716">
        <ele>92</ele>
        <time>2026-07-12T18:45:31.000Z</time>
      </trkpt>
      <trkpt lat="43.31696" lon="-1.58753">
        <ele>100</ele>
        <time>2026-07-12T18:45:41.000Z</time>
      </trkpt>
      <trkpt lat="43.3172" lon="-1.58782">
        <ele>107</ele>
        <time>2026-07-12T18:45:46.000Z</time>
      </trkpt>
      <trkpt lat="43.31721" lon="-1.5879">
        <ele>108</ele>
        <time>2026-07-12T18:45:47.000Z</time>
      </trkpt>
      <trkpt lat="43.31716" lon="-1.58797">
        <ele>109</ele>
        <time>2026-07-12T18:45:49.000Z</time>
      </trkpt>
      <trkpt lat="43.31655" lon="-1.58801">
        <ele>107</ele>
        <time>2026-07-12T18:46:00.000Z</time>
      </trkpt>
      <trkpt lat="43.31617" lon="-1.58807">
        <ele>107</ele>
        <time>2026-07-12T18:46:06.000Z</time>
      </trkpt>
      <trkpt lat="43.31585" lon="-1.58822">
        <ele>111</ele>
        <time>2026-07-12T18:46:12.000Z</time>
      </trkpt>
      <trkpt lat="43.3155" lon="-1.58832">
        <ele>111</ele>
        <time>2026-07-12T18:46:19.000Z</time>
      </trkpt>
      <trkpt lat="43.31501" lon="-1.58834">
        <ele>107</ele>
        <time>2026-07-12T18:46:27.000Z</time>
      </trkpt>
      <trkpt lat="43.31494" lon="-1.58837">
        <ele>107</ele>
        <time>2026-07-12T18:46:29.000Z</time>
      </trkpt>
      <trkpt lat="43.31489" lon="-1.58843">
        <ele>108</ele>
        <time>2026-07-12T18:46:30.000Z</time>
      </trkpt>
      <trkpt lat="43.31489" lon="-1.58852">
        <ele>111</ele>
        <time>2026-07-12T18:46:31.000Z</time>
      </trkpt>
      <trkpt lat="43.31491" lon="-1.58857">
        <ele>112</ele>
        <time>2026-07-12T18:46:32.000Z</time>
      </trkpt>
      <trkpt lat="43.31496" lon="-1.58861">
        <ele>114</ele>
        <time>2026-07-12T18:46:33.000Z</time>
      </trkpt>
      <trkpt lat="43.31503" lon="-1.58861">
        <ele>114</ele>
        <time>2026-07-12T18:46:34.000Z</time>
      </trkpt>
      <trkpt lat="43.31515" lon="-1.58856">
        <ele>114</ele>
        <time>2026-07-12T18:46:36.000Z</time>
      </trkpt>
      <trkpt lat="43.31529" lon="-1.58853">
        <ele>114</ele>
        <time>2026-07-12T18:46:39.000Z</time>
      </trkpt>
      <trkpt lat="43.31553" lon="-1.58858">
        <ele>117</ele>
        <time>2026-07-12T18:46:43.000Z</time>
      </trkpt>
      <trkpt lat="43.31597" lon="-1.58856">
        <ele>119</ele>
        <time>2026-07-12T18:46:51.000Z</time>
      </trkpt>
      <trkpt lat="43.3163" lon="-1.58861">
        <ele>120</ele>
        <time>2026-07-12T18:46:57.000Z</time>
      </trkpt>
      <trkpt lat="43.31651" lon="-1.58868">
        <ele>122</ele>
        <time>2026-07-12T18:47:01.000Z</time>
      </trkpt>
      <trkpt lat="43.31695" lon="-1.58873">
        <ele>123</ele>
        <time>2026-07-12T18:47:09.000Z</time>
      </trkpt>
      <trkpt lat="43.31705" lon="-1.58876">
        <ele>123</ele>
        <time>2026-07-12T18:47:10.000Z</time>
      </trkpt>
      <trkpt lat="43.31748" lon="-1.58922">
        <ele>127</ele>
        <time>2026-07-12T18:47:20.000Z</time>
      </trkpt>
      <trkpt lat="43.31763" lon="-1.5893">
        <ele>128</ele>
        <time>2026-07-12T18:47:23.000Z</time>
      </trkpt>
      <trkpt lat="43.31792" lon="-1.58933">
        <ele>128</ele>
        <time>2026-07-12T18:47:28.000Z</time>
      </trkpt>
      <trkpt lat="43.318" lon="-1.58937">
        <ele>128</ele>
        <time>2026-07-12T18:47:30.000Z</time>
      </trkpt>
      <trkpt lat="43.31806" lon="-1.58942">
        <ele>128</ele>
        <time>2026-07-12T18:47:31.000Z</time>
      </trkpt>
      <trkpt lat="43.31812" lon="-1.58952">
        <ele>128</ele>
        <time>2026-07-12T18:47:33.000Z</time>
      </trkpt>
      <trkpt lat="43.31814" lon="-1.58961">
        <ele>128</ele>
        <time>2026-07-12T18:47:34.000Z</time>
      </trkpt>
      <trkpt lat="43.31814" lon="-1.5897">
        <ele>128</ele>
        <time>2026-07-12T18:47:35.000Z</time>
      </trkpt>
      <trkpt lat="43.31813" lon="-1.58977">
        <ele>128</ele>
        <time>2026-07-12T18:47:36.000Z</time>
      </trkpt>
      <trkpt lat="43.31789" lon="-1.59021">
        <ele>126</ele>
        <time>2026-07-12T18:47:43.000Z</time>
      </trkpt>
      <trkpt lat="43.31781" lon="-1.59031">
        <ele>125</ele>
        <time>2026-07-12T18:47:45.000Z</time>
      </trkpt>
      <trkpt lat="43.31774" lon="-1.59036">
        <ele>125</ele>
        <time>2026-07-12T18:47:46.000Z</time>
      </trkpt>
      <trkpt lat="43.31767" lon="-1.59037">
        <ele>125</ele>
        <time>2026-07-12T18:47:48.000Z</time>
      </trkpt>
      <trkpt lat="43.31737" lon="-1.5903">
        <ele>129</ele>
        <time>2026-07-12T18:47:53.000Z</time>
      </trkpt>
      <trkpt lat="43.31722" lon="-1.5903">
        <ele>131</ele>
        <time>2026-07-12T18:47:56.000Z</time>
      </trkpt>
      <trkpt lat="43.31709" lon="-1.59033">
        <ele>132</ele>
        <time>2026-07-12T18:47:58.000Z</time>
      </trkpt>
      <trkpt lat="43.31698" lon="-1.59039">
        <ele>132</ele>
        <time>2026-07-12T18:48:00.000Z</time>
      </trkpt>
      <trkpt lat="43.31689" lon="-1.59049">
        <ele>132</ele>
        <time>2026-07-12T18:48:02.000Z</time>
      </trkpt>
      <trkpt lat="43.31671" lon="-1.59078">
        <ele>131</ele>
        <time>2026-07-12T18:48:07.000Z</time>
      </trkpt>
      <trkpt lat="43.31654" lon="-1.59094">
        <ele>131</ele>
        <time>2026-07-12T18:48:11.000Z</time>
      </trkpt>
      <trkpt lat="43.31644" lon="-1.59099">
        <ele>132</ele>
        <time>2026-07-12T18:48:13.000Z</time>
      </trkpt>
      <trkpt lat="43.31611" lon="-1.59107">
        <ele>136</ele>
        <time>2026-07-12T18:48:19.000Z</time>
      </trkpt>
      <trkpt lat="43.31602" lon="-1.59114">
        <ele>137</ele>
        <time>2026-07-12T18:48:20.000Z</time>
      </trkpt>
      <trkpt lat="43.31597" lon="-1.59124">
        <ele>137</ele>
        <time>2026-07-12T18:48:22.000Z</time>
      </trkpt>
      <trkpt lat="43.31593" lon="-1.59156">
        <ele>136</ele>
        <time>2026-07-12T18:48:26.000Z</time>
      </trkpt>
      <trkpt lat="43.31586" lon="-1.59178">
        <ele>136</ele>
        <time>2026-07-12T18:48:29.000Z</time>
      </trkpt>
      <trkpt lat="43.3156" lon="-1.59243">
        <ele>142</ele>
        <time>2026-07-12T18:48:39.000Z</time>
      </trkpt>
      <trkpt lat="43.31542" lon="-1.59296">
        <ele>148</ele>
        <time>2026-07-12T18:48:47.000Z</time>
      </trkpt>
      <trkpt lat="43.3153" lon="-1.59315">
        <ele>152</ele>
        <time>2026-07-12T18:48:50.000Z</time>
      </trkpt>
      <trkpt lat="43.31516" lon="-1.59328">
        <ele>156</ele>
        <time>2026-07-12T18:48:53.000Z</time>
      </trkpt>
      <trkpt lat="43.31514" lon="-1.59336">
        <ele>157</ele>
        <time>2026-07-12T18:48:54.000Z</time>
      </trkpt>
      <trkpt lat="43.31514" lon="-1.59346">
        <ele>158</ele>
        <time>2026-07-12T18:48:55.000Z</time>
      </trkpt>
      <trkpt lat="43.31517" lon="-1.59352">
        <ele>158</ele>
        <time>2026-07-12T18:48:56.000Z</time>
      </trkpt>
      <trkpt lat="43.31529" lon="-1.59359">
        <ele>156</ele>
        <time>2026-07-12T18:48:58.000Z</time>
      </trkpt>
      <trkpt lat="43.31537" lon="-1.59366">
        <ele>154</ele>
        <time>2026-07-12T18:49:00.000Z</time>
      </trkpt>
      <trkpt lat="43.31544" lon="-1.59381">
        <ele>155</ele>
        <time>2026-07-12T18:49:02.000Z</time>
      </trkpt>
      <trkpt lat="43.3155" lon="-1.59401">
        <ele>156</ele>
        <time>2026-07-12T18:49:05.000Z</time>
      </trkpt>
      <trkpt lat="43.31554" lon="-1.59408">
        <ele>156</ele>
        <time>2026-07-12T18:49:06.000Z</time>
      </trkpt>
      <trkpt lat="43.31561" lon="-1.59412">
        <ele>155</ele>
        <time>2026-07-12T18:49:08.000Z</time>
      </trkpt>
      <trkpt lat="43.31587" lon="-1.59417">
        <ele>151</ele>
        <time>2026-07-12T18:49:12.000Z</time>
      </trkpt>
      <trkpt lat="43.31594" lon="-1.59422">
        <ele>151</ele>
        <time>2026-07-12T18:49:14.000Z</time>
      </trkpt>
      <trkpt lat="43.316" lon="-1.59428">
        <ele>151</ele>
        <time>2026-07-12T18:49:15.000Z</time>
      </trkpt>
      <trkpt lat="43.31621" lon="-1.59469">
        <ele>157</ele>
        <time>2026-07-12T18:49:22.000Z</time>
      </trkpt>
      <trkpt lat="43.31631" lon="-1.59475">
        <ele>157</ele>
        <time>2026-07-12T18:49:24.000Z</time>
      </trkpt>
      <trkpt lat="43.31651" lon="-1.59482">
        <ele>155</ele>
        <time>2026-07-12T18:49:27.000Z</time>
      </trkpt>
      <trkpt lat="43.31658" lon="-1.59487">
        <ele>155</ele>
        <time>2026-07-12T18:49:29.000Z</time>
      </trkpt>
      <trkpt lat="43.31682" lon="-1.59515">
        <ele>157</ele>
        <time>2026-07-12T18:49:34.000Z</time>
      </trkpt>
      <trkpt lat="43.31705" lon="-1.59529">
        <ele>155</ele>
        <time>2026-07-12T18:49:39.000Z</time>
      </trkpt>
      <trkpt lat="43.31723" lon="-1.59555">
        <ele>155</ele>
        <time>2026-07-12T18:49:43.000Z</time>
      </trkpt>
      <trkpt lat="43.31732" lon="-1.5957">
        <ele>155</ele>
        <time>2026-07-12T18:49:46.000Z</time>
      </trkpt>
      <trkpt lat="43.31737" lon="-1.59582">
        <ele>156</ele>
        <time>2026-07-12T18:49:48.000Z</time>
      </trkpt>
      <trkpt lat="43.31739" lon="-1.59594">
        <ele>156</ele>
        <time>2026-07-12T18:49:49.000Z</time>
      </trkpt>
      <trkpt lat="43.31739" lon="-1.59609">
        <ele>158</ele>
        <time>2026-07-12T18:49:51.000Z</time>
      </trkpt>
      <trkpt lat="43.31737" lon="-1.59623">
        <ele>160</ele>
        <time>2026-07-12T18:49:53.000Z</time>
      </trkpt>
      <trkpt lat="43.31724" lon="-1.59658">
        <ele>168</ele>
        <time>2026-07-12T18:49:58.000Z</time>
      </trkpt>
      <trkpt lat="43.31723" lon="-1.59668">
        <ele>170</ele>
        <time>2026-07-12T18:49:59.000Z</time>
      </trkpt>
      <trkpt lat="43.31725" lon="-1.59675">
        <ele>170</ele>
        <time>2026-07-12T18:50:00.000Z</time>
      </trkpt>
      <trkpt lat="43.31737" lon="-1.59684">
        <ele>168</ele>
        <time>2026-07-12T18:50:03.000Z</time>
      </trkpt>
      <trkpt lat="43.31744" lon="-1.59691">
        <ele>167</ele>
        <time>2026-07-12T18:50:04.000Z</time>
      </trkpt>
      <trkpt lat="43.31758" lon="-1.59719">
        <ele>170</ele>
        <time>2026-07-12T18:50:09.000Z</time>
      </trkpt>
      <trkpt lat="43.31763" lon="-1.59722">
        <ele>170</ele>
        <time>2026-07-12T18:50:10.000Z</time>
      </trkpt>
      <trkpt lat="43.31781" lon="-1.59722">
        <ele>167</ele>
        <time>2026-07-12T18:50:13.000Z</time>
      </trkpt>
      <trkpt lat="43.31793" lon="-1.59726">
        <ele>166</ele>
        <time>2026-07-12T18:50:15.000Z</time>
      </trkpt>
      <trkpt lat="43.31813" lon="-1.59751">
        <ele>167</ele>
        <time>2026-07-12T18:50:20.000Z</time>
      </trkpt>
      <trkpt lat="43.31825" lon="-1.59764">
        <ele>167</ele>
        <time>2026-07-12T18:50:23.000Z</time>
      </trkpt>
      <trkpt lat="43.31864" lon="-1.59784">
        <ele>167</ele>
        <time>2026-07-12T18:50:30.000Z</time>
      </trkpt>
      <trkpt lat="43.31871" lon="-1.59792">
        <ele>168</ele>
        <time>2026-07-12T18:50:32.000Z</time>
      </trkpt>
      <trkpt lat="43.31884" lon="-1.59819">
        <ele>172</ele>
        <time>2026-07-12T18:50:36.000Z</time>
      </trkpt>
      <trkpt lat="43.31893" lon="-1.59824">
        <ele>172</ele>
        <time>2026-07-12T18:50:38.000Z</time>
      </trkpt>
      <trkpt lat="43.3192" lon="-1.59822">
        <ele>170</ele>
        <time>2026-07-12T18:50:42.000Z</time>
      </trkpt>
      <trkpt lat="43.31932" lon="-1.5983">
        <ele>171</ele>
        <time>2026-07-12T18:50:45.000Z</time>
      </trkpt>
      <trkpt lat="43.31951" lon="-1.59845">
        <ele>175</ele>
        <time>2026-07-12T18:50:49.000Z</time>
      </trkpt>
      <trkpt lat="43.31957" lon="-1.5985">
        <ele>177</ele>
        <time>2026-07-12T18:50:50.000Z</time>
      </trkpt>
      <trkpt lat="43.3197" lon="-1.59856">
        <ele>178</ele>
        <time>2026-07-12T18:50:52.000Z</time>
      </trkpt>
      <trkpt lat="43.31976" lon="-1.59855">
        <ele>178</ele>
        <time>2026-07-12T18:50:53.000Z</time>
      </trkpt>
      <trkpt lat="43.32" lon="-1.59835">
        <ele>173</ele>
        <time>2026-07-12T18:50:58.000Z</time>
      </trkpt>
      <trkpt lat="43.3202" lon="-1.59824">
        <ele>174</ele>
        <time>2026-07-12T18:51:02.000Z</time>
      </trkpt>
      <trkpt lat="43.32027" lon="-1.59816">
        <ele>173</ele>
        <time>2026-07-12T18:51:04.000Z</time>
      </trkpt>
      <trkpt lat="43.32042" lon="-1.59788">
        <ele>168</ele>
        <time>2026-07-12T18:51:08.000Z</time>
      </trkpt>
      <trkpt lat="43.32052" lon="-1.59779">
        <ele>167</ele>
        <time>2026-07-12T18:51:11.000Z</time>
      </trkpt>
      <trkpt lat="43.3206" lon="-1.59781">
        <ele>169</ele>
        <time>2026-07-12T18:51:12.000Z</time>
      </trkpt>
      <trkpt lat="43.32103" lon="-1.59803">
        <ele>175</ele>
        <time>2026-07-12T18:51:20.000Z</time>
      </trkpt>
      <trkpt lat="43.32138" lon="-1.59812">
        <ele>174</ele>
        <time>2026-07-12T18:51:27.000Z</time>
      </trkpt>
      <trkpt lat="43.32154" lon="-1.5982">
        <ele>175</ele>
        <time>2026-07-12T18:51:30.000Z</time>
      </trkpt>
      <trkpt lat="43.32172" lon="-1.59841">
        <ele>177</ele>
        <time>2026-07-12T18:51:34.000Z</time>
      </trkpt>
      <trkpt lat="43.32184" lon="-1.59866">
        <ele>177</ele>
        <time>2026-07-12T18:51:38.000Z</time>
      </trkpt>
      <trkpt lat="43.32187" lon="-1.59887">
        <ele>178</ele>
        <time>2026-07-12T18:51:40.000Z</time>
      </trkpt>
      <trkpt lat="43.3219" lon="-1.59928">
        <ele>182</ele>
        <time>2026-07-12T18:51:46.000Z</time>
      </trkpt>
      <trkpt lat="43.32189" lon="-1.59943">
        <ele>184</ele>
        <time>2026-07-12T18:51:48.000Z</time>
      </trkpt>
      <trkpt lat="43.32182" lon="-1.59969">
        <ele>189</ele>
        <time>2026-07-12T18:51:51.000Z</time>
      </trkpt>
      <trkpt lat="43.32181" lon="-1.59981">
        <ele>191</ele>
        <time>2026-07-12T18:51:53.000Z</time>
      </trkpt>
      <trkpt lat="43.32183" lon="-1.59986">
        <ele>191</ele>
        <time>2026-07-12T18:51:54.000Z</time>
      </trkpt>
      <trkpt lat="43.32191" lon="-1.59993">
        <ele>192</ele>
        <time>2026-07-12T18:51:55.000Z</time>
      </trkpt>
      <trkpt lat="43.32203" lon="-1.5999">
        <ele>191</ele>
        <time>2026-07-12T18:51:57.000Z</time>
      </trkpt>
      <trkpt lat="43.3223" lon="-1.59953">
        <ele>183</ele>
        <time>2026-07-12T18:52:04.000Z</time>
      </trkpt>
      <trkpt lat="43.32242" lon="-1.59947">
        <ele>181</ele>
        <time>2026-07-12T18:52:06.000Z</time>
      </trkpt>
      <trkpt lat="43.32252" lon="-1.59949">
        <ele>180</ele>
        <time>2026-07-12T18:52:08.000Z</time>
      </trkpt>
      <trkpt lat="43.32265" lon="-1.59959">
        <ele>181</ele>
        <time>2026-07-12T18:52:11.000Z</time>
      </trkpt>
      <trkpt lat="43.32286" lon="-1.59984">
        <ele>184</ele>
        <time>2026-07-12T18:52:16.000Z</time>
      </trkpt>
      <trkpt lat="43.32306" lon="-1.59999">
        <ele>184</ele>
        <time>2026-07-12T18:52:20.000Z</time>
      </trkpt>
      <trkpt lat="43.32329" lon="-1.60012">
        <ele>184</ele>
        <time>2026-07-12T18:52:24.000Z</time>
      </trkpt>
      <trkpt lat="43.3236" lon="-1.60023">
        <ele>182</ele>
        <time>2026-07-12T18:52:30.000Z</time>
      </trkpt>
      <trkpt lat="43.32373" lon="-1.6003">
        <ele>181</ele>
        <time>2026-07-12T18:52:33.000Z</time>
      </trkpt>
      <trkpt lat="43.32388" lon="-1.60045">
        <ele>180</ele>
        <time>2026-07-12T18:52:36.000Z</time>
      </trkpt>
      <trkpt lat="43.32422" lon="-1.60096">
        <ele>179</ele>
        <time>2026-07-12T18:52:45.000Z</time>
      </trkpt>
      <trkpt lat="43.32428" lon="-1.60101">
        <ele>179</ele>
        <time>2026-07-12T18:52:46.000Z</time>
      </trkpt>
      <trkpt lat="43.32438" lon="-1.60104">
        <ele>179</ele>
        <time>2026-07-12T18:52:48.000Z</time>
      </trkpt>
      <trkpt lat="43.32452" lon="-1.60094">
        <ele>176</ele>
        <time>2026-07-12T18:52:51.000Z</time>
      </trkpt>
      <trkpt lat="43.3249" lon="-1.60061">
        <ele>173</ele>
        <time>2026-07-12T18:52:59.000Z</time>
      </trkpt>
      <trkpt lat="43.32498" lon="-1.60056">
        <ele>173</ele>
        <time>2026-07-12T18:53:00.000Z</time>
      </trkpt>
      <trkpt lat="43.32507" lon="-1.60054">
        <ele>173</ele>
        <time>2026-07-12T18:53:02.000Z</time>
      </trkpt>
      <trkpt lat="43.32517" lon="-1.60054">
        <ele>174</ele>
        <time>2026-07-12T18:53:04.000Z</time>
      </trkpt>
      <trkpt lat="43.32529" lon="-1.60061">
        <ele>173</ele>
        <time>2026-07-12T18:53:06.000Z</time>
      </trkpt>
      <trkpt lat="43.32561" lon="-1.60087">
        <ele>170</ele>
        <time>2026-07-12T18:53:13.000Z</time>
      </trkpt>
      <trkpt lat="43.32578" lon="-1.60097">
        <ele>168</ele>
        <time>2026-07-12T18:53:16.000Z</time>
      </trkpt>
      <trkpt lat="43.32595" lon="-1.60104">
        <ele>168</ele>
        <time>2026-07-12T18:53:19.000Z</time>
      </trkpt>
      <trkpt lat="43.32685" lon="-1.60134">
        <ele>169</ele>
        <time>2026-07-12T18:53:35.000Z</time>
      </trkpt>
      <trkpt lat="43.32714" lon="-1.60151">
        <ele>168</ele>
        <time>2026-07-12T18:53:41.000Z</time>
      </trkpt>
      <trkpt lat="43.32751" lon="-1.60178">
        <ele>166</ele>
        <time>2026-07-12T18:53:49.000Z</time>
      </trkpt>
      <trkpt lat="43.32772" lon="-1.60187">
        <ele>164</ele>
        <time>2026-07-12T18:53:52.000Z</time>
      </trkpt>
      <trkpt lat="43.32792" lon="-1.60191">
        <ele>164</ele>
        <time>2026-07-12T18:53:56.000Z</time>
      </trkpt>
      <trkpt lat="43.32899" lon="-1.60204">
        <ele>162</ele>
        <time>2026-07-12T18:54:15.000Z</time>
      </trkpt>
      <trkpt lat="43.32981" lon="-1.60215">
        <ele>158</ele>
        <time>2026-07-12T18:54:30.000Z</time>
      </trkpt>
      <trkpt lat="43.33019" lon="-1.60227">
        <ele>155</ele>
        <time>2026-07-12T18:54:37.000Z</time>
      </trkpt>
      <trkpt lat="43.33073" lon="-1.60252">
        <ele>152</ele>
        <time>2026-07-12T18:54:47.000Z</time>
      </trkpt>
      <trkpt lat="43.33094" lon="-1.60262">
        <ele>152</ele>
        <time>2026-07-12T18:54:51.000Z</time>
      </trkpt>
      <trkpt lat="43.3311" lon="-1.60273">
        <ele>151</ele>
        <time>2026-07-12T18:54:54.000Z</time>
      </trkpt>
      <trkpt lat="43.33128" lon="-1.60292">
        <ele>150</ele>
        <time>2026-07-12T18:54:58.000Z</time>
      </trkpt>
      <trkpt lat="43.33143" lon="-1.60316">
        <ele>150</ele>
        <time>2026-07-12T18:55:02.000Z</time>
      </trkpt>
      <trkpt lat="43.33156" lon="-1.60359">
        <ele>148</ele>
        <time>2026-07-12T18:55:08.000Z</time>
      </trkpt>
      <trkpt lat="43.33174" lon="-1.60406">
        <ele>145</ele>
        <time>2026-07-12T18:55:15.000Z</time>
      </trkpt>
      <trkpt lat="43.33178" lon="-1.60435">
        <ele>142</ele>
        <time>2026-07-12T18:55:19.000Z</time>
      </trkpt>
      <trkpt lat="43.33185" lon="-1.60466">
        <ele>139</ele>
        <time>2026-07-12T18:55:23.000Z</time>
      </trkpt>
      <trkpt lat="43.33199" lon="-1.60488">
        <ele>139</ele>
        <time>2026-07-12T18:55:27.000Z</time>
      </trkpt>
      <trkpt lat="43.33212" lon="-1.60497">
        <ele>141</ele>
        <time>2026-07-12T18:55:29.000Z</time>
      </trkpt>
      <trkpt lat="43.33234" lon="-1.60504">
        <ele>146</ele>
        <time>2026-07-12T18:55:33.000Z</time>
      </trkpt>
      <trkpt lat="43.33244" lon="-1.60513">
        <ele>148</ele>
        <time>2026-07-12T18:55:36.000Z</time>
      </trkpt>
      <trkpt lat="43.33247" lon="-1.60524">
        <ele>147</ele>
        <time>2026-07-12T18:55:37.000Z</time>
      </trkpt>
      <trkpt lat="43.33243" lon="-1.6057">
        <ele>140</ele>
        <time>2026-07-12T18:55:43.000Z</time>
      </trkpt>
      <trkpt lat="43.33249" lon="-1.60601">
        <ele>136</ele>
        <time>2026-07-12T18:55:47.000Z</time>
      </trkpt>
      <trkpt lat="43.33268" lon="-1.60651">
        <ele>132</ele>
        <time>2026-07-12T18:55:55.000Z</time>
      </trkpt>
      <trkpt lat="43.33317" lon="-1.60728">
        <ele>129</ele>
        <time>2026-07-12T18:56:08.000Z</time>
      </trkpt>
      <trkpt lat="43.33331" lon="-1.60735">
        <ele>131</ele>
        <time>2026-07-12T18:56:10.000Z</time>
      </trkpt>
      <trkpt lat="43.33344" lon="-1.60746">
        <ele>131</ele>
        <time>2026-07-12T18:56:13.000Z</time>
      </trkpt>
      <trkpt lat="43.33353" lon="-1.60767">
        <ele>129</ele>
        <time>2026-07-12T18:56:16.000Z</time>
      </trkpt>
      <trkpt lat="43.33353" lon="-1.60788">
        <ele>125</ele>
        <time>2026-07-12T18:56:19.000Z</time>
      </trkpt>
      <trkpt lat="43.33359" lon="-1.60813">
        <ele>122</ele>
        <time>2026-07-12T18:56:22.000Z</time>
      </trkpt>
      <trkpt lat="43.33373" lon="-1.60836">
        <ele>120</ele>
        <time>2026-07-12T18:56:26.000Z</time>
      </trkpt>
      <trkpt lat="43.3339" lon="-1.60852">
        <ele>119</ele>
        <time>2026-07-12T18:56:30.000Z</time>
      </trkpt>
      <trkpt lat="43.33401" lon="-1.60853">
        <ele>121</ele>
        <time>2026-07-12T18:56:32.000Z</time>
      </trkpt>
      <trkpt lat="43.33424" lon="-1.60845">
        <ele>127</ele>
        <time>2026-07-12T18:56:36.000Z</time>
      </trkpt>
      <trkpt lat="43.33434" lon="-1.60846">
        <ele>130</ele>
        <time>2026-07-12T18:56:38.000Z</time>
      </trkpt>
      <trkpt lat="43.33441" lon="-1.60858">
        <ele>130</ele>
        <time>2026-07-12T18:56:40.000Z</time>
      </trkpt>
      <trkpt lat="43.33442" lon="-1.60876">
        <ele>127</ele>
        <time>2026-07-12T18:56:42.000Z</time>
      </trkpt>
      <trkpt lat="43.33434" lon="-1.60918">
        <ele>117</ele>
        <time>2026-07-12T18:56:48.000Z</time>
      </trkpt>
      <trkpt lat="43.33435" lon="-1.60941">
        <ele>115</ele>
        <time>2026-07-12T18:56:51.000Z</time>
      </trkpt>
      <trkpt lat="43.33441" lon="-1.60956">
        <ele>116</ele>
        <time>2026-07-12T18:56:53.000Z</time>
      </trkpt>
      <trkpt lat="43.33457" lon="-1.60973">
        <ele>121</ele>
        <time>2026-07-12T18:56:57.000Z</time>
      </trkpt>
      <trkpt lat="43.33461" lon="-1.60989">
        <ele>121</ele>
        <time>2026-07-12T18:56:59.000Z</time>
      </trkpt>
      <trkpt lat="43.33458" lon="-1.61001">
        <ele>119</ele>
        <time>2026-07-12T18:57:01.000Z</time>
      </trkpt>
      <trkpt lat="43.33439" lon="-1.61015">
        <ele>112</ele>
        <time>2026-07-12T18:57:04.000Z</time>
      </trkpt>
      <trkpt lat="43.3343" lon="-1.61045">
        <ele>108</ele>
        <time>2026-07-12T18:57:09.000Z</time>
      </trkpt>
      <trkpt lat="43.33429" lon="-1.61078">
        <ele>108</ele>
        <time>2026-07-12T18:57:13.000Z</time>
      </trkpt>
      <trkpt lat="43.33423" lon="-1.61102">
        <ele>103</ele>
        <time>2026-07-12T18:57:16.000Z</time>
      </trkpt>
      <trkpt lat="43.33421" lon="-1.61125">
        <ele>100</ele>
        <time>2026-07-12T18:57:19.000Z</time>
      </trkpt>
      <trkpt lat="43.33423" lon="-1.6117">
        <ele>97</ele>
        <time>2026-07-12T18:57:25.000Z</time>
      </trkpt>
      <trkpt lat="43.33431" lon="-1.612">
        <ele>94</ele>
        <time>2026-07-12T18:57:29.000Z</time>
      </trkpt>
      <trkpt lat="43.3344" lon="-1.61214">
        <ele>94</ele>
        <time>2026-07-12T18:57:32.000Z</time>
      </trkpt>
      <trkpt lat="43.33448" lon="-1.61219">
        <ele>95</ele>
        <time>2026-07-12T18:57:33.000Z</time>
      </trkpt>
      <trkpt lat="43.33457" lon="-1.61218">
        <ele>98</ele>
        <time>2026-07-12T18:57:35.000Z</time>
      </trkpt>
      <trkpt lat="43.33471" lon="-1.61223">
        <ele>101</ele>
        <time>2026-07-12T18:57:37.000Z</time>
      </trkpt>
      <trkpt lat="43.3348" lon="-1.61233">
        <ele>101</ele>
        <time>2026-07-12T18:57:39.000Z</time>
      </trkpt>
      <trkpt lat="43.33501" lon="-1.61281">
        <ele>95</ele>
        <time>2026-07-12T18:57:47.000Z</time>
      </trkpt>
      <trkpt lat="43.33531" lon="-1.61302">
        <ele>97</ele>
        <time>2026-07-12T18:57:53.000Z</time>
      </trkpt>
      <trkpt lat="43.33538" lon="-1.61319">
        <ele>95</ele>
        <time>2026-07-12T18:57:55.000Z</time>
      </trkpt>
      <trkpt lat="43.33539" lon="-1.61369">
        <ele>86</ele>
        <time>2026-07-12T18:58:02.000Z</time>
      </trkpt>
      <trkpt lat="43.33546" lon="-1.61387">
        <ele>84</ele>
        <time>2026-07-12T18:58:04.000Z</time>
      </trkpt>
      <trkpt lat="43.33566" lon="-1.61407">
        <ele>85</ele>
        <time>2026-07-12T18:58:09.000Z</time>
      </trkpt>
      <trkpt lat="43.33576" lon="-1.61419">
        <ele>85</ele>
        <time>2026-07-12T18:58:11.000Z</time>
      </trkpt>
      <trkpt lat="43.3359" lon="-1.6145">
        <ele>81</ele>
        <time>2026-07-12T18:58:16.000Z</time>
      </trkpt>
      <trkpt lat="43.33602" lon="-1.61468">
        <ele>79</ele>
        <time>2026-07-12T18:58:19.000Z</time>
      </trkpt>
      <trkpt lat="43.33615" lon="-1.61479">
        <ele>79</ele>
        <time>2026-07-12T18:58:22.000Z</time>
      </trkpt>
      <trkpt lat="43.33654" lon="-1.61499">
        <ele>80</ele>
        <time>2026-07-12T18:58:29.000Z</time>
      </trkpt>
      <trkpt lat="43.33696" lon="-1.61543">
        <ele>73</ele>
        <time>2026-07-12T18:58:38.000Z</time>
      </trkpt>
      <trkpt lat="43.33788" lon="-1.61574">
        <ele>63</ele>
        <time>2026-07-12T18:58:55.000Z</time>
      </trkpt>
      <trkpt lat="43.33807" lon="-1.61573">
        <ele>62</ele>
        <time>2026-07-12T18:58:59.000Z</time>
      </trkpt>
      <trkpt lat="43.33835" lon="-1.61567">
        <ele>61</ele>
        <time>2026-07-12T18:59:04.000Z</time>
      </trkpt>
      <trkpt lat="43.33868" lon="-1.61571">
        <ele>57</ele>
        <time>2026-07-12T18:59:10.000Z</time>
      </trkpt>
      <trkpt lat="43.33892" lon="-1.61563">
        <ele>58</ele>
        <time>2026-07-12T18:59:14.000Z</time>
      </trkpt>
      <trkpt lat="43.3392" lon="-1.61564">
        <ele>56</ele>
        <time>2026-07-12T18:59:19.000Z</time>
      </trkpt>
      <trkpt lat="43.33942" lon="-1.61559">
        <ele>58</ele>
        <time>2026-07-12T18:59:23.000Z</time>
      </trkpt>
      <trkpt lat="43.33962" lon="-1.61557">
        <ele>59</ele>
        <time>2026-07-12T18:59:26.000Z</time>
      </trkpt>
      <trkpt lat="43.34008" lon="-1.61565">
        <ele>57</ele>
        <time>2026-07-12T18:59:35.000Z</time>
      </trkpt>
      <trkpt lat="43.34025" lon="-1.61572">
        <ele>55</ele>
        <time>2026-07-12T18:59:38.000Z</time>
      </trkpt>
      <trkpt lat="43.3406" lon="-1.61609">
        <ele>48</ele>
        <time>2026-07-12T18:59:46.000Z</time>
      </trkpt>
      <trkpt lat="43.34077" lon="-1.61621">
        <ele>46</ele>
        <time>2026-07-12T18:59:49.000Z</time>
      </trkpt>
      <trkpt lat="43.34092" lon="-1.61623">
        <ele>46</ele>
        <time>2026-07-12T18:59:52.000Z</time>
      </trkpt>
      <trkpt lat="43.34147" lon="-1.61609">
        <ele>45</ele>
        <time>2026-07-12T19:00:02.000Z</time>
      </trkpt>
      <trkpt lat="43.34345" lon="-1.61629">
        <ele>32</ele>
        <time>2026-07-12T19:00:37.000Z</time>
      </trkpt>
      <trkpt lat="43.34356" lon="-1.61637">
        <ele>30</ele>
        <time>2026-07-12T19:00:39.000Z</time>
      </trkpt>
      <trkpt lat="43.34364" lon="-1.61649">
        <ele>29</ele>
        <time>2026-07-12T19:00:41.000Z</time>
      </trkpt>
      <trkpt lat="43.34377" lon="-1.61689">
        <ele>26</ele>
        <time>2026-07-12T19:00:47.000Z</time>
      </trkpt>
      <trkpt lat="43.34378" lon="-1.61699">
        <ele>25</ele>
        <time>2026-07-12T19:00:48.000Z</time>
      </trkpt>
      <trkpt lat="43.34379" lon="-1.61719">
        <ele>24</ele>
        <time>2026-07-12T19:00:51.000Z</time>
      </trkpt>
      <trkpt lat="43.3438" lon="-1.61879">
        <ele>24</ele>
        <time>2026-07-12T19:01:12.000Z</time>
      </trkpt>
      <trkpt lat="43.34381" lon="-1.61901">
        <ele>25</ele>
        <time>2026-07-12T19:01:15.000Z</time>
      </trkpt>
      <trkpt lat="43.34384" lon="-1.61931">
        <ele>26</ele>
        <time>2026-07-12T19:01:18.000Z</time>
      </trkpt>
      <trkpt lat="43.34389" lon="-1.61951">
        <ele>26</ele>
        <time>2026-07-12T19:01:21.000Z</time>
      </trkpt>
      <trkpt lat="43.34398" lon="-1.61969">
        <ele>25</ele>
        <time>2026-07-12T19:01:24.000Z</time>
      </trkpt>
      <trkpt lat="43.34456" lon="-1.62059">
        <ele>24</ele>
        <time>2026-07-12T19:01:40.000Z</time>
      </trkpt>
      <trkpt lat="43.34471" lon="-1.62092">
        <ele>24</ele>
        <time>2026-07-12T19:01:45.000Z</time>
      </trkpt>
      <trkpt lat="43.34474" lon="-1.62153">
        <ele>23</ele>
        <time>2026-07-12T19:01:53.000Z</time>
      </trkpt>
      <trkpt lat="43.34465" lon="-1.62188">
        <ele>23</ele>
        <time>2026-07-12T19:01:57.000Z</time>
      </trkpt>
      <trkpt lat="43.34445" lon="-1.62293">
        <ele>21</ele>
        <time>2026-07-12T19:02:11.000Z</time>
      </trkpt>
      <trkpt lat="43.34444" lon="-1.62311">
        <ele>21</ele>
        <time>2026-07-12T19:02:14.000Z</time>
      </trkpt>
      <trkpt lat="43.34472" lon="-1.62313">
        <ele>20</ele>
        <time>2026-07-12T19:02:19.000Z</time>
      </trkpt>
      <trkpt lat="43.34526" lon="-1.6231">
        <ele>18</ele>
        <time>2026-07-12T19:02:28.000Z</time>
      </trkpt>
      <trkpt lat="43.34573" lon="-1.62311">
        <ele>14</ele>
        <time>2026-07-12T19:02:37.000Z</time>
      </trkpt>
      <trkpt lat="43.34644" lon="-1.62348">
        <ele>13</ele>
        <time>2026-07-12T19:02:50.000Z</time>
      </trkpt>
      <trkpt lat="43.34672" lon="-1.62366">
        <ele>13</ele>
        <time>2026-07-12T19:02:56.000Z</time>
      </trkpt>
      <trkpt lat="43.34769" lon="-1.62469">
        <ele>6</ele>
        <time>2026-07-12T19:03:17.000Z</time>
      </trkpt>
      <trkpt lat="43.34809" lon="-1.62521">
        <ele>6</ele>
        <time>2026-07-12T19:03:27.000Z</time>
      </trkpt>
      <trkpt lat="43.34839" lon="-1.62552">
        <ele>6</ele>
        <time>2026-07-12T19:03:34.000Z</time>
      </trkpt>
      <trkpt lat="43.34846" lon="-1.62566">
        <ele>6</ele>
        <time>2026-07-12T19:03:36.000Z</time>
      </trkpt>
      <trkpt lat="43.34919" lon="-1.62667">
        <ele>3</ele>
        <time>2026-07-12T19:03:55.000Z</time>
      </trkpt>
      <trkpt lat="43.34922" lon="-1.62669">
        <ele>3</ele>
        <time>2026-07-12T19:03:55.000Z</time>
      </trkpt>
      <trkpt lat="43.34908" lon="-1.62721">
        <ele>4</ele>
        <time>2026-07-12T19:04:02.000Z</time>
      </trkpt>
      <trkpt lat="43.34905" lon="-1.62741">
        <ele>5</ele>
        <time>2026-07-12T19:04:05.000Z</time>
      </trkpt>
      <trkpt lat="43.3492" lon="-1.62766">
        <ele>5</ele>
        <time>2026-07-12T19:04:09.000Z</time>
      </trkpt>
      <trkpt lat="43.34947" lon="-1.62802">
        <ele>5</ele>
        <time>2026-07-12T19:04:16.000Z</time>
      </trkpt>
      <trkpt lat="43.34972" lon="-1.62824">
        <ele>5</ele>
        <time>2026-07-12T19:04:21.000Z</time>
      </trkpt>
      <trkpt lat="43.34983" lon="-1.62825">
        <ele>5</ele>
        <time>2026-07-12T19:04:23.000Z</time>
      </trkpt>
      <trkpt lat="43.34995" lon="-1.62833">
        <ele>4</ele>
        <time>2026-07-12T19:04:25.000Z</time>
      </trkpt>
      <trkpt lat="43.35136" lon="-1.62979">
        <ele>3</ele>
        <time>2026-07-12T19:04:57.000Z</time>
      </trkpt>
      <trkpt lat="43.35202" lon="-1.63012">
        <ele>2</ele>
        <time>2026-07-12T19:05:09.000Z</time>
      </trkpt>
      <trkpt lat="43.35232" lon="-1.6303">
        <ele>3</ele>
        <time>2026-07-12T19:05:15.000Z</time>
      </trkpt>
      <trkpt lat="43.35258" lon="-1.63051">
        <ele>4</ele>
        <time>2026-07-12T19:05:21.000Z</time>
      </trkpt>
      <trkpt lat="43.3527" lon="-1.63074">
        <ele>4</ele>
        <time>2026-07-12T19:05:24.000Z</time>
      </trkpt>
      <trkpt lat="43.35276" lon="-1.63103">
        <ele>5</ele>
        <time>2026-07-12T19:05:28.000Z</time>
      </trkpt>
      <trkpt lat="43.35275" lon="-1.63123">
        <ele>5</ele>
        <time>2026-07-12T19:05:31.000Z</time>
      </trkpt>
      <trkpt lat="43.35248" lon="-1.63238">
        <ele>5</ele>
        <time>2026-07-12T19:05:46.000Z</time>
      </trkpt>
      <trkpt lat="43.35234" lon="-1.63272">
        <ele>10</ele>
        <time>2026-07-12T19:05:51.000Z</time>
      </trkpt>
      <trkpt lat="43.35233" lon="-1.63285">
        <ele>13</ele>
        <time>2026-07-12T19:05:53.000Z</time>
      </trkpt>
      <trkpt lat="43.35234" lon="-1.63301">
        <ele>16</ele>
        <time>2026-07-12T19:05:55.000Z</time>
      </trkpt>
      <trkpt lat="43.35249" lon="-1.63321">
        <ele>17</ele>
        <time>2026-07-12T19:05:59.000Z</time>
      </trkpt>
      <trkpt lat="43.35337" lon="-1.63397">
        <ele>18</ele>
        <time>2026-07-12T19:06:17.000Z</time>
      </trkpt>
      <trkpt lat="43.35374" lon="-1.63437">
        <ele>18</ele>
        <time>2026-07-12T19:06:26.000Z</time>
      </trkpt>
      <trkpt lat="43.35491" lon="-1.63519">
        <ele>7</ele>
        <time>2026-07-12T19:06:49.000Z</time>
      </trkpt>
      <trkpt lat="43.35539" lon="-1.6355">
        <ele>5</ele>
        <time>2026-07-12T19:06:59.000Z</time>
      </trkpt>
      <trkpt lat="43.35587" lon="-1.63586">
        <ele>4</ele>
        <time>2026-07-12T19:07:08.000Z</time>
      </trkpt>
      <trkpt lat="43.35602" lon="-1.63595">
        <ele>4</ele>
        <time>2026-07-12T19:07:11.000Z</time>
      </trkpt>
      <trkpt lat="43.35614" lon="-1.636">
        <ele>4</ele>
        <time>2026-07-12T19:07:13.000Z</time>
      </trkpt>
      <trkpt lat="43.35618" lon="-1.636">
        <ele>4</ele>
        <time>2026-07-12T19:07:14.000Z</time>
      </trkpt>
      <trkpt lat="43.35625" lon="-1.63606">
        <ele>3</ele>
        <time>2026-07-12T19:07:16.000Z</time>
      </trkpt>
      <trkpt lat="43.35598" lon="-1.63912">
        <ele>10</ele>
        <time>2026-07-12T19:07:56.000Z</time>
      </trkpt>
      <trkpt lat="43.35582" lon="-1.64022">
        <ele>15</ele>
        <time>2026-07-12T19:08:10.000Z</time>
      </trkpt>
      <trkpt lat="43.35573" lon="-1.64045">
        <ele>16</ele>
        <time>2026-07-12T19:08:13.000Z</time>
      </trkpt>
      <trkpt lat="43.35563" lon="-1.64052">
        <ele>16</ele>
        <time>2026-07-12T19:08:15.000Z</time>
      </trkpt>
      <trkpt lat="43.35446" lon="-1.64129">
        <ele>13</ele>
        <time>2026-07-12T19:08:38.000Z</time>
      </trkpt>
      <trkpt lat="43.35418" lon="-1.64167">
        <ele>12</ele>
        <time>2026-07-12T19:08:45.000Z</time>
      </trkpt>
      <trkpt lat="43.35335" lon="-1.64248">
        <ele>15</ele>
        <time>2026-07-12T19:09:04.000Z</time>
      </trkpt>
      <trkpt lat="43.35251" lon="-1.64281">
        <ele>12</ele>
        <time>2026-07-12T19:09:19.000Z</time>
      </trkpt>
      <trkpt lat="43.35126" lon="-1.64319">
        <ele>9</ele>
        <time>2026-07-12T19:09:42.000Z</time>
      </trkpt>
      <trkpt lat="43.35116" lon="-1.64323">
        <ele>8</ele>
        <time>2026-07-12T19:09:44.000Z</time>
      </trkpt>
      <trkpt lat="43.35103" lon="-1.6433">
        <ele>8</ele>
        <time>2026-07-12T19:09:46.000Z</time>
      </trkpt>
      <trkpt lat="43.35076" lon="-1.64352">
        <ele>9</ele>
        <time>2026-07-12T19:09:52.000Z</time>
      </trkpt>
      <trkpt lat="43.35053" lon="-1.64361">
        <ele>10</ele>
        <time>2026-07-12T19:09:56.000Z</time>
      </trkpt>
      <trkpt lat="43.34996" lon="-1.64375">
        <ele>13</ele>
        <time>2026-07-12T19:10:06.000Z</time>
      </trkpt>
      <trkpt lat="43.34985" lon="-1.6438">
        <ele>13</ele>
        <time>2026-07-12T19:10:08.000Z</time>
      </trkpt>
      <trkpt lat="43.34959" lon="-1.64387">
        <ele>13</ele>
        <time>2026-07-12T19:10:13.000Z</time>
      </trkpt>
      <trkpt lat="43.34931" lon="-1.64372">
        <ele>14</ele>
        <time>2026-07-12T19:10:19.000Z</time>
      </trkpt>
      <trkpt lat="43.34879" lon="-1.64316">
        <ele>18</ele>
        <time>2026-07-12T19:10:30.000Z</time>
      </trkpt>
      <trkpt lat="43.34796" lon="-1.64317">
        <ele>18</ele>
        <time>2026-07-12T19:10:45.000Z</time>
      </trkpt>
      <trkpt lat="43.34736" lon="-1.64261">
        <ele>23</ele>
        <time>2026-07-12T19:10:58.000Z</time>
      </trkpt>
      <trkpt lat="43.34691" lon="-1.6423">
        <ele>23</ele>
        <time>2026-07-12T19:11:07.000Z</time>
      </trkpt>
      <trkpt lat="43.34683" lon="-1.64226">
        <ele>23</ele>
        <time>2026-07-12T19:11:08.000Z</time>
      </trkpt>
      <trkpt lat="43.34667" lon="-1.64226">
        <ele>22</ele>
        <time>2026-07-12T19:11:11.000Z</time>
      </trkpt>
      <trkpt lat="43.34651" lon="-1.64236">
        <ele>24</ele>
        <time>2026-07-12T19:11:14.000Z</time>
      </trkpt>
      <trkpt lat="43.3464" lon="-1.64264">
        <ele>24</ele>
        <time>2026-07-12T19:11:18.000Z</time>
      </trkpt>
      <trkpt lat="43.34622" lon="-1.64317">
        <ele>22</ele>
        <time>2026-07-12T19:11:26.000Z</time>
      </trkpt>
      <trkpt lat="43.34553" lon="-1.64347">
        <ele>23</ele>
        <time>2026-07-12T19:11:39.000Z</time>
      </trkpt>
      <trkpt lat="43.34484" lon="-1.64316">
        <ele>25</ele>
        <time>2026-07-12T19:11:52.000Z</time>
      </trkpt>
      <trkpt lat="43.34351" lon="-1.64301">
        <ele>26</ele>
        <time>2026-07-12T19:12:16.000Z</time>
      </trkpt>
      <trkpt lat="43.34024" lon="-1.64261">
        <ele>35</ele>
        <time>2026-07-12T19:13:14.000Z</time>
      </trkpt>
      <trkpt lat="43.34023" lon="-1.64283">
        <ele>35</ele>
        <time>2026-07-12T19:13:17.000Z</time>
      </trkpt>
      <trkpt lat="43.34019" lon="-1.64309">
        <ele>35</ele>
        <time>2026-07-12T19:13:20.000Z</time>
      </trkpt>
      <trkpt lat="43.33986" lon="-1.64473">
        <ele>37</ele>
        <time>2026-07-12T19:13:42.000Z</time>
      </trkpt>
      <trkpt lat="43.33774" lon="-1.65464">
        <ele>65</ele>
        <time>2026-07-12T19:15:56.000Z</time>
      </trkpt>
      <trkpt lat="43.3373" lon="-1.65677">
        <ele>64</ele>
        <time>2026-07-12T19:16:25.000Z</time>
      </trkpt>
      <trkpt lat="43.33716" lon="-1.65754">
        <ele>66</ele>
        <time>2026-07-12T19:16:35.000Z</time>
      </trkpt>
      <trkpt lat="43.33711" lon="-1.65795">
        <ele>66</ele>
        <time>2026-07-12T19:16:40.000Z</time>
      </trkpt>
      <trkpt lat="43.33695" lon="-1.6592">
        <ele>68</ele>
        <time>2026-07-12T19:16:57.000Z</time>
      </trkpt>
      <trkpt lat="43.33677" lon="-1.66023">
        <ele>69</ele>
        <time>2026-07-12T19:17:10.000Z</time>
      </trkpt>
      <trkpt lat="43.3365" lon="-1.66164">
        <ele>65</ele>
        <time>2026-07-12T19:17:29.000Z</time>
      </trkpt>
      <trkpt lat="43.33645" lon="-1.66182">
        <ele>65</ele>
        <time>2026-07-12T19:17:32.000Z</time>
      </trkpt>
      <trkpt lat="43.33622" lon="-1.6624">
        <ele>67</ele>
        <time>2026-07-12T19:17:40.000Z</time>
      </trkpt>
      <trkpt lat="43.33615" lon="-1.66263">
        <ele>67</ele>
        <time>2026-07-12T19:17:44.000Z</time>
      </trkpt>
      <trkpt lat="43.33607" lon="-1.66344">
        <ele>65</ele>
        <time>2026-07-12T19:17:54.000Z</time>
      </trkpt>
      <trkpt lat="43.33608" lon="-1.66377">
        <ele>64</ele>
        <time>2026-07-12T19:17:58.000Z</time>
      </trkpt>
      <trkpt lat="43.33615" lon="-1.66412">
        <ele>62</ele>
        <time>2026-07-12T19:18:03.000Z</time>
      </trkpt>
      <trkpt lat="43.33625" lon="-1.66444">
        <ele>59</ele>
        <time>2026-07-12T19:18:08.000Z</time>
      </trkpt>
      <trkpt lat="43.33661" lon="-1.6654">
        <ele>53</ele>
        <time>2026-07-12T19:18:22.000Z</time>
      </trkpt>
      <trkpt lat="43.33666" lon="-1.66563">
        <ele>52</ele>
        <time>2026-07-12T19:18:25.000Z</time>
      </trkpt>
      <trkpt lat="43.33671" lon="-1.66597">
        <ele>50</ele>
        <time>2026-07-12T19:18:29.000Z</time>
      </trkpt>
      <trkpt lat="43.33672" lon="-1.66622">
        <ele>50</ele>
        <time>2026-07-12T19:18:32.000Z</time>
      </trkpt>
      <trkpt lat="43.33666" lon="-1.66662">
        <ele>48</ele>
        <time>2026-07-12T19:18:38.000Z</time>
      </trkpt>
      <trkpt lat="43.33655" lon="-1.66718">
        <ele>47</ele>
        <time>2026-07-12T19:18:45.000Z</time>
      </trkpt>
      <trkpt lat="43.3364" lon="-1.66759">
        <ele>45</ele>
        <time>2026-07-12T19:18:51.000Z</time>
      </trkpt>
      <trkpt lat="43.33633" lon="-1.66772">
        <ele>45</ele>
        <time>2026-07-12T19:18:53.000Z</time>
      </trkpt>
      <trkpt lat="43.33629" lon="-1.66778">
        <ele>45</ele>
        <time>2026-07-12T19:18:54.000Z</time>
      </trkpt>
      <trkpt lat="43.33622" lon="-1.66788">
        <ele>45</ele>
        <time>2026-07-12T19:18:56.000Z</time>
      </trkpt>
      <trkpt lat="43.33613" lon="-1.66794">
        <ele>45</ele>
        <time>2026-07-12T19:18:58.000Z</time>
      </trkpt>
      <trkpt lat="43.3361" lon="-1.66799">
        <ele>45</ele>
        <time>2026-07-12T19:18:59.000Z</time>
      </trkpt>
      <trkpt lat="43.33606" lon="-1.66802">
        <ele>45</ele>
        <time>2026-07-12T19:19:00.000Z</time>
      </trkpt>
      <trkpt lat="43.3361" lon="-1.66812">
        <ele>45</ele>
        <time>2026-07-12T19:19:01.000Z</time>
      </trkpt>
      <trkpt lat="43.3362" lon="-1.66822">
        <ele>44</ele>
        <time>2026-07-12T19:19:03.000Z</time>
      </trkpt>
      <trkpt lat="43.33683" lon="-1.66831">
        <ele>43</ele>
        <time>2026-07-12T19:19:15.000Z</time>
      </trkpt>
      <trkpt lat="43.337" lon="-1.66832">
        <ele>42</ele>
        <time>2026-07-12T19:19:18.000Z</time>
      </trkpt>
      <trkpt lat="43.33747" lon="-1.66824">
        <ele>42</ele>
        <time>2026-07-12T19:19:26.000Z</time>
      </trkpt>
      <trkpt lat="43.33782" lon="-1.66811">
        <ele>41</ele>
        <time>2026-07-12T19:19:32.000Z</time>
      </trkpt>
      <trkpt lat="43.33831" lon="-1.66786">
        <ele>39</ele>
        <time>2026-07-12T19:19:42.000Z</time>
      </trkpt>
      <trkpt lat="43.33878" lon="-1.66755">
        <ele>37</ele>
        <time>2026-07-12T19:19:51.000Z</time>
      </trkpt>
      <trkpt lat="43.3392" lon="-1.66705">
        <ele>37</ele>
        <time>2026-07-12T19:20:01.000Z</time>
      </trkpt>
      <trkpt lat="43.33975" lon="-1.66648">
        <ele>34</ele>
        <time>2026-07-12T19:20:13.000Z</time>
      </trkpt>
      <trkpt lat="43.33996" lon="-1.66637">
        <ele>33</ele>
        <time>2026-07-12T19:20:17.000Z</time>
      </trkpt>
      <trkpt lat="43.34014" lon="-1.66632">
        <ele>33</ele>
        <time>2026-07-12T19:20:20.000Z</time>
      </trkpt>
      <trkpt lat="43.34031" lon="-1.6663">
        <ele>34</ele>
        <time>2026-07-12T19:20:23.000Z</time>
      </trkpt>
      <trkpt lat="43.34045" lon="-1.66632">
        <ele>35</ele>
        <time>2026-07-12T19:20:26.000Z</time>
      </trkpt>
      <trkpt lat="43.34055" lon="-1.66636">
        <ele>35</ele>
        <time>2026-07-12T19:20:28.000Z</time>
      </trkpt>
      <trkpt lat="43.34059" lon="-1.66639">
        <ele>36</ele>
        <time>2026-07-12T19:20:29.000Z</time>
      </trkpt>
      <trkpt lat="43.3409" lon="-1.66655">
        <ele>38</ele>
        <time>2026-07-12T19:20:34.000Z</time>
      </trkpt>
      <trkpt lat="43.34167" lon="-1.66684">
        <ele>44</ele>
        <time>2026-07-12T19:20:49.000Z</time>
      </trkpt>
      <trkpt lat="43.34291" lon="-1.66741">
        <ele>53</ele>
        <time>2026-07-12T19:21:12.000Z</time>
      </trkpt>
      <trkpt lat="43.3432" lon="-1.66746">
        <ele>54</ele>
        <time>2026-07-12T19:21:17.000Z</time>
      </trkpt>
      <trkpt lat="43.34348" lon="-1.66741">
        <ele>57</ele>
        <time>2026-07-12T19:21:22.000Z</time>
      </trkpt>
      <trkpt lat="43.34368" lon="-1.66726">
        <ele>61</ele>
        <time>2026-07-12T19:21:26.000Z</time>
      </trkpt>
      <trkpt lat="43.34419" lon="-1.66665">
        <ele>71</ele>
        <time>2026-07-12T19:21:38.000Z</time>
      </trkpt>
      <trkpt lat="43.34436" lon="-1.66659">
        <ele>72</ele>
        <time>2026-07-12T19:21:41.000Z</time>
      </trkpt>
      <trkpt lat="43.34498" lon="-1.66656">
        <ele>72</ele>
        <time>2026-07-12T19:21:52.000Z</time>
      </trkpt>
      <trkpt lat="43.34535" lon="-1.66657">
        <ele>74</ele>
        <time>2026-07-12T19:21:59.000Z</time>
      </trkpt>
      <trkpt lat="43.34553" lon="-1.66663">
        <ele>75</ele>
        <time>2026-07-12T19:22:02.000Z</time>
      </trkpt>
      <trkpt lat="43.34569" lon="-1.66676">
        <ele>76</ele>
        <time>2026-07-12T19:22:06.000Z</time>
      </trkpt>
      <trkpt lat="43.34661" lon="-1.66775">
        <ele>74</ele>
        <time>2026-07-12T19:22:26.000Z</time>
      </trkpt>
      <trkpt lat="43.34676" lon="-1.66789">
        <ele>73</ele>
        <time>2026-07-12T19:22:30.000Z</time>
      </trkpt>
      <trkpt lat="43.34741" lon="-1.66805">
        <ele>72</ele>
        <time>2026-07-12T19:22:41.000Z</time>
      </trkpt>
      <trkpt lat="43.34795" lon="-1.6681">
        <ele>73</ele>
        <time>2026-07-12T19:22:51.000Z</time>
      </trkpt>
      <trkpt lat="43.3482" lon="-1.66817">
        <ele>74</ele>
        <time>2026-07-12T19:22:56.000Z</time>
      </trkpt>
      <trkpt lat="43.34917" lon="-1.66871">
        <ele>83</ele>
        <time>2026-07-12T19:23:14.000Z</time>
      </trkpt>
      <trkpt lat="43.34942" lon="-1.66882">
        <ele>87</ele>
        <time>2026-07-12T19:23:19.000Z</time>
      </trkpt>
      <trkpt lat="43.34958" lon="-1.6688">
        <ele>89</ele>
        <time>2026-07-12T19:23:22.000Z</time>
      </trkpt>
      <trkpt lat="43.3497" lon="-1.6687">
        <ele>90</ele>
        <time>2026-07-12T19:23:24.000Z</time>
      </trkpt>
      <trkpt lat="43.34977" lon="-1.66826">
        <ele>86</ele>
        <time>2026-07-12T19:23:30.000Z</time>
      </trkpt>
      <trkpt lat="43.34985" lon="-1.66811">
        <ele>85</ele>
        <time>2026-07-12T19:23:32.000Z</time>
      </trkpt>
      <trkpt lat="43.34998" lon="-1.66803">
        <ele>86</ele>
        <time>2026-07-12T19:23:35.000Z</time>
      </trkpt>
      <trkpt lat="43.35013" lon="-1.668">
        <ele>86</ele>
        <time>2026-07-12T19:23:38.000Z</time>
      </trkpt>
      <trkpt lat="43.35023" lon="-1.66806">
        <ele>87</ele>
        <time>2026-07-12T19:23:40.000Z</time>
      </trkpt>
      <trkpt lat="43.35073" lon="-1.66853">
        <ele>92</ele>
        <time>2026-07-12T19:23:50.000Z</time>
      </trkpt>
      <trkpt lat="43.35089" lon="-1.66859">
        <ele>92</ele>
        <time>2026-07-12T19:23:53.000Z</time>
      </trkpt>
      <trkpt lat="43.35108" lon="-1.66858">
        <ele>93</ele>
        <time>2026-07-12T19:23:57.000Z</time>
      </trkpt>
      <trkpt lat="43.35124" lon="-1.66846">
        <ele>93</ele>
        <time>2026-07-12T19:24:00.000Z</time>
      </trkpt>
      <trkpt lat="43.3518" lon="-1.66752">
        <ele>92</ele>
        <time>2026-07-12T19:24:16.000Z</time>
      </trkpt>
      <trkpt lat="43.35195" lon="-1.66737">
        <ele>91</ele>
        <time>2026-07-12T19:24:19.000Z</time>
      </trkpt>
      <trkpt lat="43.35199" lon="-1.66734">
        <ele>91</ele>
        <time>2026-07-12T19:24:20.000Z</time>
      </trkpt>
      <trkpt lat="43.35212" lon="-1.66731">
        <ele>91</ele>
        <time>2026-07-12T19:24:22.000Z</time>
      </trkpt>
      <trkpt lat="43.35246" lon="-1.66735">
        <ele>93</ele>
        <time>2026-07-12T19:24:28.000Z</time>
      </trkpt>
      <trkpt lat="43.35265" lon="-1.66731">
        <ele>92</ele>
        <time>2026-07-12T19:24:32.000Z</time>
      </trkpt>
      <trkpt lat="43.35289" lon="-1.66718">
        <ele>91</ele>
        <time>2026-07-12T19:24:36.000Z</time>
      </trkpt>
      <trkpt lat="43.35301" lon="-1.66706">
        <ele>91</ele>
        <time>2026-07-12T19:24:39.000Z</time>
      </trkpt>
      <trkpt lat="43.35386" lon="-1.66666">
        <ele>97</ele>
        <time>2026-07-12T19:24:55.000Z</time>
      </trkpt>
      <trkpt lat="43.35409" lon="-1.66651">
        <ele>97</ele>
        <time>2026-07-12T19:24:59.000Z</time>
      </trkpt>
      <trkpt lat="43.35428" lon="-1.6664">
        <ele>96</ele>
        <time>2026-07-12T19:25:03.000Z</time>
      </trkpt>
      <trkpt lat="43.35456" lon="-1.66613">
        <ele>94</ele>
        <time>2026-07-12T19:25:09.000Z</time>
      </trkpt>
      <trkpt lat="43.35478" lon="-1.66603">
        <ele>94</ele>
        <time>2026-07-12T19:25:13.000Z</time>
      </trkpt>
      <trkpt lat="43.3556" lon="-1.66589">
        <ele>90</ele>
        <time>2026-07-12T19:25:28.000Z</time>
      </trkpt>
      <trkpt lat="43.35628" lon="-1.66587">
        <ele>86</ele>
        <time>2026-07-12T19:25:40.000Z</time>
      </trkpt>
      <trkpt lat="43.3565" lon="-1.66574">
        <ele>84</ele>
        <time>2026-07-12T19:25:44.000Z</time>
      </trkpt>
      <trkpt lat="43.35682" lon="-1.66548">
        <ele>80</ele>
        <time>2026-07-12T19:25:51.000Z</time>
      </trkpt>
      <trkpt lat="43.35721" lon="-1.66497">
        <ele>77</ele>
        <time>2026-07-12T19:26:00.000Z</time>
      </trkpt>
      <trkpt lat="43.35739" lon="-1.66481">
        <ele>76</ele>
        <time>2026-07-12T19:26:04.000Z</time>
      </trkpt>
      <trkpt lat="43.35756" lon="-1.66471">
        <ele>76</ele>
        <time>2026-07-12T19:26:08.000Z</time>
      </trkpt>
      <trkpt lat="43.35819" lon="-1.66447">
        <ele>75</ele>
        <time>2026-07-12T19:26:19.000Z</time>
      </trkpt>
      <trkpt lat="43.35843" lon="-1.66442">
        <ele>76</ele>
        <time>2026-07-12T19:26:24.000Z</time>
      </trkpt>
      <trkpt lat="43.35868" lon="-1.66434">
        <ele>77</ele>
        <time>2026-07-12T19:26:28.000Z</time>
      </trkpt>
      <trkpt lat="43.35879" lon="-1.66427">
        <ele>78</ele>
        <time>2026-07-12T19:26:30.000Z</time>
      </trkpt>
      <trkpt lat="43.35887" lon="-1.66408">
        <ele>77</ele>
        <time>2026-07-12T19:26:33.000Z</time>
      </trkpt>
      <trkpt lat="43.35891" lon="-1.6638">
        <ele>76</ele>
        <time>2026-07-12T19:26:37.000Z</time>
      </trkpt>
      <trkpt lat="43.35896" lon="-1.66356">
        <ele>75</ele>
        <time>2026-07-12T19:26:40.000Z</time>
      </trkpt>
      <trkpt lat="43.35904" lon="-1.66343">
        <ele>75</ele>
        <time>2026-07-12T19:26:42.000Z</time>
      </trkpt>
      <trkpt lat="43.35921" lon="-1.66334">
        <ele>76</ele>
        <time>2026-07-12T19:26:45.000Z</time>
      </trkpt>
      <trkpt lat="43.35958" lon="-1.66324">
        <ele>76</ele>
        <time>2026-07-12T19:26:52.000Z</time>
      </trkpt>
      <trkpt lat="43.36052" lon="-1.66192">
        <ele>82</ele>
        <time>2026-07-12T19:27:16.000Z</time>
      </trkpt>
      <trkpt lat="43.36088" lon="-1.66137">
        <ele>83</ele>
        <time>2026-07-12T19:27:26.000Z</time>
      </trkpt>
      <trkpt lat="43.36116" lon="-1.66099">
        <ele>84</ele>
        <time>2026-07-12T19:27:33.000Z</time>
      </trkpt>
      <trkpt lat="43.36176" lon="-1.66069">
        <ele>86</ele>
        <time>2026-07-12T19:27:44.000Z</time>
      </trkpt>
      <trkpt lat="43.36203" lon="-1.66064">
        <ele>84</ele>
        <time>2026-07-12T19:27:49.000Z</time>
      </trkpt>
      <trkpt lat="43.36233" lon="-1.66076">
        <ele>81</ele>
        <time>2026-07-12T19:27:54.000Z</time>
      </trkpt>
      <trkpt lat="43.36256" lon="-1.66092">
        <ele>78</ele>
        <time>2026-07-12T19:27:59.000Z</time>
      </trkpt>
      <trkpt lat="43.3627" lon="-1.66093">
        <ele>77</ele>
        <time>2026-07-12T19:28:01.000Z</time>
      </trkpt>
      <trkpt lat="43.36327" lon="-1.66082">
        <ele>76</ele>
        <time>2026-07-12T19:28:12.000Z</time>
      </trkpt>
      <trkpt lat="43.3637" lon="-1.66054">
        <ele>75</ele>
        <time>2026-07-12T19:28:20.000Z</time>
      </trkpt>
      <trkpt lat="43.36417" lon="-1.65987">
        <ele>74</ele>
        <time>2026-07-12T19:28:32.000Z</time>
      </trkpt>
      <trkpt lat="43.36511" lon="-1.6582">
        <ele>68</ele>
        <time>2026-07-12T19:29:00.000Z</time>
      </trkpt>
      <trkpt lat="43.36524" lon="-1.65795">
        <ele>68</ele>
        <time>2026-07-12T19:29:04.000Z</time>
      </trkpt>
      <trkpt lat="43.36536" lon="-1.65765">
        <ele>68</ele>
        <time>2026-07-12T19:29:08.000Z</time>
      </trkpt>
      <trkpt lat="43.36558" lon="-1.65684">
        <ele>72</ele>
        <time>2026-07-12T19:29:19.000Z</time>
      </trkpt>
      <trkpt lat="43.36565" lon="-1.65674">
        <ele>74</ele>
        <time>2026-07-12T19:29:21.000Z</time>
      </trkpt>
      <trkpt lat="43.36584" lon="-1.65655">
        <ele>75</ele>
        <time>2026-07-12T19:29:25.000Z</time>
      </trkpt>
      <trkpt lat="43.36597" lon="-1.65644">
        <ele>73</ele>
        <time>2026-07-12T19:29:28.000Z</time>
      </trkpt>
      <trkpt lat="43.36614" lon="-1.65635">
        <ele>72</ele>
        <time>2026-07-12T19:29:31.000Z</time>
      </trkpt>
      <trkpt lat="43.36636" lon="-1.65628">
        <ele>71</ele>
        <time>2026-07-12T19:29:35.000Z</time>
      </trkpt>
      <trkpt lat="43.36653" lon="-1.65628">
        <ele>70</ele>
        <time>2026-07-12T19:29:38.000Z</time>
      </trkpt>
      <trkpt lat="43.36676" lon="-1.65632">
        <ele>69</ele>
        <time>2026-07-12T19:29:42.000Z</time>
      </trkpt>
      <trkpt lat="43.36703" lon="-1.65641">
        <ele>67</ele>
        <time>2026-07-12T19:29:47.000Z</time>
      </trkpt>
      <trkpt lat="43.36733" lon="-1.65656">
        <ele>66</ele>
        <time>2026-07-12T19:29:53.000Z</time>
      </trkpt>
      <trkpt lat="43.36766" lon="-1.6568">
        <ele>65</ele>
        <time>2026-07-12T19:30:00.000Z</time>
      </trkpt>
      <trkpt lat="43.36853" lon="-1.65724">
        <ele>63</ele>
        <time>2026-07-12T19:30:16.000Z</time>
      </trkpt>
      <trkpt lat="43.36916" lon="-1.65752">
        <ele>60</ele>
        <time>2026-07-12T19:30:28.000Z</time>
      </trkpt>
      <trkpt lat="43.36982" lon="-1.65775">
        <ele>57</ele>
        <time>2026-07-12T19:30:40.000Z</time>
      </trkpt>
      <trkpt lat="43.37079" lon="-1.6583">
        <ele>60</ele>
        <time>2026-07-12T19:30:59.000Z</time>
      </trkpt>
      <trkpt lat="43.37089" lon="-1.65839">
        <ele>59</ele>
        <time>2026-07-12T19:31:01.000Z</time>
      </trkpt>
      <trkpt lat="43.37097" lon="-1.65849">
        <ele>57</ele>
        <time>2026-07-12T19:31:03.000Z</time>
      </trkpt>
      <trkpt lat="43.37109" lon="-1.65882">
        <ele>52</ele>
        <time>2026-07-12T19:31:07.000Z</time>
      </trkpt>
      <trkpt lat="43.37114" lon="-1.65888">
        <ele>52</ele>
        <time>2026-07-12T19:31:09.000Z</time>
      </trkpt>
      <trkpt lat="43.37122" lon="-1.65894">
        <ele>52</ele>
        <time>2026-07-12T19:31:10.000Z</time>
      </trkpt>
      <trkpt lat="43.37138" lon="-1.65898">
        <ele>52</ele>
        <time>2026-07-12T19:31:13.000Z</time>
      </trkpt>
      <trkpt lat="43.37323" lon="-1.65911">
        <ele>39</ele>
        <time>2026-07-12T19:31:46.000Z</time>
      </trkpt>
      <trkpt lat="43.37333" lon="-1.65911">
        <ele>38</ele>
        <time>2026-07-12T19:31:48.000Z</time>
      </trkpt>
      <trkpt lat="43.37349" lon="-1.65906">
        <ele>38</ele>
        <time>2026-07-12T19:31:51.000Z</time>
      </trkpt>
      <trkpt lat="43.37401" lon="-1.65886">
        <ele>37</ele>
        <time>2026-07-12T19:32:00.000Z</time>
      </trkpt>
      <trkpt lat="43.37425" lon="-1.65876">
        <ele>37</ele>
        <time>2026-07-12T19:32:05.000Z</time>
      </trkpt>
      <trkpt lat="43.37455" lon="-1.65872">
        <ele>39</ele>
        <time>2026-07-12T19:32:10.000Z</time>
      </trkpt>
      <trkpt lat="43.37463" lon="-1.65873">
        <ele>40</ele>
        <time>2026-07-12T19:32:12.000Z</time>
      </trkpt>
      <trkpt lat="43.37461" lon="-1.65846">
        <ele>40</ele>
        <time>2026-07-12T19:32:15.000Z</time>
      </trkpt>
      <trkpt lat="43.37462" lon="-1.6584">
        <ele>40</ele>
        <time>2026-07-12T19:32:16.000Z</time>
      </trkpt>
      <trkpt lat="43.37469" lon="-1.65836">
        <ele>41</ele>
        <time>2026-07-12T19:32:17.000Z</time>
      </trkpt>
      <trkpt lat="43.37541" lon="-1.65803">
        <ele>46</ele>
        <time>2026-07-12T19:32:31.000Z</time>
      </trkpt>
      <trkpt lat="43.3758" lon="-1.65811">
        <ele>48</ele>
        <time>2026-07-12T19:32:38.000Z</time>
      </trkpt>
      <trkpt lat="43.37634" lon="-1.65834">
        <ele>40</ele>
        <time>2026-07-12T19:32:48.000Z</time>
      </trkpt>
      <trkpt lat="43.37684" lon="-1.65844">
        <ele>33</ele>
        <time>2026-07-12T19:32:57.000Z</time>
      </trkpt>
      <trkpt lat="43.37723" lon="-1.65853">
        <ele>26</ele>
        <time>2026-07-12T19:33:04.000Z</time>
      </trkpt>
      <trkpt lat="43.3774" lon="-1.65864">
        <ele>24</ele>
        <time>2026-07-12T19:33:07.000Z</time>
      </trkpt>
      <trkpt lat="43.37752" lon="-1.65881">
        <ele>22</ele>
        <time>2026-07-12T19:33:10.000Z</time>
      </trkpt>
      <trkpt lat="43.37756" lon="-1.65879">
        <ele>22</ele>
        <time>2026-07-12T19:33:11.000Z</time>
      </trkpt>
      <trkpt lat="43.37766" lon="-1.65881">
        <ele>21</ele>
        <time>2026-07-12T19:33:13.000Z</time>
      </trkpt>
      <trkpt lat="43.37817" lon="-1.65922">
        <ele>17</ele>
        <time>2026-07-12T19:33:23.000Z</time>
      </trkpt>
      <trkpt lat="43.37834" lon="-1.65938">
        <ele>15</ele>
        <time>2026-07-12T19:33:27.000Z</time>
      </trkpt>
      <trkpt lat="43.37845" lon="-1.65954">
        <ele>14</ele>
        <time>2026-07-12T19:33:30.000Z</time>
      </trkpt>
      <trkpt lat="43.37862" lon="-1.65988">
        <ele>12</ele>
        <time>2026-07-12T19:33:35.000Z</time>
      </trkpt>
      <trkpt lat="43.37878" lon="-1.66012">
        <ele>10</ele>
        <time>2026-07-12T19:33:39.000Z</time>
      </trkpt>
      <trkpt lat="43.3789" lon="-1.66023">
        <ele>9</ele>
        <time>2026-07-12T19:33:42.000Z</time>
      </trkpt>
      <trkpt lat="43.37923" lon="-1.66042">
        <ele>8</ele>
        <time>2026-07-12T19:33:48.000Z</time>
      </trkpt>
      <trkpt lat="43.37967" lon="-1.66075">
        <ele>6</ele>
        <time>2026-07-12T19:33:57.000Z</time>
      </trkpt>
      <trkpt lat="43.37989" lon="-1.66095">
        <ele>5</ele>
        <time>2026-07-12T19:34:02.000Z</time>
      </trkpt>
      <trkpt lat="43.38005" lon="-1.66115">
        <ele>5</ele>
        <time>2026-07-12T19:34:06.000Z</time>
      </trkpt>
      <trkpt lat="43.38033" lon="-1.6614">
        <ele>6</ele>
        <time>2026-07-12T19:34:12.000Z</time>
      </trkpt>
      <trkpt lat="43.38015" lon="-1.6616">
        <ele>5</ele>
        <time>2026-07-12T19:34:16.000Z</time>
      </trkpt>
      <trkpt lat="43.38001" lon="-1.66189">
        <ele>5</ele>
        <time>2026-07-12T19:34:20.000Z</time>
      </trkpt>
      <trkpt lat="43.38012" lon="-1.66221">
        <ele>5</ele>
        <time>2026-07-12T19:34:25.000Z</time>
      </trkpt>
      <trkpt lat="43.38026" lon="-1.66242">
        <ele>4</ele>
        <time>2026-07-12T19:34:29.000Z</time>
      </trkpt>
      <trkpt lat="43.38037" lon="-1.66252">
        <ele>4</ele>
        <time>2026-07-12T19:34:31.000Z</time>
      </trkpt>
      <trkpt lat="43.38072" lon="-1.6627">
        <ele>5</ele>
        <time>2026-07-12T19:34:38.000Z</time>
      </trkpt>
      <trkpt lat="43.38085" lon="-1.66281">
        <ele>5</ele>
        <time>2026-07-12T19:34:40.000Z</time>
      </trkpt>
      <trkpt lat="43.38093" lon="-1.66296">
        <ele>5</ele>
        <time>2026-07-12T19:34:43.000Z</time>
      </trkpt>
      <trkpt lat="43.38108" lon="-1.66404">
        <ele>6</ele>
        <time>2026-07-12T19:34:57.000Z</time>
      </trkpt>
      <trkpt lat="43.38118" lon="-1.66429">
        <ele>5</ele>
        <time>2026-07-12T19:35:01.000Z</time>
      </trkpt>
      <trkpt lat="43.38129" lon="-1.66448">
        <ele>5</ele>
        <time>2026-07-12T19:35:04.000Z</time>
      </trkpt>
      <trkpt lat="43.38141" lon="-1.66462">
        <ele>4</ele>
        <time>2026-07-12T19:35:07.000Z</time>
      </trkpt>
      <trkpt lat="43.38223" lon="-1.66552">
        <ele>3</ele>
        <time>2026-07-12T19:35:25.000Z</time>
      </trkpt>
      <trkpt lat="43.38274" lon="-1.66679">
        <ele>5</ele>
        <time>2026-07-12T19:35:44.000Z</time>
      </trkpt>
      <trkpt lat="43.38286" lon="-1.66703">
        <ele>6</ele>
        <time>2026-07-12T19:35:48.000Z</time>
      </trkpt>
      <trkpt lat="43.38305" lon="-1.66747">
        <ele>7</ele>
        <time>2026-07-12T19:35:54.000Z</time>
      </trkpt>
      <trkpt lat="43.38314" lon="-1.6676">
        <ele>7</ele>
        <time>2026-07-12T19:35:57.000Z</time>
      </trkpt>
      <trkpt lat="43.38344" lon="-1.66759">
        <ele>7</ele>
        <time>2026-07-12T19:36:02.000Z</time>
      </trkpt>
      <trkpt lat="43.38366" lon="-1.66755">
        <ele>6</ele>
        <time>2026-07-12T19:36:06.000Z</time>
      </trkpt>
      <trkpt lat="43.38378" lon="-1.66744">
        <ele>5</ele>
        <time>2026-07-12T19:36:09.000Z</time>
      </trkpt>
      <trkpt lat="43.38449" lon="-1.66646">
        <ele>4</ele>
        <time>2026-07-12T19:36:26.000Z</time>
      </trkpt>
      <trkpt lat="43.38446" lon="-1.66639">
        <ele>4</ele>
        <time>2026-07-12T19:36:28.000Z</time>
      </trkpt>
      <trkpt lat="43.38446" lon="-1.66631">
        <ele>4</ele>
        <time>2026-07-12T19:36:29.000Z</time>
      </trkpt>
      <trkpt lat="43.38411" lon="-1.66589">
        <ele>4</ele>
        <time>2026-07-12T19:36:37.000Z</time>
      </trkpt>
      <trkpt lat="43.38408" lon="-1.66568">
        <ele>4</ele>
        <time>2026-07-12T19:36:40.000Z</time>
      </trkpt>
      <trkpt lat="43.38416" lon="-1.66546">
        <ele>4</ele>
        <time>2026-07-12T19:36:43.000Z</time>
      </trkpt>
      <trkpt lat="43.38482" lon="-1.6642">
        <ele>5</ele>
        <time>2026-07-12T19:37:03.000Z</time>
      </trkpt>
      <trkpt lat="43.38517" lon="-1.66346">
        <ele>2</ele>
        <time>2026-07-12T19:37:14.000Z</time>
      </trkpt>
      <trkpt lat="43.38548" lon="-1.66274">
        <ele>3</ele>
        <time>2026-07-12T19:37:25.000Z</time>
      </trkpt>
      <trkpt lat="43.38558" lon="-1.6625">
        <ele>3</ele>
        <time>2026-07-12T19:37:29.000Z</time>
      </trkpt>
      <trkpt lat="43.38566" lon="-1.66229">
        <ele>3</ele>
        <time>2026-07-12T19:37:32.000Z</time>
      </trkpt>
      <trkpt lat="43.38574" lon="-1.66212">
        <ele>4</ele>
        <time>2026-07-12T19:37:34.000Z</time>
      </trkpt>
      <trkpt lat="43.38589" lon="-1.66194">
        <ele>4</ele>
        <time>2026-07-12T19:37:38.000Z</time>
      </trkpt>
      <trkpt lat="43.3859" lon="-1.66189">
        <ele>4</ele>
        <time>2026-07-12T19:37:39.000Z</time>
      </trkpt>
      <trkpt lat="43.38593" lon="-1.66178">
        <ele>4</ele>
        <time>2026-07-12T19:37:40.000Z</time>
      </trkpt>
      <trkpt lat="43.38598" lon="-1.66173">
        <ele>5</ele>
        <time>2026-07-12T19:37:41.000Z</time>
      </trkpt>
      <trkpt lat="43.38603" lon="-1.6617">
        <ele>5</ele>
        <time>2026-07-12T19:37:42.000Z</time>
      </trkpt>
      <trkpt lat="43.38609" lon="-1.6617">
        <ele>5</ele>
        <time>2026-07-12T19:37:43.000Z</time>
      </trkpt>
      <trkpt lat="43.38615" lon="-1.66172">
        <ele>6</ele>
        <time>2026-07-12T19:37:44.000Z</time>
      </trkpt>
      <trkpt lat="43.38623" lon="-1.66181">
        <ele>6</ele>
        <time>2026-07-12T19:37:46.000Z</time>
      </trkpt>
      <trkpt lat="43.38625" lon="-1.66195">
        <ele>5</ele>
        <time>2026-07-12T19:37:48.000Z</time>
      </trkpt>
      <trkpt lat="43.3863" lon="-1.66198">
        <ele>6</ele>
        <time>2026-07-12T19:37:49.000Z</time>
      </trkpt>
      <trkpt lat="43.38654" lon="-1.66271">
        <ele>3</ele>
        <time>2026-07-12T19:37:59.000Z</time>
      </trkpt>
      <trkpt lat="43.38665" lon="-1.66299">
        <ele>2</ele>
        <time>2026-07-12T19:38:03.000Z</time>
      </trkpt>
      <trkpt lat="43.38674" lon="-1.66306">
        <ele>2</ele>
        <time>2026-07-12T19:38:05.000Z</time>
      </trkpt>
      <trkpt lat="43.3868" lon="-1.66306">
        <ele>2</ele>
        <time>2026-07-12T19:38:06.000Z</time>
      </trkpt>
      <trkpt lat="43.38685" lon="-1.66309">
        <ele>2</ele>
        <time>2026-07-12T19:38:07.000Z</time>
      </trkpt>
      <trkpt lat="43.38688" lon="-1.66317">
        <ele>2</ele>
        <time>2026-07-12T19:38:08.000Z</time>
      </trkpt>
      <trkpt lat="43.38687" lon="-1.66329">
        <ele>1</ele>
        <time>2026-07-12T19:38:10.000Z</time>
      </trkpt>
      <trkpt lat="43.38682" lon="-1.66334">
        <ele>1</ele>
        <time>2026-07-12T19:38:11.000Z</time>
      </trkpt>
      <trkpt lat="43.38678" lon="-1.66335">
        <ele>1</ele>
        <time>2026-07-12T19:38:12.000Z</time>
      </trkpt>
      <trkpt lat="43.3867" lon="-1.66331">
        <ele>4</ele>
        <time>2026-07-12T19:38:13.000Z</time>
      </trkpt>
      <trkpt lat="43.38668" lon="-1.66327">
        <ele>4</ele>
        <time>2026-07-12T19:38:14.000Z</time>
      </trkpt>
      <trkpt lat="43.38651" lon="-1.66328">
        <ele>4</ele>
        <time>2026-07-12T19:38:17.000Z</time>
      </trkpt>
      <trkpt lat="43.38651" lon="-1.66321">
        <ele>4</ele>
        <time>2026-07-12T19:38:18.000Z</time>
      </trkpt>
      <trkpt lat="43.38666" lon="-1.66322">
        <ele>1</ele>
        <time>2026-07-12T19:38:21.000Z</time>
      </trkpt>
    </trkseg>
  </trk>
</gpx>